<?xml version='1.0' encoding='UTF-8'?><gpx version="1.1" creator="JPX - https://github.com/jenetics/jpx" xmlns="http://www.topografix.com/GPX/1/1"><trk><trkseg><trkpt lat="41.960853038922245" lon="12.795426343932641"><ele>239.99999999999997</ele><time>2026-04-25T13:35:39Z</time></trkpt><trkpt lat="41.96087855193496" lon="12.795515172986832"><ele>239.0</ele><time>2026-04-25T13:35:45Z</time></trkpt><trkpt lat="41.96093326765785" lon="12.795564398695184"><ele>238.0</ele><time>2026-04-25T13:35:49Z</time></trkpt><trkpt lat="41.96099245141695" lon="12.795646973414252"><ele>237.0</ele><time>2026-04-25T13:36:11Z</time></trkpt><trkpt lat="41.96102852410749" lon="12.795746919322335"><ele>235.99999999999997</ele><time>2026-04-25T13:36:14Z</time></trkpt><trkpt lat="41.9610917762946" lon="12.79583749518086"><ele>235.0</ele><time>2026-04-25T13:36:16Z</time></trkpt><trkpt lat="41.96114400678742" lon="12.795911543496075"><ele>234.99999999999997</ele><time>2026-04-25T13:36:19Z</time></trkpt><trkpt lat="41.961186359904424" lon="12.795979570310912"><ele>235.0</ele><time>2026-04-25T13:36:24Z</time></trkpt><trkpt lat="41.961246557345426" lon="12.796055209503793"><ele>235.0</ele><time>2026-04-25T13:36:28Z</time></trkpt><trkpt lat="41.961312154036115" lon="12.796163342675138"><ele>235.0</ele><time>2026-04-25T13:36:30Z</time></trkpt><trkpt lat="41.96134072462772" lon="12.796272453128172"><ele>234.99999999999997</ele><time>2026-04-25T13:36:32Z</time></trkpt><trkpt lat="41.9613137365791" lon="12.796380466984004"><ele>235.0</ele><time>2026-04-25T13:36:35Z</time></trkpt><trkpt lat="41.96124677518139" lon="12.796426143090802"><ele>235.85714285714283</ele><time>2026-04-25T13:36:37Z</time></trkpt><trkpt lat="41.96119263754715" lon="12.796478506970667"><ele>236.7142857142857</ele><time>2026-04-25T13:36:40Z</time></trkpt><trkpt lat="41.96112441537789" lon="12.796523951029865"><ele>237.57142857142856</ele><time>2026-04-25T13:36:44Z</time></trkpt><trkpt lat="41.9610589784574" lon="12.796577000364719"><ele>238.42857142857144</ele><time>2026-04-25T13:36:48Z</time></trkpt><trkpt lat="41.9609995341777" lon="12.796615969007636"><ele>239.2857142857143</ele><time>2026-04-25T13:36:59Z</time></trkpt><trkpt lat="41.96094121719164" lon="12.796556965842727"><ele>240.14285714285717</ele><time>2026-04-25T13:37:05.999Z</time></trkpt><trkpt lat="41.960898345984226" lon="12.796484900062955"><ele>241.0</ele><time>2026-04-25T13:37:08.999Z</time></trkpt><trkpt lat="41.96084239077697" lon="12.79640732175557"><ele>240.99999999999997</ele><time>2026-04-25T13:37:12.999Z</time></trkpt><trkpt lat="41.96078761834137" lon="12.796330078844727"><ele>241.0</ele><time>2026-04-25T13:37:15.999Z</time></trkpt><trkpt lat="41.960739482662554" lon="12.796254416414598"><ele>241.0</ele><time>2026-04-25T13:37:18.999Z</time></trkpt><trkpt lat="41.96069903252933" lon="12.79616235264746"><ele>241.0</ele><time>2026-04-25T13:37:21.999Z</time></trkpt><trkpt lat="41.960650745126024" lon="12.796086599643406"><ele>240.99999999999997</ele><time>2026-04-25T13:37:23.999Z</time></trkpt><trkpt lat="41.960601880835654" lon="12.795986281857825"><ele>241.0</ele><time>2026-04-25T13:37:25.999Z</time></trkpt><trkpt lat="41.96054173148062" lon="12.795869624249137"><ele>240.99999999999997</ele><time>2026-04-25T13:37:27.999Z</time></trkpt><trkpt lat="41.960483346931156" lon="12.795775725686834"><ele>241.0</ele><time>2026-04-25T13:37:29.999Z</time></trkpt><trkpt lat="41.96043214016433" lon="12.795670878883554"><ele>241.0</ele><time>2026-04-25T13:37:31.999Z</time></trkpt><trkpt lat="41.9603966313491" lon="12.795595397536609"><ele>241.0</ele><time>2026-04-25T13:37:33.999Z</time></trkpt><trkpt lat="41.960332362491464" lon="12.79550526240073"><ele>240.99999999999997</ele><time>2026-04-25T13:37:36.999Z</time></trkpt><trkpt lat="41.96027327235963" lon="12.795433353349699"><ele>241.0</ele><time>2026-04-25T13:37:39Z</time></trkpt><trkpt lat="41.960185192348995" lon="12.79537068056625"><ele>240.99999999999997</ele><time>2026-04-25T13:37:41Z</time></trkpt><trkpt lat="41.96007908333067" lon="12.795309223036277"><ele>241.0</ele><time>2026-04-25T13:37:43Z</time></trkpt><trkpt lat="41.96002127862404" lon="12.795247472113948"><ele>241.0</ele><time>2026-04-25T13:37:44Z</time></trkpt><trkpt lat="41.9599699152941" lon="12.795197516258527"><ele>241.0</ele><time>2026-04-25T13:37:45Z</time></trkpt><trkpt lat="41.959910374179834" lon="12.795149961286896"><ele>240.99999999999997</ele><time>2026-04-25T13:37:46Z</time></trkpt><trkpt lat="41.959846258085186" lon="12.79509197243422"><ele>241.0</ele><time>2026-04-25T13:37:47Z</time></trkpt><trkpt lat="41.95979205245729" lon="12.795039200877742"><ele>241.16666666666666</ele><time>2026-04-25T13:37:48Z</time></trkpt><trkpt lat="41.959723654278896" lon="12.794984608498087"><ele>241.33333333333331</ele><time>2026-04-25T13:37:49Z</time></trkpt><trkpt lat="41.95965795983935" lon="12.794922025290123"><ele>241.5</ele><time>2026-04-25T13:37:50Z</time></trkpt><trkpt lat="41.959597049634354" lon="12.79486241512149"><ele>241.66666666666669</ele><time>2026-04-25T13:37:51Z</time></trkpt><trkpt lat="41.9595223066427" lon="12.794828326030169"><ele>241.83333333333334</ele><time>2026-04-25T13:37:52Z</time></trkpt><trkpt lat="41.95944439662947" lon="12.794773913467573"><ele>242.0</ele><time>2026-04-25T13:37:53Z</time></trkpt><trkpt lat="41.959371528949234" lon="12.794719652418758"><ele>242.0</ele><time>2026-04-25T13:37:54Z</time></trkpt><trkpt lat="41.959304023943176" lon="12.794663965815568"><ele>242.0</ele><time>2026-04-25T13:37:55Z</time></trkpt><trkpt lat="41.9592226456286" lon="12.794594969329042"><ele>242.0</ele><time>2026-04-25T13:37:56Z</time></trkpt><trkpt lat="41.95914035259014" lon="12.794526883642208"><ele>242.0</ele><time>2026-04-25T13:37:57Z</time></trkpt><trkpt lat="41.959061463939754" lon="12.794450892950712"><ele>242.0</ele><time>2026-04-25T13:37:58Z</time></trkpt><trkpt lat="41.958985853984004" lon="12.794380990227989"><ele>240.39999999999998</ele><time>2026-04-25T13:37:59Z</time></trkpt><trkpt lat="41.95891019126956" lon="12.794314846914052"><ele>238.79999999999998</ele><time>2026-04-25T13:38:00Z</time></trkpt><trkpt lat="41.9588339974916" lon="12.79424926742693"><ele>237.2</ele><time>2026-04-25T13:38:01Z</time></trkpt><trkpt lat="41.95875518462155" lon="12.79418193421109"><ele>235.6</ele><time>2026-04-25T13:38:02Z</time></trkpt><trkpt lat="41.95867299238457" lon="12.79411338606362"><ele>234.0</ele><time>2026-04-25T13:38:03Z</time></trkpt><trkpt lat="41.958589849395715" lon="12.794052092332969"><ele>234.0</ele><time>2026-04-25T13:38:04Z</time></trkpt><trkpt lat="41.95851128039217" lon="12.793978257378257"><ele>233.99999999999997</ele><time>2026-04-25T13:38:05Z</time></trkpt><trkpt lat="41.958432135442834" lon="12.79390913973276"><ele>233.99999999999997</ele><time>2026-04-25T13:38:06Z</time></trkpt><trkpt lat="41.95834840226343" lon="12.793847565828978"><ele>234.0</ele><time>2026-04-25T13:38:07Z</time></trkpt><trkpt lat="41.95826642007345" lon="12.793777967675224"><ele>234.0</ele><time>2026-04-25T13:38:08Z</time></trkpt><trkpt lat="41.9581901183532" lon="12.793712861064785"><ele>233.16666666666666</ele><time>2026-04-25T13:38:09Z</time></trkpt><trkpt lat="41.958140983141405" lon="12.793589751347877"><ele>232.33333333333331</ele><time>2026-04-25T13:38:10Z</time></trkpt><trkpt lat="41.95806669160031" lon="12.793536361150359"><ele>231.5</ele><time>2026-04-25T13:38:11Z</time></trkpt><trkpt lat="41.95799872689177" lon="12.793487863984575"><ele>230.66666666666666</ele><time>2026-04-25T13:38:12Z</time></trkpt><trkpt lat="41.95793445526938" lon="12.793442002088625"><ele>229.83333333333331</ele><time>2026-04-25T13:38:13Z</time></trkpt><trkpt lat="41.95787195397877" lon="12.793397403427154"><ele>229.0</ele><time>2026-04-25T13:38:14Z</time></trkpt><trkpt lat="41.95781468530718" lon="12.793356538576775"><ele>229.0</ele><time>2026-04-25T13:38:15Z</time></trkpt><trkpt lat="41.957726008982306" lon="12.793293646035243"><ele>228.99999999999997</ele><time>2026-04-25T13:38:17Z</time></trkpt><trkpt lat="41.957668958621134" lon="12.793254007862693"><ele>228.99999999999997</ele><time>2026-04-25T13:38:20Z</time></trkpt><trkpt lat="41.95772930267157" lon="12.793445344270896"><ele>229.0</ele><time>2026-04-25T13:38:57Z</time></trkpt><trkpt lat="41.957792773161565" lon="12.79347235245773"><ele>229.0</ele><time>2026-04-25T13:38:58Z</time></trkpt><trkpt lat="41.957868995857204" lon="12.793504784134338"><ele>232.0</ele><time>2026-04-25T13:38:59Z</time></trkpt><trkpt lat="41.957940752163395" lon="12.793558900084298"><ele>234.99999999999997</ele><time>2026-04-25T13:39:00Z</time></trkpt><trkpt lat="41.95802313368935" lon="12.793608914062354"><ele>237.99999999999997</ele><time>2026-04-25T13:39:01Z</time></trkpt><trkpt lat="41.958104198276885" lon="12.793668259982867"><ele>241.0</ele><time>2026-04-25T13:39:02Z</time></trkpt><trkpt lat="41.958190068527394" lon="12.793724456809446"><ele>244.0</ele><time>2026-04-25T13:39:03Z</time></trkpt><trkpt lat="41.958275926321086" lon="12.793781978302505"><ele>244.0</ele><time>2026-04-25T13:39:04Z</time></trkpt><trkpt lat="41.95836434729539" lon="12.793842713178217"><ele>243.99999999999997</ele><time>2026-04-25T13:39:05Z</time></trkpt><trkpt lat="41.95845561878643" lon="12.793908244174853"><ele>243.99999999999997</ele><time>2026-04-25T13:39:06Z</time></trkpt><trkpt lat="41.958547186474064" lon="12.793988699865201"><ele>244.0</ele><time>2026-04-25T13:39:07Z</time></trkpt><trkpt lat="41.9586369016287" lon="12.794063651300037"><ele>244.0</ele><time>2026-04-25T13:39:08Z</time></trkpt><trkpt lat="41.958724486071475" lon="12.794147161535376"><ele>245.25</ele><time>2026-04-25T13:39:09Z</time></trkpt><trkpt lat="41.958822980836786" lon="12.794217652646532"><ele>246.5</ele><time>2026-04-25T13:39:10Z</time></trkpt><trkpt lat="41.95892316174302" lon="12.794294420787264"><ele>247.75</ele><time>2026-04-25T13:39:11Z</time></trkpt><trkpt lat="41.95902987494145" lon="12.794384030210491"><ele>249.0</ele><time>2026-04-25T13:39:12Z</time></trkpt><trkpt lat="41.95913281401742" lon="12.794471555736367"><ele>247.25</ele><time>2026-04-25T13:39:12.999Z</time></trkpt><trkpt lat="41.95923553726608" lon="12.794562727720901"><ele>245.5</ele><time>2026-04-25T13:39:13.999Z</time></trkpt><trkpt lat="41.95934082609058" lon="12.794647569455632"><ele>243.75</ele><time>2026-04-25T13:39:14.999Z</time></trkpt><trkpt lat="41.959446569850044" lon="12.794736422260323"><ele>242.0</ele><time>2026-04-25T13:39:15.999Z</time></trkpt><trkpt lat="41.95955087576334" lon="12.794826421888638"><ele>242.0</ele><time>2026-04-25T13:39:16.999Z</time></trkpt><trkpt lat="41.959655408061366" lon="12.79490110260035"><ele>242.0</ele><time>2026-04-25T13:39:17.999Z</time></trkpt><trkpt lat="41.959751327871714" lon="12.794996402099692"><ele>242.0</ele><time>2026-04-25T13:39:18.999Z</time></trkpt><trkpt lat="41.95983196442683" lon="12.795077145252108"><ele>242.0</ele><time>2026-04-25T13:39:19.999Z</time></trkpt><trkpt lat="41.95990661890119" lon="12.795128707452772"><ele>242.0</ele><time>2026-04-25T13:39:20.999Z</time></trkpt><trkpt lat="41.95997838188092" lon="12.795179296529568"><ele>241.83333333333334</ele><time>2026-04-25T13:39:21.999Z</time></trkpt><trkpt lat="41.960078193304156" lon="12.795267841786787"><ele>241.66666666666669</ele><time>2026-04-25T13:39:23.999Z</time></trkpt><trkpt lat="41.960120168824645" lon="12.795339590308405"><ele>241.5</ele><time>2026-04-25T13:39:25.999Z</time></trkpt><trkpt lat="41.96006868925594" lon="12.795392304917451"><ele>241.33333333333331</ele><time>2026-04-25T13:39:27.999Z</time></trkpt><trkpt lat="41.95997623515266" lon="12.79532328196006"><ele>241.16666666666666</ele><time>2026-04-25T13:39:29.999Z</time></trkpt><trkpt lat="41.959929067751325" lon="12.795251758777402"><ele>241.0</ele><time>2026-04-25T13:39:30.999Z</time></trkpt><trkpt lat="41.95987010412725" lon="12.79520862118318"><ele>241.16666666666666</ele><time>2026-04-25T13:39:31.999Z</time></trkpt><trkpt lat="41.959804680556644" lon="12.795160979824463"><ele>241.33333333333331</ele><time>2026-04-25T13:39:32.999Z</time></trkpt><trkpt lat="41.95972753936803" lon="12.795104805737822"><ele>241.5</ele><time>2026-04-25T13:39:33.999Z</time></trkpt><trkpt lat="41.95965173923678" lon="12.795049608188428"><ele>241.66666666666669</ele><time>2026-04-25T13:39:34.999Z</time></trkpt><trkpt lat="41.95958251638421" lon="12.79499920022164"><ele>241.83333333333334</ele><time>2026-04-25T13:39:35.999Z</time></trkpt><trkpt lat="41.959511214581205" lon="12.794947278377421"><ele>242.0</ele><time>2026-04-25T13:39:36.999Z</time></trkpt><trkpt lat="41.95943257383593" lon="12.794890154248668"><ele>242.0</ele><time>2026-04-25T13:39:37.999Z</time></trkpt><trkpt lat="41.95935861230901" lon="12.794836194622686"><ele>242.0</ele><time>2026-04-25T13:39:38.999Z</time></trkpt><trkpt lat="41.959283085146126" lon="12.794781277792133"><ele>242.0</ele><time>2026-04-25T13:39:39.999Z</time></trkpt><trkpt lat="41.95920095867791" lon="12.794721562487176"><ele>242.0</ele><time>2026-04-25T13:39:40.999Z</time></trkpt><trkpt lat="41.95911704858776" lon="12.794655180468766"><ele>242.0</ele><time>2026-04-25T13:39:41.999Z</time></trkpt><trkpt lat="41.95903486055777" lon="12.794590407983163"><ele>243.39999999999998</ele><time>2026-04-25T13:39:42.999Z</time></trkpt><trkpt lat="41.95894071287436" lon="12.794516210059477"><ele>244.79999999999998</ele><time>2026-04-25T13:39:43.999Z</time></trkpt><trkpt lat="41.95885805660129" lon="12.794453993348153"><ele>246.2</ele><time>2026-04-25T13:39:44.999Z</time></trkpt><trkpt lat="41.95878532832977" lon="12.794399518751105"><ele>247.6</ele><time>2026-04-25T13:39:45.999Z</time></trkpt><trkpt lat="41.95870938235581" lon="12.79434263405284"><ele>249.0</ele><time>2026-04-25T13:39:46.999Z</time></trkpt><trkpt lat="41.95863351608961" lon="12.794286075397737"><ele>248.16666666666666</ele><time>2026-04-25T13:39:47.999Z</time></trkpt><trkpt lat="41.958553248567895" lon="12.794227030605262"><ele>247.33333333333331</ele><time>2026-04-25T13:39:48.999Z</time></trkpt><trkpt lat="41.95846131677799" lon="12.79415940553397"><ele>246.5</ele><time>2026-04-25T13:39:49.999Z</time></trkpt><trkpt lat="41.958380736577766" lon="12.794100130720718"><ele>245.66666666666666</ele><time>2026-04-25T13:39:50.999Z</time></trkpt><trkpt lat="41.95831267404998" lon="12.794052547861456"><ele>244.83333333333331</ele><time>2026-04-25T13:39:51.999Z</time></trkpt><trkpt lat="41.95823958841637" lon="12.794002261180877"><ele>244.0</ele><time>2026-04-25T13:39:52.999Z</time></trkpt><trkpt lat="41.9581500599597" lon="12.793953665873225"><ele>244.0</ele><time>2026-04-25T13:39:53.999Z</time></trkpt><trkpt lat="41.95806061419242" lon="12.793925211134662"><ele>243.99999999999997</ele><time>2026-04-25T13:39:54.999Z</time></trkpt><trkpt lat="41.95796990291993" lon="12.793897553314043"><ele>243.99999999999997</ele><time>2026-04-25T13:39:55.999Z</time></trkpt><trkpt lat="41.95786987257004" lon="12.793863277857323"><ele>244.0</ele><time>2026-04-25T13:39:56.999Z</time></trkpt><trkpt lat="41.957769081552755" lon="12.793828741160858"><ele>244.0</ele><time>2026-04-25T13:39:57.999Z</time></trkpt><trkpt lat="41.957677055455655" lon="12.793797205742363"><ele>244.0</ele><time>2026-04-25T13:39:58.999Z</time></trkpt><trkpt lat="41.957588104457955" lon="12.79376758963537"><ele>243.99999999999997</ele><time>2026-04-25T13:39:59.999Z</time></trkpt><trkpt lat="41.957493000754454" lon="12.793737012075665"><ele>243.99999999999997</ele><time>2026-04-25T13:40:00.999Z</time></trkpt><trkpt lat="41.95739637882841" lon="12.793705946378891"><ele>244.0</ele><time>2026-04-25T13:40:01.999Z</time></trkpt><trkpt lat="41.957304005384145" lon="12.793676786475698"><ele>244.0</ele><time>2026-04-25T13:40:02.999Z</time></trkpt><trkpt lat="41.95719464560684" lon="12.793642922436693"><ele>242.2</ele><time>2026-04-25T13:40:03.999Z</time></trkpt><trkpt lat="41.957100804541916" lon="12.79361386388749"><ele>240.39999999999998</ele><time>2026-04-25T13:40:04.999Z</time></trkpt><trkpt lat="41.95700253330141" lon="12.793583433493518"><ele>238.6</ele><time>2026-04-25T13:40:05.999Z</time></trkpt><trkpt lat="41.956903928866915" lon="12.793552899927505"><ele>236.8</ele><time>2026-04-25T13:40:06.999Z</time></trkpt><trkpt lat="41.95680835049577" lon="12.793529873870721"><ele>235.0</ele><time>2026-04-25T13:40:07.999Z</time></trkpt><trkpt lat="41.95670942243695" lon="12.793498661543792"><ele>236.8</ele><time>2026-04-25T13:40:08.999Z</time></trkpt><trkpt lat="41.95661379954185" lon="12.793465031279935"><ele>238.6</ele><time>2026-04-25T13:40:09.999Z</time></trkpt><trkpt lat="41.95651496241916" lon="12.793436102736784"><ele>240.39999999999998</ele><time>2026-04-25T13:40:10.999Z</time></trkpt><trkpt lat="41.956412666702754" lon="12.793402083044132"><ele>242.2</ele><time>2026-04-25T13:40:11.999Z</time></trkpt><trkpt lat="41.956324362277925" lon="12.793338164415506"><ele>244.0</ele><time>2026-04-25T13:40:12.999Z</time></trkpt><trkpt lat="41.95622785760471" lon="12.793292146173734"><ele>244.0</ele><time>2026-04-25T13:40:13.999Z</time></trkpt><trkpt lat="41.9561277115399" lon="12.793244372790376"><ele>243.99999999999997</ele><time>2026-04-25T13:40:14.999Z</time></trkpt><trkpt lat="41.95603666358724" lon="12.793200109260265"><ele>243.99999999999997</ele><time>2026-04-25T13:40:15.999Z</time></trkpt><trkpt lat="41.95591864151708" lon="12.793222559801654"><ele>244.0</ele><time>2026-04-25T13:40:16.999Z</time></trkpt><trkpt lat="41.95582404925548" lon="12.793189177781535"><ele>244.0</ele><time>2026-04-25T13:40:17.999Z</time></trkpt><trkpt lat="41.955724612575295" lon="12.793147974357588"><ele>245.6</ele><time>2026-04-25T13:40:18.999Z</time></trkpt><trkpt lat="41.955622526496285" lon="12.793114623990236"><ele>247.2</ele><time>2026-04-25T13:40:19.999Z</time></trkpt><trkpt lat="41.95552633091623" lon="12.793077829715537"><ele>248.79999999999998</ele><time>2026-04-25T13:40:20.999Z</time></trkpt><trkpt lat="41.95542158841879" lon="12.793043380661134"><ele>250.39999999999998</ele><time>2026-04-25T13:40:21.999Z</time></trkpt><trkpt lat="41.9553132003283" lon="12.793020820043134"><ele>252.0</ele><time>2026-04-25T13:40:22.999Z</time></trkpt><trkpt lat="41.95521248257834" lon="12.792986127270577"><ele>252.0</ele><time>2026-04-25T13:40:23.999Z</time></trkpt><trkpt lat="41.95512156019707" lon="12.79290672007408"><ele>252.0</ele><time>2026-04-25T13:40:24.999Z</time></trkpt><trkpt lat="41.95503318012949" lon="12.792877610151518"><ele>252.0</ele><time>2026-04-25T13:40:25.999Z</time></trkpt><trkpt lat="41.954928663633716" lon="12.79284186780332"><ele>252.0</ele><time>2026-04-25T13:40:26.999Z</time></trkpt><trkpt lat="41.9548256964858" lon="12.792804927222644"><ele>252.0</ele><time>2026-04-25T13:40:27.999Z</time></trkpt><trkpt lat="41.95472295013974" lon="12.792765425130554"><ele>252.0</ele><time>2026-04-25T13:40:28.999Z</time></trkpt><trkpt lat="41.95462156247932" lon="12.792733258164445"><ele>252.0</ele><time>2026-04-25T13:40:29.999Z</time></trkpt><trkpt lat="41.95451337643639" lon="12.79272361869357"><ele>252.0</ele><time>2026-04-25T13:40:30.999Z</time></trkpt><trkpt lat="41.95440771341024" lon="12.792732384453148"><ele>252.0</ele><time>2026-04-25T13:40:31.999Z</time></trkpt><trkpt lat="41.954319324658535" lon="12.792772314054305"><ele>252.0</ele><time>2026-04-25T13:40:32.999Z</time></trkpt><trkpt lat="41.954202914118426" lon="12.792796528079682"><ele>252.0</ele><time>2026-04-25T13:40:33.999Z</time></trkpt><trkpt lat="41.95410083287057" lon="12.792815089602176"><ele>252.0</ele><time>2026-04-25T13:40:34.999Z</time></trkpt><trkpt lat="41.95400629555156" lon="12.792824161684123"><ele>252.0</ele><time>2026-04-25T13:40:35.999Z</time></trkpt><trkpt lat="41.95392779440686" lon="12.792830689999358"><ele>252.0</ele><time>2026-04-25T13:40:36.999Z</time></trkpt><trkpt lat="41.95385955094272" lon="12.792836492369453"><ele>252.0</ele><time>2026-04-25T13:40:37.999Z</time></trkpt><trkpt lat="41.953751206748635" lon="12.79279989902809"><ele>252.0</ele><time>2026-04-25T13:40:39.999Z</time></trkpt><trkpt lat="41.95366502685288" lon="12.79285340837243"><ele>252.0</ele><time>2026-04-25T13:40:41.999Z</time></trkpt><trkpt lat="41.95358153299366" lon="12.792859600015328"><ele>252.0</ele><time>2026-04-25T13:40:43.999Z</time></trkpt><trkpt lat="41.953486085909795" lon="12.79286229582126"><ele>252.0</ele><time>2026-04-25T13:40:45.999Z</time></trkpt><trkpt lat="41.953382165781" lon="12.79286717817742"><ele>252.0</ele><time>2026-04-25T13:40:47.999Z</time></trkpt><trkpt lat="41.95326681891175" lon="12.79284610960888"><ele>252.33333333333334</ele><time>2026-04-25T13:40:49.999Z</time></trkpt><trkpt lat="41.95319603538897" lon="12.792852910987568"><ele>252.66666666666669</ele><time>2026-04-25T13:40:50.999Z</time></trkpt><trkpt lat="41.95312155297426" lon="12.79286006778748"><ele>253.0</ele><time>2026-04-25T13:40:51.999Z</time></trkpt><trkpt lat="41.953042380352734" lon="12.792867675248862"><ele>253.33333333333334</ele><time>2026-04-25T13:40:52.999Z</time></trkpt><trkpt lat="41.952966417195725" lon="12.792874974324615"><ele>253.66666666666669</ele><time>2026-04-25T13:40:53.999Z</time></trkpt><trkpt lat="41.95289117887896" lon="12.792883138107634"><ele>254.0</ele><time>2026-04-25T13:40:54.999Z</time></trkpt><trkpt lat="41.952816144090015" lon="12.792891766816167"><ele>254.00000000000003</ele><time>2026-04-25T13:40:55.999Z</time></trkpt><trkpt lat="41.952728387682555" lon="12.792905155475692"><ele>254.0</ele><time>2026-04-25T13:40:56.999Z</time></trkpt><trkpt lat="41.95264765671058" lon="12.792919730547615"><ele>254.0</ele><time>2026-04-25T13:40:57.999Z</time></trkpt><trkpt lat="41.952574186285034" lon="12.792951895021988"><ele>254.0</ele><time>2026-04-25T13:40:58.999Z</time></trkpt><trkpt lat="41.95246573421849" lon="12.7929792445688"><ele>254.00000000000003</ele><time>2026-04-25T13:41:00.999Z</time></trkpt><trkpt lat="41.95239903747985" lon="12.79298822796347"><ele>254.0</ele><time>2026-04-25T13:41:01.999Z</time></trkpt><trkpt lat="41.952327999467414" lon="12.793011907493856"><ele>253.16666666666669</ele><time>2026-04-25T13:41:02.999Z</time></trkpt><trkpt lat="41.95225435493484" lon="12.793064804727518"><ele>252.33333333333334</ele><time>2026-04-25T13:41:03.999Z</time></trkpt><trkpt lat="41.952181728915896" lon="12.793093650056926"><ele>251.5</ele><time>2026-04-25T13:41:04.999Z</time></trkpt><trkpt lat="41.952106437638164" lon="12.79311106747091"><ele>250.66666666666669</ele><time>2026-04-25T13:41:05.999Z</time></trkpt><trkpt lat="41.95201873836781" lon="12.793137715506555"><ele>249.83333333333334</ele><time>2026-04-25T13:41:06.999Z</time></trkpt><trkpt lat="41.9519282943121" lon="12.79311185808824"><ele>249.0</ele><time>2026-04-25T13:41:07.999Z</time></trkpt><trkpt lat="41.95184505946012" lon="12.793135248731868"><ele>249.0</ele><time>2026-04-25T13:41:08.999Z</time></trkpt><trkpt lat="41.9517517620787" lon="12.793161956416235"><ele>249.0</ele><time>2026-04-25T13:41:09.999Z</time></trkpt><trkpt lat="41.95167282760166" lon="12.793185403738565"><ele>249.0</ele><time>2026-04-25T13:41:10.999Z</time></trkpt><trkpt lat="41.95160282010972" lon="12.793228163574282"><ele>249.0</ele><time>2026-04-25T13:41:11.999Z</time></trkpt><trkpt lat="41.95153310919731" lon="12.793233648535002"><ele>249.0</ele><time>2026-04-25T13:41:12.999Z</time></trkpt><trkpt lat="41.951435155596435" lon="12.793261101048857"><ele>249.0</ele><time>2026-04-25T13:41:14.999Z</time></trkpt><trkpt lat="41.95136321405884" lon="12.793268895404529"><ele>250.6</ele><time>2026-04-25T13:41:16.999Z</time></trkpt><trkpt lat="41.95128995634889" lon="12.793318190832181"><ele>252.2</ele><time>2026-04-25T13:41:18.999Z</time></trkpt><trkpt lat="41.95122336771073" lon="12.793372190688457"><ele>253.79999999999998</ele><time>2026-04-25T13:41:20.999Z</time></trkpt><trkpt lat="41.95113026254572" lon="12.793361957382988"><ele>255.39999999999998</ele><time>2026-04-25T13:41:22.999Z</time></trkpt><trkpt lat="41.951039839357954" lon="12.793439206443074"><ele>257.0</ele><time>2026-04-25T13:41:24.999Z</time></trkpt><trkpt lat="41.950961756864274" lon="12.793534047959296"><ele>257.0</ele><time>2026-04-25T13:41:26.999Z</time></trkpt><trkpt lat="41.95092525854011" lon="12.793607783253687"><ele>257.0</ele><time>2026-04-25T13:41:27.999Z</time></trkpt><trkpt lat="41.950891763711056" lon="12.79368076616851"><ele>257.0</ele><time>2026-04-25T13:41:28.999Z</time></trkpt><trkpt lat="41.950840795572084" lon="12.793834233314978"><ele>257.0</ele><time>2026-04-25T13:41:30.999Z</time></trkpt><trkpt lat="41.95081211550952" lon="12.793930595943428"><ele>257.0</ele><time>2026-04-25T13:41:31.999Z</time></trkpt><trkpt lat="41.9507919937734" lon="12.794027202945292"><ele>257.0</ele><time>2026-04-25T13:41:32.999Z</time></trkpt><trkpt lat="41.95076273430301" lon="12.79412915933653"><ele>253.0</ele><time>2026-04-25T13:41:33.999Z</time></trkpt><trkpt lat="41.950743340067866" lon="12.794224516826828"><ele>249.0</ele><time>2026-04-25T13:41:34.999Z</time></trkpt><trkpt lat="41.95070481049609" lon="12.794302697366225"><ele>245.0</ele><time>2026-04-25T13:41:35.999Z</time></trkpt><trkpt lat="41.95067429283743" lon="12.794433618338307"><ele>241.0</ele><time>2026-04-25T13:41:37.999Z</time></trkpt><trkpt lat="41.95063880246821" lon="12.794566290535604"><ele>237.0</ele><time>2026-04-25T13:41:39.999Z</time></trkpt><trkpt lat="41.95059589668189" lon="12.794705016162956"><ele>237.0</ele><time>2026-04-25T13:41:41.999Z</time></trkpt><trkpt lat="41.950581792415484" lon="12.794795292536728"><ele>237.0</ele><time>2026-04-25T13:41:42.999Z</time></trkpt><trkpt lat="41.95056131394352" lon="12.794885814845873"><ele>237.0</ele><time>2026-04-25T13:41:43.999Z</time></trkpt><trkpt lat="41.95047998480374" lon="12.794972766404454"><ele>237.0</ele><time>2026-04-25T13:41:45.999Z</time></trkpt><trkpt lat="41.950372398602944" lon="12.794974020753061"><ele>237.0</ele><time>2026-04-25T13:41:47.999Z</time></trkpt><trkpt lat="41.95031256010305" lon="12.79492665890186"><ele>237.0</ele><time>2026-04-25T13:41:48.999Z</time></trkpt><trkpt lat="41.95024692612904" lon="12.794888841301924"><ele>237.0</ele><time>2026-04-25T13:41:49.999Z</time></trkpt><trkpt lat="41.95017117421338" lon="12.794843694017864"><ele>237.0</ele><time>2026-04-25T13:41:50.999Z</time></trkpt><trkpt lat="41.95010283884018" lon="12.794800512151168"><ele>237.0</ele><time>2026-04-25T13:41:51.999Z</time></trkpt><trkpt lat="41.95003149988416" lon="12.794753402286048"><ele>237.0</ele><time>2026-04-25T13:41:52.999Z</time></trkpt><trkpt lat="41.949966427247745" lon="12.79471043049072"><ele>237.0</ele><time>2026-04-25T13:41:53.999Z</time></trkpt><trkpt lat="41.949898589067" lon="12.794671992091704"><ele>237.0</ele><time>2026-04-25T13:41:54.999Z</time></trkpt><trkpt lat="41.94983054280274" lon="12.794668429569368"><ele>235.33333333333334</ele><time>2026-04-25T13:41:55.999Z</time></trkpt><trkpt lat="41.949765728013965" lon="12.794683082890378"><ele>233.66666666666669</ele><time>2026-04-25T13:41:56.999Z</time></trkpt><trkpt lat="41.94970377232171" lon="12.794704834567966"><ele>232.0</ele><time>2026-04-25T13:41:57.999Z</time></trkpt><trkpt lat="41.94963171252188" lon="12.79475589529181"><ele>230.33333333333334</ele><time>2026-04-25T13:41:58.999Z</time></trkpt><trkpt lat="41.94956628052631" lon="12.794813031219281"><ele>228.66666666666669</ele><time>2026-04-25T13:41:59.999Z</time></trkpt><trkpt lat="41.94950033955067" lon="12.794868368933873"><ele>227.0</ele><time>2026-04-25T13:42:00.999Z</time></trkpt><trkpt lat="41.949427400556495" lon="12.794929550724497"><ele>227.00000000000003</ele><time>2026-04-25T13:42:01.999Z</time></trkpt><trkpt lat="41.949366401864225" lon="12.79499418802099"><ele>227.0</ele><time>2026-04-25T13:42:02.999Z</time></trkpt><trkpt lat="41.94930570485353" lon="12.7950687083478"><ele>227.0</ele><time>2026-04-25T13:42:03.999Z</time></trkpt><trkpt lat="41.94923794740044" lon="12.795122121049053"><ele>227.0</ele><time>2026-04-25T13:42:04.999Z</time></trkpt><trkpt lat="41.94917905438579" lon="12.795193818799877"><ele>227.00000000000003</ele><time>2026-04-25T13:42:05.999Z</time></trkpt><trkpt lat="41.94911825466492" lon="12.795267837819678"><ele>227.0</ele><time>2026-04-25T13:42:06.999Z</time></trkpt><trkpt lat="41.949065668304435" lon="12.795344130428084"><ele>228.50000000000003</ele><time>2026-04-25T13:42:07.999Z</time></trkpt><trkpt lat="41.94899358425719" lon="12.795378461887854"><ele>230.0</ele><time>2026-04-25T13:42:08.999Z</time></trkpt><trkpt lat="41.94893489021214" lon="12.795412224624142"><ele>231.5</ele><time>2026-04-25T13:42:09.999Z</time></trkpt><trkpt lat="41.94882516384495" lon="12.795393992148224"><ele>233.0</ele><time>2026-04-25T13:42:11.999Z</time></trkpt><trkpt lat="41.948762151713204" lon="12.795348074413889"><ele>234.50000000000003</ele><time>2026-04-25T13:42:12.999Z</time></trkpt><trkpt lat="41.94870285159988" lon="12.795287717065793"><ele>236.0</ele><time>2026-04-25T13:42:13.999Z</time></trkpt><trkpt lat="41.94863425490372" lon="12.79521308431207"><ele>233.16666666666669</ele><time>2026-04-25T13:42:14.999Z</time></trkpt><trkpt lat="41.94856735488325" lon="12.79513839386323"><ele>230.33333333333334</ele><time>2026-04-25T13:42:15.999Z</time></trkpt><trkpt lat="41.94849562511952" lon="12.795085342544155"><ele>227.5</ele><time>2026-04-25T13:42:16.999Z</time></trkpt><trkpt lat="41.94844503802227" lon="12.794999098165553"><ele>224.66666666666669</ele><time>2026-04-25T13:42:17.999Z</time></trkpt><trkpt lat="41.94838237246468" lon="12.794929123761145"><ele>221.83333333333334</ele><time>2026-04-25T13:42:18.999Z</time></trkpt><trkpt lat="41.94831379866386" lon="12.794866753285735"><ele>219.0</ele><time>2026-04-25T13:42:19.999Z</time></trkpt><trkpt lat="41.9482384372928" lon="12.794818031877343"><ele>219.0</ele><time>2026-04-25T13:42:20.999Z</time></trkpt><trkpt lat="41.94817266074375" lon="12.794783236790174"><ele>219.0</ele><time>2026-04-25T13:42:21.999Z</time></trkpt><trkpt lat="41.948108762277556" lon="12.794763919235129"><ele>219.0</ele><time>2026-04-25T13:42:22.999Z</time></trkpt><trkpt lat="41.94803456312386" lon="12.794772924780455"><ele>219.0</ele><time>2026-04-25T13:42:23.999Z</time></trkpt><trkpt lat="41.94795822120414" lon="12.79478125110813"><ele>219.0</ele><time>2026-04-25T13:42:24.999Z</time></trkpt><trkpt lat="41.947883747599285" lon="12.794807741008198"><ele>219.0</ele><time>2026-04-25T13:42:25.999Z</time></trkpt><trkpt lat="41.94780737672904" lon="12.794813603334335"><ele>219.0</ele><time>2026-04-25T13:42:26.999Z</time></trkpt><trkpt lat="41.947730516398025" lon="12.794836465641957"><ele>219.0</ele><time>2026-04-25T13:42:27.999Z</time></trkpt><trkpt lat="41.947645255566904" lon="12.794868868158215"><ele>219.0</ele><time>2026-04-25T13:42:28.999Z</time></trkpt><trkpt lat="41.94756921436327" lon="12.794923088390194"><ele>219.0</ele><time>2026-04-25T13:42:29.999Z</time></trkpt><trkpt lat="41.947487364300436" lon="12.794951828465724"><ele>219.0</ele><time>2026-04-25T13:42:30.999Z</time></trkpt><trkpt lat="41.94739758389076" lon="12.794975418050951"><ele>219.0</ele><time>2026-04-25T13:42:31.999Z</time></trkpt><trkpt lat="41.94731350629103" lon="12.795011371414386"><ele>219.0</ele><time>2026-04-25T13:42:32.999Z</time></trkpt><trkpt lat="41.94722443697958" lon="12.795046175513036"><ele>218.83333333333334</ele><time>2026-04-25T13:42:33.999Z</time></trkpt><trkpt lat="41.9471413115138" lon="12.795077264003478"><ele>218.66666666666669</ele><time>2026-04-25T13:42:34.999Z</time></trkpt><trkpt lat="41.94705661042076" lon="12.795092002804138"><ele>218.5</ele><time>2026-04-25T13:42:35.999Z</time></trkpt><trkpt lat="41.94696888607184" lon="12.795125322292895"><ele>218.33333333333334</ele><time>2026-04-25T13:42:36.999Z</time></trkpt><trkpt lat="41.9468932585572" lon="12.795150511459509"><ele>218.16666666666669</ele><time>2026-04-25T13:42:37.999Z</time></trkpt><trkpt lat="41.94681734248304" lon="12.795169641543128"><ele>218.0</ele><time>2026-04-25T13:42:38.999Z</time></trkpt><trkpt lat="41.94675127215025" lon="12.795171665470297"><ele>217.2</ele><time>2026-04-25T13:42:39.999Z</time></trkpt><trkpt lat="41.94667915447998" lon="12.795158904536073"><ele>216.4</ele><time>2026-04-25T13:42:41Z</time></trkpt><trkpt lat="41.94658119962065" lon="12.795070372774623"><ele>215.59999999999997</ele><time>2026-04-25T13:42:43Z</time></trkpt><trkpt lat="41.94651936166145" lon="12.794995960994822"><ele>214.79999999999998</ele><time>2026-04-25T13:42:44Z</time></trkpt><trkpt lat="41.946449095907674" lon="12.794925922882118"><ele>214.0</ele><time>2026-04-25T13:42:45Z</time></trkpt><trkpt lat="41.946374022597944" lon="12.794863251880079"><ele>214.0</ele><time>2026-04-25T13:42:46Z</time></trkpt><trkpt lat="41.94628795872236" lon="12.794800079731763"><ele>213.99999999999997</ele><time>2026-04-25T13:42:47Z</time></trkpt><trkpt lat="41.94620716996078" lon="12.794745326540335"><ele>213.99999999999997</ele><time>2026-04-25T13:42:48Z</time></trkpt><trkpt lat="41.94612119548819" lon="12.79470652606087"><ele>214.0</ele><time>2026-04-25T13:42:49Z</time></trkpt><trkpt lat="41.94602826617513" lon="12.794686854806503"><ele>214.0</ele><time>2026-04-25T13:42:50Z</time></trkpt><trkpt lat="41.945943314253476" lon="12.794641692834771"><ele>215.99999999999997</ele><time>2026-04-25T13:42:51Z</time></trkpt><trkpt lat="41.945861299491035" lon="12.794620679502058"><ele>218.0</ele><time>2026-04-25T13:42:52Z</time></trkpt><trkpt lat="41.945767419976654" lon="12.794594944672559"><ele>220.0</ele><time>2026-04-25T13:42:53Z</time></trkpt><trkpt lat="41.945677007901295" lon="12.794567335605166"><ele>222.0</ele><time>2026-04-25T13:42:54Z</time></trkpt><trkpt lat="41.945590829909044" lon="12.79454603352274"><ele>223.99999999999997</ele><time>2026-04-25T13:42:55Z</time></trkpt><trkpt lat="41.94550785672795" lon="12.794525737546078"><ele>226.0</ele><time>2026-04-25T13:42:56Z</time></trkpt><trkpt lat="41.94541976726098" lon="12.794507875569217"><ele>225.99999999999997</ele><time>2026-04-25T13:42:57Z</time></trkpt><trkpt lat="41.94533263483977" lon="12.794497930262287"><ele>226.0</ele><time>2026-04-25T13:42:58Z</time></trkpt><trkpt lat="41.945245374972664" lon="12.794474462281737"><ele>226.0</ele><time>2026-04-25T13:42:59Z</time></trkpt><trkpt lat="41.94515715688498" lon="12.794470637111678"><ele>226.0</ele><time>2026-04-25T13:43:00Z</time></trkpt><trkpt lat="41.94506824309103" lon="12.794465097847594"><ele>225.99999999999997</ele><time>2026-04-25T13:43:01Z</time></trkpt><trkpt lat="41.94497825975527" lon="12.794459526250717"><ele>226.0</ele><time>2026-04-25T13:43:02Z</time></trkpt><trkpt lat="41.94489846526939" lon="12.794451231577051"><ele>227.66666666666666</ele><time>2026-04-25T13:43:03Z</time></trkpt><trkpt lat="41.94480495470133" lon="12.79445262792883"><ele>229.33333333333331</ele><time>2026-04-25T13:43:04Z</time></trkpt><trkpt lat="41.94472363941571" lon="12.794468544842989"><ele>231.0</ele><time>2026-04-25T13:43:05Z</time></trkpt><trkpt lat="41.944653751680235" lon="12.794476399309625"><ele>232.66666666666669</ele><time>2026-04-25T13:43:06Z</time></trkpt><trkpt lat="41.944581787032554" lon="12.794478996397734"><ele>234.33333333333334</ele><time>2026-04-25T13:43:07Z</time></trkpt><trkpt lat="41.94446334111376" lon="12.79450047276121"><ele>236.0</ele><time>2026-04-25T13:43:09Z</time></trkpt><trkpt lat="41.9443955782749" lon="12.794517921036686"><ele>236.00000000000003</ele><time>2026-04-25T13:43:10Z</time></trkpt><trkpt lat="41.94428715828051" lon="12.794550021865497"><ele>236.0</ele><time>2026-04-25T13:43:12Z</time></trkpt><trkpt lat="41.94417647650866" lon="12.794589182433498"><ele>236.0</ele><time>2026-04-25T13:43:14Z</time></trkpt><trkpt lat="41.94410866153265" lon="12.794592516301238"><ele>236.0</ele><time>2026-04-25T13:43:15Z</time></trkpt><trkpt lat="41.94403724751343" lon="12.79461686323425"><ele>236.00000000000003</ele><time>2026-04-25T13:43:16Z</time></trkpt><trkpt lat="41.943960802730714" lon="12.794644936372267"><ele>236.0</ele><time>2026-04-25T13:43:17Z</time></trkpt><trkpt lat="41.943885913480464" lon="12.79467591983525"><ele>235.83333333333334</ele><time>2026-04-25T13:43:18Z</time></trkpt><trkpt lat="41.943802169986235" lon="12.794711741874467"><ele>235.66666666666669</ele><time>2026-04-25T13:43:19Z</time></trkpt><trkpt lat="41.94372904401718" lon="12.794771427472881"><ele>235.5</ele><time>2026-04-25T13:43:20Z</time></trkpt><trkpt lat="41.943647216264836" lon="12.794816613931749"><ele>235.33333333333331</ele><time>2026-04-25T13:43:21Z</time></trkpt><trkpt lat="41.94355700467065" lon="12.79485186804879"><ele>235.16666666666666</ele><time>2026-04-25T13:43:22Z</time></trkpt><trkpt lat="41.943480720794845" lon="12.794897943568692"><ele>235.0</ele><time>2026-04-25T13:43:23Z</time></trkpt><trkpt lat="41.943410390149246" lon="12.794932738447471"><ele>233.14285714285714</ele><time>2026-04-25T13:43:24Z</time></trkpt><trkpt lat="41.94334063143507" lon="12.794967661804876"><ele>231.28571428571428</ele><time>2026-04-25T13:43:25Z</time></trkpt><trkpt lat="41.943275506248746" lon="12.794995878422386"><ele>229.42857142857142</ele><time>2026-04-25T13:43:26Z</time></trkpt><trkpt lat="41.94320464078823" lon="12.795009568588846"><ele>227.57142857142856</ele><time>2026-04-25T13:43:27Z</time></trkpt><trkpt lat="41.94313543786419" lon="12.795041348352525"><ele>225.71428571428572</ele><time>2026-04-25T13:43:28Z</time></trkpt><trkpt lat="41.94306559843471" lon="12.79507034602695"><ele>223.85714285714283</ele><time>2026-04-25T13:43:29Z</time></trkpt><trkpt lat="41.94300159983422" lon="12.795105442878985"><ele>222.0</ele><time>2026-04-25T13:43:30Z</time></trkpt><trkpt lat="41.94293612769679" lon="12.79513802645064"><ele>223.28571428571428</ele><time>2026-04-25T13:43:31Z</time></trkpt><trkpt lat="41.942864888323875" lon="12.795171482925698"><ele>224.57142857142858</ele><time>2026-04-25T13:43:32Z</time></trkpt><trkpt lat="41.94279250896053" lon="12.795184290877737"><ele>225.85714285714286</ele><time>2026-04-25T13:43:33Z</time></trkpt><trkpt lat="41.94272145559514" lon="12.795214677235217"><ele>227.14285714285714</ele><time>2026-04-25T13:43:34Z</time></trkpt><trkpt lat="41.942657179645565" lon="12.795232471855503"><ele>228.42857142857144</ele><time>2026-04-25T13:43:35Z</time></trkpt><trkpt lat="41.94259074474199" lon="12.795268947625047"><ele>229.71428571428572</ele><time>2026-04-25T13:43:36Z</time></trkpt><trkpt lat="41.9425257735609" lon="12.795293560374297"><ele>231.0</ele><time>2026-04-25T13:43:37Z</time></trkpt><trkpt lat="41.942451163948924" lon="12.795312541447"><ele>231.0</ele><time>2026-04-25T13:43:38Z</time></trkpt><trkpt lat="41.94238496775415" lon="12.79534624827292"><ele>231.0</ele><time>2026-04-25T13:43:39Z</time></trkpt><trkpt lat="41.9423260718217" lon="12.795400546776968"><ele>231.0</ele><time>2026-04-25T13:43:40Z</time></trkpt><trkpt lat="41.94226139117066" lon="12.795459333569617"><ele>231.0</ele><time>2026-04-25T13:43:41Z</time></trkpt><trkpt lat="41.942192068217764" lon="12.795491476080949"><ele>231.0</ele><time>2026-04-25T13:43:42Z</time></trkpt><trkpt lat="41.94212951305374" lon="12.795562500082532"><ele>231.0</ele><time>2026-04-25T13:43:43Z</time></trkpt><trkpt lat="41.94205209784486" lon="12.795602833075558"><ele>231.0</ele><time>2026-04-25T13:43:44Z</time></trkpt><trkpt lat="41.941978363172794" lon="12.795659030738767"><ele>231.0</ele><time>2026-04-25T13:43:45Z</time></trkpt><trkpt lat="41.94190725911854" lon="12.795718719644128"><ele>231.0</ele><time>2026-04-25T13:43:46Z</time></trkpt><trkpt lat="41.94184230838034" lon="12.795779674968664"><ele>231.0</ele><time>2026-04-25T13:43:47Z</time></trkpt><trkpt lat="41.9417729011081" lon="12.795821684986157"><ele>231.0</ele><time>2026-04-25T13:43:48Z</time></trkpt><trkpt lat="41.941694633501115" lon="12.795813834953842"><ele>231.0</ele><time>2026-04-25T13:43:49Z</time></trkpt><trkpt lat="41.94161215878383" lon="12.795829000228311"><ele>230.16666666666666</ele><time>2026-04-25T13:43:50Z</time></trkpt><trkpt lat="41.94154154052289" lon="12.795867133115324"><ele>229.33333333333331</ele><time>2026-04-25T13:43:51Z</time></trkpt><trkpt lat="41.941463711464955" lon="12.795892109692113"><ele>228.5</ele><time>2026-04-25T13:43:52Z</time></trkpt><trkpt lat="41.94138697293032" lon="12.795934168220107"><ele>227.66666666666666</ele><time>2026-04-25T13:43:53Z</time></trkpt><trkpt lat="41.941316122943434" lon="12.79598129419136"><ele>226.83333333333331</ele><time>2026-04-25T13:43:54Z</time></trkpt><trkpt lat="41.941253109024345" lon="12.796036410601943"><ele>226.0</ele><time>2026-04-25T13:43:55Z</time></trkpt><trkpt lat="41.94118987123623" lon="12.796096836774886"><ele>226.66666666666666</ele><time>2026-04-25T13:43:55.999Z</time></trkpt><trkpt lat="41.94112728875049" lon="12.796164263304531"><ele>227.33333333333331</ele><time>2026-04-25T13:43:56.999Z</time></trkpt><trkpt lat="41.9410711426107" lon="12.796237432761874"><ele>228.0</ele><time>2026-04-25T13:43:57.999Z</time></trkpt><trkpt lat="41.94101262143684" lon="12.79630688556849"><ele>228.66666666666669</ele><time>2026-04-25T13:43:58.999Z</time></trkpt><trkpt lat="41.9409630666782" lon="12.796377363555381"><ele>229.33333333333334</ele><time>2026-04-25T13:43:59.999Z</time></trkpt><trkpt lat="41.94090802718457" lon="12.796432699302548"><ele>230.0</ele><time>2026-04-25T13:44:00.999Z</time></trkpt><trkpt lat="41.94079876819297" lon="12.796464167367905"><ele>230.00000000000003</ele><time>2026-04-25T13:44:02.999Z</time></trkpt><trkpt lat="41.9406872767354" lon="12.796393224829208"><ele>230.0</ele><time>2026-04-25T13:44:04.999Z</time></trkpt><trkpt lat="41.94062140716118" lon="12.796350166964238"><ele>230.0</ele><time>2026-04-25T13:44:05.999Z</time></trkpt><trkpt lat="41.94055158234278" lon="12.796305614018303"><ele>230.0</ele><time>2026-04-25T13:44:06.999Z</time></trkpt><trkpt lat="41.940482054081315" lon="12.79626622725211"><ele>230.00000000000003</ele><time>2026-04-25T13:44:07.999Z</time></trkpt><trkpt lat="41.94040640138649" lon="12.796230431278099"><ele>230.0</ele><time>2026-04-25T13:44:08.999Z</time></trkpt><trkpt lat="41.94033046427684" lon="12.796204018005572"><ele>229.99999999999997</ele><time>2026-04-25T13:44:10Z</time></trkpt><trkpt lat="41.940261380915324" lon="12.796208124908365"><ele>230.0</ele><time>2026-04-25T13:44:11Z</time></trkpt><trkpt lat="41.94019441814627" lon="12.796201350378261"><ele>229.99999999999997</ele><time>2026-04-25T13:44:12Z</time></trkpt><trkpt lat="41.940122432449385" lon="12.796200907048837"><ele>229.99999999999997</ele><time>2026-04-25T13:44:13Z</time></trkpt><trkpt lat="41.94005567148705" lon="12.796221036135384"><ele>230.0</ele><time>2026-04-25T13:44:14Z</time></trkpt><trkpt lat="41.93998640638199" lon="12.796244291495778"><ele>229.99999999999997</ele><time>2026-04-25T13:44:15Z</time></trkpt><trkpt lat="41.93992214814028" lon="12.796277697697306"><ele>229.99999999999997</ele><time>2026-04-25T13:44:16Z</time></trkpt><trkpt lat="41.93981072568617" lon="12.796347748581379"><ele>229.6</ele><time>2026-04-25T13:44:18Z</time></trkpt><trkpt lat="41.93974541329321" lon="12.796385192827715"><ele>229.2</ele><time>2026-04-25T13:44:19Z</time></trkpt><trkpt lat="41.93967271332456" lon="12.796403336676654"><ele>228.8</ele><time>2026-04-25T13:44:20Z</time></trkpt><trkpt lat="41.939555630153606" lon="12.796471451145694"><ele>228.4</ele><time>2026-04-25T13:44:22Z</time></trkpt><trkpt lat="41.93950575313027" lon="12.796528632000387"><ele>228.0</ele><time>2026-04-25T13:44:23Z</time></trkpt><trkpt lat="41.93939507620988" lon="12.796610013813586"><ele>228.0</ele><time>2026-04-25T13:44:25Z</time></trkpt><trkpt lat="41.93933587320167" lon="12.796651341962216"><ele>228.0</ele><time>2026-04-25T13:44:26Z</time></trkpt><trkpt lat="41.93924227655386" lon="12.79674317786151"><ele>228.0</ele><time>2026-04-25T13:44:28Z</time></trkpt><trkpt lat="41.93914143338549" lon="12.796829035992332"><ele>228.0</ele><time>2026-04-25T13:44:30Z</time></trkpt><trkpt lat="41.939087643504855" lon="12.79688059727537"><ele>228.0</ele><time>2026-04-25T13:44:31Z</time></trkpt><trkpt lat="41.93903105368022" lon="12.79693890319368"><ele>228.0</ele><time>2026-04-25T13:44:32Z</time></trkpt><trkpt lat="41.93898028855579" lon="12.796997475462865"><ele>228.14285714285714</ele><time>2026-04-25T13:44:33Z</time></trkpt><trkpt lat="41.93893114398166" lon="12.797058320101117"><ele>228.28571428571428</ele><time>2026-04-25T13:44:34Z</time></trkpt><trkpt lat="41.9388799208665" lon="12.79712179224797"><ele>228.42857142857142</ele><time>2026-04-25T13:44:35Z</time></trkpt><trkpt lat="41.93882463753994" lon="12.797184084519799"><ele>228.57142857142856</ele><time>2026-04-25T13:44:36Z</time></trkpt><trkpt lat="41.938762753935805" lon="12.797237443821166"><ele>228.71428571428572</ele><time>2026-04-25T13:44:37Z</time></trkpt><trkpt lat="41.93870957887613" lon="12.797298844952433"><ele>228.85714285714283</ele><time>2026-04-25T13:44:38Z</time></trkpt><trkpt lat="41.93864885282036" lon="12.797356257916762"><ele>229.0</ele><time>2026-04-25T13:44:39Z</time></trkpt><trkpt lat="41.93859393440679" lon="12.79741691817176"><ele>228.99999999999997</ele><time>2026-04-25T13:44:40Z</time></trkpt><trkpt lat="41.93852740071948" lon="12.797472811787223"><ele>229.0</ele><time>2026-04-25T13:44:41Z</time></trkpt><trkpt lat="41.9384678442125" lon="12.797526544528044"><ele>229.0</ele><time>2026-04-25T13:44:42Z</time></trkpt><trkpt lat="41.9383979846019" lon="12.797577235623436"><ele>229.0</ele><time>2026-04-25T13:44:43Z</time></trkpt><trkpt lat="41.938337964103575" lon="12.797651263429806"><ele>228.99999999999997</ele><time>2026-04-25T13:44:44Z</time></trkpt><trkpt lat="41.93827983306526" lon="12.797723685913375"><ele>229.0</ele><time>2026-04-25T13:44:45Z</time></trkpt><trkpt lat="41.9382206405615" lon="12.797797430621323"><ele>228.99999999999997</ele><time>2026-04-25T13:44:46Z</time></trkpt><trkpt lat="41.93816793675392" lon="12.79787538307102"><ele>229.0</ele><time>2026-04-25T13:44:47Z</time></trkpt><trkpt lat="41.93811321391922" lon="12.797941071991541"><ele>229.0</ele><time>2026-04-25T13:44:48Z</time></trkpt><trkpt lat="41.938039820359535" lon="12.797975987476045"><ele>229.0</ele><time>2026-04-25T13:44:49Z</time></trkpt><trkpt lat="41.9379720835806" lon="12.798026132270296"><ele>228.99999999999997</ele><time>2026-04-25T13:44:50Z</time></trkpt><trkpt lat="41.93790525761111" lon="12.798075603926158"><ele>229.0</ele><time>2026-04-25T13:44:51Z</time></trkpt><trkpt lat="41.93783414585978" lon="12.798119496352193"><ele>228.99999999999997</ele><time>2026-04-25T13:44:52Z</time></trkpt><trkpt lat="41.93776166416031" lon="12.798171476764594"><ele>229.0</ele><time>2026-04-25T13:44:53Z</time></trkpt><trkpt lat="41.93769254839916" lon="12.798221291738505"><ele>229.0</ele><time>2026-04-25T13:44:54Z</time></trkpt><trkpt lat="41.93763443130719" lon="12.798258413313656"><ele>229.0</ele><time>2026-04-25T13:44:55Z</time></trkpt><trkpt lat="41.937574456606285" lon="12.798293362137997"><ele>228.99999999999997</ele><time>2026-04-25T13:44:56Z</time></trkpt><trkpt lat="41.93746642841557" lon="12.798341180561918"><ele>229.0</ele><time>2026-04-25T13:44:58Z</time></trkpt><trkpt lat="41.93735415220587" lon="12.798403761674315"><ele>228.99999999999997</ele><time>2026-04-25T13:45:00Z</time></trkpt><trkpt lat="41.93726678592421" lon="12.798488590915898"><ele>229.0</ele><time>2026-04-25T13:45:02Z</time></trkpt><trkpt lat="41.937205496206666" lon="12.79862824180912"><ele>229.0</ele><time>2026-04-25T13:45:04Z</time></trkpt><trkpt lat="41.93719604429368" lon="12.798720818874045"><ele>229.0</ele><time>2026-04-25T13:45:05Z</time></trkpt><trkpt lat="41.937170976303555" lon="12.798808818726041"><ele>228.99999999999997</ele><time>2026-04-25T13:45:06Z</time></trkpt><trkpt lat="41.93716216854076" lon="12.798902870839829"><ele>229.0</ele><time>2026-04-25T13:45:07Z</time></trkpt><trkpt lat="41.93714095364426" lon="12.7989913660804"><ele>229.0</ele><time>2026-04-25T13:45:08Z</time></trkpt><trkpt lat="41.93711786218793" lon="12.799080150367395"><ele>229.0</ele><time>2026-04-25T13:45:09Z</time></trkpt><trkpt lat="41.93708606661251" lon="12.799166579302081"><ele>229.0</ele><time>2026-04-25T13:45:10Z</time></trkpt><trkpt lat="41.93704965839109" lon="12.79924943213418"><ele>229.0</ele><time>2026-04-25T13:45:11Z</time></trkpt><trkpt lat="41.936991232807124" lon="12.799315821134675"><ele>229.0</ele><time>2026-04-25T13:45:12Z</time></trkpt><trkpt lat="41.936939812410536" lon="12.799373930469203"><ele>229.0</ele><time>2026-04-25T13:45:13Z</time></trkpt><trkpt lat="41.93688363989094" lon="12.799427231751473"><ele>229.0</ele><time>2026-04-25T13:45:14Z</time></trkpt><trkpt lat="41.93682742573648" lon="12.799480279313537"><ele>228.33333333333331</ele><time>2026-04-25T13:45:15Z</time></trkpt><trkpt lat="41.93675593289487" lon="12.799536483379699"><ele>227.66666666666666</ele><time>2026-04-25T13:45:16Z</time></trkpt><trkpt lat="41.93669130075276" lon="12.799588407872488"><ele>227.0</ele><time>2026-04-25T13:45:17Z</time></trkpt><trkpt lat="41.93663742929852" lon="12.799664497317819"><ele>226.33333333333331</ele><time>2026-04-25T13:45:18Z</time></trkpt><trkpt lat="41.93657281105043" lon="12.799700736619371"><ele>225.66666666666666</ele><time>2026-04-25T13:45:19Z</time></trkpt><trkpt lat="41.93652243282047" lon="12.799779501726503"><ele>225.0</ele><time>2026-04-25T13:45:20Z</time></trkpt><trkpt lat="41.93645715402704" lon="12.799829766050733"><ele>225.00000000000003</ele><time>2026-04-25T13:45:21Z</time></trkpt><trkpt lat="41.93640331452231" lon="12.799890097807115"><ele>225.0</ele><time>2026-04-25T13:45:22Z</time></trkpt><trkpt lat="41.93634713039428" lon="12.7999501291211"><ele>225.00000000000003</ele><time>2026-04-25T13:45:23Z</time></trkpt><trkpt lat="41.936297729243606" lon="12.8000265886572"><ele>225.00000000000003</ele><time>2026-04-25T13:45:24Z</time></trkpt><trkpt lat="41.936232499578054" lon="12.80006771916879"><ele>225.0</ele><time>2026-04-25T13:45:25Z</time></trkpt><trkpt lat="41.93617160653566" lon="12.800129833893978"><ele>225.00000000000003</ele><time>2026-04-25T13:45:26Z</time></trkpt><trkpt lat="41.93610613915284" lon="12.80017547085348"><ele>225.00000000000003</ele><time>2026-04-25T13:45:27Z</time></trkpt><trkpt lat="41.93603723709545" lon="12.800220190213103"><ele>225.42857142857144</ele><time>2026-04-25T13:45:28Z</time></trkpt><trkpt lat="41.9359691479898" lon="12.800270128062113"><ele>225.85714285714286</ele><time>2026-04-25T13:45:29Z</time></trkpt><trkpt lat="41.9359035597612" lon="12.800328432288394"><ele>226.28571428571428</ele><time>2026-04-25T13:45:30Z</time></trkpt><trkpt lat="41.93583975383849" lon="12.800377322273672"><ele>226.71428571428572</ele><time>2026-04-25T13:45:31Z</time></trkpt><trkpt lat="41.93578030484675" lon="12.800421671450447"><ele>227.1428571428571</ele><time>2026-04-25T13:45:32Z</time></trkpt><trkpt lat="41.93571897014465" lon="12.80046848471841"><ele>227.57142857142856</ele><time>2026-04-25T13:45:33Z</time></trkpt><trkpt lat="41.9356586886843" lon="12.800518598830857"><ele>228.0</ele><time>2026-04-25T13:45:34Z</time></trkpt><trkpt lat="41.935612214962845" lon="12.800581898414189"><ele>228.0</ele><time>2026-04-25T13:45:35Z</time></trkpt><trkpt lat="41.93553411283671" lon="12.80071669177202"><ele>228.0</ele><time>2026-04-25T13:45:37Z</time></trkpt><trkpt lat="41.935494130582434" lon="12.800793678654916"><ele>228.0</ele><time>2026-04-25T13:45:38Z</time></trkpt><trkpt lat="41.93546599329604" lon="12.800881387250415"><ele>228.0</ele><time>2026-04-25T13:45:39Z</time></trkpt><trkpt lat="41.93541910441886" lon="12.800956745910351"><ele>228.0</ele><time>2026-04-25T13:45:40Z</time></trkpt><trkpt lat="41.935363782100886" lon="12.801014450699792"><ele>228.0</ele><time>2026-04-25T13:45:41Z</time></trkpt><trkpt lat="41.93531479585285" lon="12.801081542638112"><ele>227.16666666666666</ele><time>2026-04-25T13:45:42Z</time></trkpt><trkpt lat="41.935260498077845" lon="12.801142576076506"><ele>226.33333333333331</ele><time>2026-04-25T13:45:43Z</time></trkpt><trkpt lat="41.93520120654735" lon="12.80119001227774"><ele>225.5</ele><time>2026-04-25T13:45:44Z</time></trkpt><trkpt lat="41.93513778504493" lon="12.801228762078885"><ele>224.66666666666666</ele><time>2026-04-25T13:45:45Z</time></trkpt><trkpt lat="41.93503757077108" lon="12.80128992917431"><ele>223.83333333333331</ele><time>2026-04-25T13:45:47Z</time></trkpt><trkpt lat="41.93494606024745" lon="12.801351090838727"><ele>223.0</ele><time>2026-04-25T13:45:49Z</time></trkpt><trkpt lat="41.93485625174133" lon="12.801468396657603"><ele>222.99999999999997</ele><time>2026-04-25T13:45:51Z</time></trkpt><trkpt lat="41.934810190313165" lon="12.80153495305564"><ele>223.0</ele><time>2026-04-25T13:45:52Z</time></trkpt><trkpt lat="41.93477110468168" lon="12.801621868560476"><ele>223.0</ele><time>2026-04-25T13:45:53Z</time></trkpt><trkpt lat="41.93472882718662" lon="12.801716491105052"><ele>223.0</ele><time>2026-04-25T13:45:54Z</time></trkpt><trkpt lat="41.93469135816063" lon="12.801796507565426"><ele>222.99999999999997</ele><time>2026-04-25T13:45:55Z</time></trkpt><trkpt lat="41.93465808106141" lon="12.801873080586889"><ele>223.0</ele><time>2026-04-25T13:45:56Z</time></trkpt><trkpt lat="41.93457203332095" lon="12.801999214202477"><ele>223.66666666666666</ele><time>2026-04-25T13:45:58Z</time></trkpt><trkpt lat="41.93452481616771" lon="12.802065477809716"><ele>224.33333333333331</ele><time>2026-04-25T13:45:59Z</time></trkpt><trkpt lat="41.93447012034366" lon="12.802129263561932"><ele>225.0</ele><time>2026-04-25T13:46:00Z</time></trkpt><trkpt lat="41.934360539805155" lon="12.802185707619019"><ele>225.66666666666669</ele><time>2026-04-25T13:46:02Z</time></trkpt><trkpt lat="41.934262084142006" lon="12.802177332225595"><ele>226.33333333333334</ele><time>2026-04-25T13:46:04Z</time></trkpt><trkpt lat="41.93418270925924" lon="12.802131751233157"><ele>227.0</ele><time>2026-04-25T13:46:06Z</time></trkpt><trkpt lat="41.93410637621682" lon="12.802088793015523"><ele>227.00000000000003</ele><time>2026-04-25T13:46:08Z</time></trkpt><trkpt lat="41.93404382078693" lon="12.802098506295268"><ele>227.0</ele><time>2026-04-25T13:46:09Z</time></trkpt><trkpt lat="41.93394067380317" lon="12.802013907255834"><ele>227.0</ele><time>2026-04-25T13:46:11Z</time></trkpt><trkpt lat="41.93387840377848" lon="12.801999733445285"><ele>227.0</ele><time>2026-04-25T13:46:12Z</time></trkpt><trkpt lat="41.933808366044104" lon="12.802009303572968"><ele>227.00000000000003</ele><time>2026-04-25T13:46:13Z</time></trkpt><trkpt lat="41.93367819774726" lon="12.801984622779896"><ele>227.0</ele><time>2026-04-25T13:46:15Z</time></trkpt><trkpt lat="41.933609096589514" lon="12.802005624233972"><ele>227.0</ele><time>2026-04-25T13:46:16Z</time></trkpt><trkpt lat="41.933545104652794" lon="12.80201783301901"><ele>227.00000000000003</ele><time>2026-04-25T13:46:17Z</time></trkpt><trkpt lat="41.93347093007307" lon="12.802028663356005"><ele>227.0</ele><time>2026-04-25T13:46:18Z</time></trkpt><trkpt lat="41.933406242180276" lon="12.802067436588146"><ele>227.0</ele><time>2026-04-25T13:46:19Z</time></trkpt><trkpt lat="41.93334272631961" lon="12.80210439399275"><ele>227.00000000000003</ele><time>2026-04-25T13:46:20Z</time></trkpt><trkpt lat="41.93328255334274" lon="12.80213845654515"><ele>227.0</ele><time>2026-04-25T13:46:21Z</time></trkpt><trkpt lat="41.93321632642012" lon="12.802172070877324"><ele>227.0</ele><time>2026-04-25T13:46:22Z</time></trkpt><trkpt lat="41.93314494271625" lon="12.802186749743992"><ele>226.71428571428572</ele><time>2026-04-25T13:46:23Z</time></trkpt><trkpt lat="41.93307564792421" lon="12.802222950334563"><ele>226.42857142857144</ele><time>2026-04-25T13:46:24Z</time></trkpt><trkpt lat="41.9330065935827" lon="12.802266005984398"><ele>226.14285714285717</ele><time>2026-04-25T13:46:25Z</time></trkpt><trkpt lat="41.9329355552521" lon="12.802301982285508"><ele>225.8571428571429</ele><time>2026-04-25T13:46:26Z</time></trkpt><trkpt lat="41.93286702340476" lon="12.802338885630228"><ele>225.57142857142858</ele><time>2026-04-25T13:46:27Z</time></trkpt><trkpt lat="41.93280038321669" lon="12.802373198828688"><ele>225.28571428571433</ele><time>2026-04-25T13:46:28Z</time></trkpt><trkpt lat="41.93273489591869" lon="12.802404690086695"><ele>225.00000000000003</ele><time>2026-04-25T13:46:29Z</time></trkpt><trkpt lat="41.93266409552605" lon="12.80244676262952"><ele>225.00000000000003</ele><time>2026-04-25T13:46:30Z</time></trkpt><trkpt lat="41.932597874042315" lon="12.80244793205844"><ele>225.0</ele><time>2026-04-25T13:46:31Z</time></trkpt><trkpt lat="41.93252438762129" lon="12.802457672313102"><ele>225.00000000000003</ele><time>2026-04-25T13:46:32Z</time></trkpt><trkpt lat="41.93245812323503" lon="12.802465686302435"><ele>225.00000000000003</ele><time>2026-04-25T13:46:33Z</time></trkpt><trkpt lat="41.93239258103456" lon="12.802469203244687"><ele>225.0</ele><time>2026-04-25T13:46:34Z</time></trkpt><trkpt lat="41.932311705529095" lon="12.80247673998179"><ele>225.00000000000003</ele><time>2026-04-25T13:46:35Z</time></trkpt><trkpt lat="41.93224204113444" lon="12.802485796769522"><ele>225.00000000000003</ele><time>2026-04-25T13:46:36Z</time></trkpt><trkpt lat="41.93216417920919" lon="12.802496269525713"><ele>226.6</ele><time>2026-04-25T13:46:37Z</time></trkpt><trkpt lat="41.93209825013592" lon="12.802529892492425"><ele>228.2</ele><time>2026-04-25T13:46:38Z</time></trkpt><trkpt lat="41.93203139371234" lon="12.802531308203909"><ele>229.8</ele><time>2026-04-25T13:46:39Z</time></trkpt><trkpt lat="41.93191817244159" lon="12.802577659537102"><ele>231.4</ele><time>2026-04-25T13:46:41Z</time></trkpt><trkpt lat="41.93182762309839" lon="12.802659415887373"><ele>233.0</ele><time>2026-04-25T13:46:43Z</time></trkpt><trkpt lat="41.93173605924691" lon="12.802720004558175"><ele>230.8</ele><time>2026-04-25T13:46:45Z</time></trkpt><trkpt lat="41.93164754104867" lon="12.8027926818069"><ele>228.60000000000002</ele><time>2026-04-25T13:46:47Z</time></trkpt><trkpt lat="41.93154031748712" lon="12.802806880316195"><ele>226.39999999999998</ele><time>2026-04-25T13:46:49Z</time></trkpt><trkpt lat="41.93144395522687" lon="12.802781515351858"><ele>224.2</ele><time>2026-04-25T13:46:51Z</time></trkpt><trkpt lat="41.93135807987313" lon="12.802736544648337"><ele>222.0</ele><time>2026-04-25T13:46:53Z</time></trkpt><trkpt lat="41.93129140015382" lon="12.8027074413655"><ele>222.0</ele><time>2026-04-25T13:46:54Z</time></trkpt><trkpt lat="41.93123056347156" lon="12.802681101963467"><ele>222.0</ele><time>2026-04-25T13:46:55Z</time></trkpt><trkpt lat="41.93116924496117" lon="12.802654553945079"><ele>222.0</ele><time>2026-04-25T13:46:56Z</time></trkpt><trkpt lat="41.93109188794821" lon="12.802696821540518"><ele>222.0</ele><time>2026-04-25T13:46:57Z</time></trkpt><trkpt lat="41.931032731177105" lon="12.80274258339503"><ele>222.0</ele><time>2026-04-25T13:46:58Z</time></trkpt><trkpt lat="41.93092712819152" lon="12.802763440424423"><ele>222.0</ele><time>2026-04-25T13:47:00Z</time></trkpt><trkpt lat="41.93083721431512" lon="12.802809330767317"><ele>222.0</ele><time>2026-04-25T13:47:02Z</time></trkpt><trkpt lat="41.93076619648366" lon="12.80287119805117"><ele>222.0</ele><time>2026-04-25T13:47:05Z</time></trkpt><trkpt lat="41.93070393656556" lon="12.802947612858903"><ele>222.0</ele><time>2026-04-25T13:47:07Z</time></trkpt><trkpt lat="41.930641216100135" lon="12.803068099866074"><ele>222.0</ele><time>2026-04-25T13:47:09Z</time></trkpt><trkpt lat="41.930567874746814" lon="12.803185724758533"><ele>222.0</ele><time>2026-04-25T13:47:11Z</time></trkpt><trkpt lat="41.93049721171372" lon="12.803304601034895"><ele>222.0</ele><time>2026-04-25T13:47:13Z</time></trkpt><trkpt lat="41.93041174646723" lon="12.803414786102545"><ele>222.0</ele><time>2026-04-25T13:47:15Z</time></trkpt><trkpt lat="41.930358167321266" lon="12.803494187033786"><ele>222.0</ele><time>2026-04-25T13:47:16Z</time></trkpt><trkpt lat="41.930263510346904" lon="12.803627749569834"><ele>222.0</ele><time>2026-04-25T13:47:18Z</time></trkpt><trkpt lat="41.93021619884936" lon="12.80369664410587"><ele>222.0</ele><time>2026-04-25T13:47:19Z</time></trkpt><trkpt lat="41.93016428549042" lon="12.80375689896817"><ele>221.83333333333334</ele><time>2026-04-25T13:47:20Z</time></trkpt><trkpt lat="41.93010568746643" lon="12.803814200180708"><ele>221.66666666666669</ele><time>2026-04-25T13:47:21Z</time></trkpt><trkpt lat="41.93004440086386" lon="12.803867375997852"><ele>221.5</ele><time>2026-04-25T13:47:22Z</time></trkpt><trkpt lat="41.92998401602485" lon="12.8039140250831"><ele>221.33333333333334</ele><time>2026-04-25T13:47:23Z</time></trkpt><trkpt lat="41.92989889107198" lon="12.803998271898378"><ele>221.16666666666669</ele><time>2026-04-25T13:47:25Z</time></trkpt><trkpt lat="41.9298047211315" lon="12.804053244718027"><ele>221.0</ele><time>2026-04-25T13:47:27Z</time></trkpt><trkpt lat="41.92971709233108" lon="12.80411698512141"><ele>221.0</ele><time>2026-04-25T13:47:29Z</time></trkpt><trkpt lat="41.92963394510034" lon="12.804145703630853"><ele>221.00000000000003</ele><time>2026-04-25T13:47:31Z</time></trkpt><trkpt lat="41.92953083517788" lon="12.804195656729908"><ele>221.00000000000003</ele><time>2026-04-25T13:47:33Z</time></trkpt><trkpt lat="41.92946489011673" lon="12.80422388100048"><ele>221.0</ele><time>2026-04-25T13:47:34Z</time></trkpt><trkpt lat="41.929348467492325" lon="12.80423040370275"><ele>221.0</ele><time>2026-04-25T13:47:36Z</time></trkpt><trkpt lat="41.929221431396265" lon="12.804201932102934"><ele>220.71428571428572</ele><time>2026-04-25T13:47:38Z</time></trkpt><trkpt lat="41.92915212835841" lon="12.804177531808483"><ele>220.42857142857144</ele><time>2026-04-25T13:47:39Z</time></trkpt><trkpt lat="41.92907871832296" lon="12.804168247134411"><ele>220.14285714285717</ele><time>2026-04-25T13:47:40Z</time></trkpt><trkpt lat="41.92900890753458" lon="12.804176556861993"><ele>219.85714285714286</ele><time>2026-04-25T13:47:41Z</time></trkpt><trkpt lat="41.92894648972742" lon="12.80421919654855"><ele>219.57142857142856</ele><time>2026-04-25T13:47:42Z</time></trkpt><trkpt lat="41.92889653745935" lon="12.804270793570064"><ele>219.2857142857143</ele><time>2026-04-25T13:47:43Z</time></trkpt><trkpt lat="41.92885329314216" lon="12.804343711598124"><ele>219.0</ele><time>2026-04-25T13:47:45Z</time></trkpt><trkpt lat="41.92879303639248" lon="12.804443191256414"><ele>221.79999999999998</ele><time>2026-04-25T13:47:47Z</time></trkpt><trkpt lat="41.92871929954364" lon="12.804583089279774"><ele>224.59999999999997</ele><time>2026-04-25T13:47:49Z</time></trkpt><trkpt lat="41.92867606823435" lon="12.80465175524558"><ele>227.4</ele><time>2026-04-25T13:47:50Z</time></trkpt><trkpt lat="41.928633946915745" lon="12.80472018882819"><ele>230.2</ele><time>2026-04-25T13:47:51Z</time></trkpt><trkpt lat="41.928549603786664" lon="12.804818044236324"><ele>233.0</ele><time>2026-04-25T13:47:53Z</time></trkpt><trkpt lat="41.92847498387603" lon="12.804932208842708"><ele>232.4</ele><time>2026-04-25T13:47:55Z</time></trkpt><trkpt lat="41.928391779853015" lon="12.805038846319059"><ele>231.8</ele><time>2026-04-25T13:47:57Z</time></trkpt><trkpt lat="41.92830951854327" lon="12.80515068968991"><ele>231.2</ele><time>2026-04-25T13:47:59Z</time></trkpt><trkpt lat="41.928207669198954" lon="12.805223837225894"><ele>230.6</ele><time>2026-04-25T13:48:01Z</time></trkpt><trkpt lat="41.92814796421018" lon="12.805263575308846"><ele>230.0</ele><time>2026-04-25T13:48:02Z</time></trkpt><trkpt lat="41.92809026069168" lon="12.805311421242202"><ele>231.99999999999997</ele><time>2026-04-25T13:48:03Z</time></trkpt><trkpt lat="41.928033859719044" lon="12.8053653271864"><ele>234.0</ele><time>2026-04-25T13:48:04Z</time></trkpt><trkpt lat="41.92798087764524" lon="12.80542434126587"><ele>235.99999999999997</ele><time>2026-04-25T13:48:05Z</time></trkpt><trkpt lat="41.9279332012185" lon="12.805488570626016"><ele>237.99999999999997</ele><time>2026-04-25T13:48:06Z</time></trkpt><trkpt lat="41.92788717036586" lon="12.805554965082026"><ele>240.0</ele><time>2026-04-25T13:48:07Z</time></trkpt><trkpt lat="41.92784216203343" lon="12.805622073952705"><ele>241.99999999999997</ele><time>2026-04-25T13:48:08Z</time></trkpt><trkpt lat="41.92779492200329" lon="12.80569250476995"><ele>243.99999999999997</ele><time>2026-04-25T13:48:09Z</time></trkpt><trkpt lat="41.927749670062745" lon="12.805758732076654"><ele>244.0</ele><time>2026-04-25T13:48:10Z</time></trkpt><trkpt lat="41.92770382707626" lon="12.805823246810487"><ele>243.99999999999997</ele><time>2026-04-25T13:48:11Z</time></trkpt><trkpt lat="41.92762099939167" lon="12.805929952008803"><ele>243.99999999999997</ele><time>2026-04-25T13:48:13Z</time></trkpt><trkpt lat="41.92752811586598" lon="12.80603044334988"><ele>244.0</ele><time>2026-04-25T13:48:15Z</time></trkpt><trkpt lat="41.9274832789155" lon="12.806090677259638"><ele>244.0</ele><time>2026-04-25T13:48:16Z</time></trkpt><trkpt lat="41.92740976846026" lon="12.806225092116973"><ele>243.0</ele><time>2026-04-25T13:48:18Z</time></trkpt><trkpt lat="41.92736012020924" lon="12.80636382546632"><ele>242.0</ele><time>2026-04-25T13:48:20Z</time></trkpt><trkpt lat="41.92729932162396" lon="12.806505616062914"><ele>241.0</ele><time>2026-04-25T13:48:22Z</time></trkpt><trkpt lat="41.92725918877962" lon="12.806661260396178"><ele>240.0</ele><time>2026-04-25T13:48:24Z</time></trkpt><trkpt lat="41.92722280224962" lon="12.806796123156419"><ele>242.0</ele><time>2026-04-25T13:48:26Z</time></trkpt><trkpt lat="41.927179195945584" lon="12.806939026335712"><ele>244.0</ele><time>2026-04-25T13:48:28Z</time></trkpt><trkpt lat="41.9271229707671" lon="12.807087080348403"><ele>246.0</ele><time>2026-04-25T13:48:30Z</time></trkpt><trkpt lat="41.92704482585552" lon="12.807179267944512"><ele>248.0</ele><time>2026-04-25T13:48:32Z</time></trkpt><trkpt lat="41.92696558918755" lon="12.807293495319373"><ele>248.0</ele><time>2026-04-25T13:48:34Z</time></trkpt><trkpt lat="41.92688724026454" lon="12.807394091900461"><ele>248.0</ele><time>2026-04-25T13:48:36Z</time></trkpt><trkpt lat="41.926793818107356" lon="12.807483670991912"><ele>248.0</ele><time>2026-04-25T13:48:38Z</time></trkpt><trkpt lat="41.926687632677705" lon="12.807570875494074"><ele>248.0</ele><time>2026-04-25T13:48:40Z</time></trkpt><trkpt lat="41.9266327086313" lon="12.807620298920005"><ele>248.0</ele><time>2026-04-25T13:48:41Z</time></trkpt><trkpt lat="41.92653760975296" lon="12.80771666151633"><ele>248.0</ele><time>2026-04-25T13:48:43Z</time></trkpt><trkpt lat="41.926440960649686" lon="12.807824769104412"><ele>248.0</ele><time>2026-04-25T13:48:45Z</time></trkpt><trkpt lat="41.92633518999399" lon="12.807916098531445"><ele>248.0</ele><time>2026-04-25T13:48:47Z</time></trkpt><trkpt lat="41.92627734986888" lon="12.807955572655857"><ele>248.0</ele><time>2026-04-25T13:48:48Z</time></trkpt><trkpt lat="41.92619181217362" lon="12.808066790106217"><ele>248.0</ele><time>2026-04-25T13:48:50Z</time></trkpt><trkpt lat="41.926117264339325" lon="12.80816545405765"><ele>248.0</ele><time>2026-04-25T13:48:52Z</time></trkpt><trkpt lat="41.9260282291851" lon="12.808218371861557"><ele>248.0</ele><time>2026-04-25T13:48:54Z</time></trkpt><trkpt lat="41.92593267654691" lon="12.808301513156126"><ele>248.0</ele><time>2026-04-25T13:48:56Z</time></trkpt><trkpt lat="41.925853589551274" lon="12.80840722646015"><ele>248.0</ele><time>2026-04-25T13:48:58Z</time></trkpt><trkpt lat="41.92577070113437" lon="12.808520686107203"><ele>248.0</ele><time>2026-04-25T13:49:00Z</time></trkpt><trkpt lat="41.9256933925511" lon="12.808627109648894"><ele>247.60000000000002</ele><time>2026-04-25T13:49:02Z</time></trkpt><trkpt lat="41.92564862428974" lon="12.808719396533515"><ele>247.20000000000002</ele><time>2026-04-25T13:49:04Z</time></trkpt><trkpt lat="41.92559330744146" lon="12.808831650724267"><ele>246.8</ele><time>2026-04-25T13:49:06Z</time></trkpt><trkpt lat="41.925530386637504" lon="12.808953682396735"><ele>246.4</ele><time>2026-04-25T13:49:08Z</time></trkpt><trkpt lat="41.92547569554885" lon="12.809052960833629"><ele>246.0</ele><time>2026-04-25T13:49:10Z</time></trkpt><trkpt lat="41.92541582812343" lon="12.809153681461991"><ele>246.0</ele><time>2026-04-25T13:49:12Z</time></trkpt><trkpt lat="41.92534583612612" lon="12.809252284193274"><ele>246.00000000000003</ele><time>2026-04-25T13:49:14Z</time></trkpt><trkpt lat="41.92529629708626" lon="12.809340972801625"><ele>246.00000000000003</ele><time>2026-04-25T13:49:16Z</time></trkpt><trkpt lat="41.92523154595381" lon="12.809409426165038"><ele>246.0</ele><time>2026-04-25T13:49:18Z</time></trkpt><trkpt lat="41.92513934881444" lon="12.809477720704074"><ele>246.0</ele><time>2026-04-25T13:49:20Z</time></trkpt><trkpt lat="41.925040293959704" lon="12.809530036889468"><ele>244.33333333333334</ele><time>2026-04-25T13:49:22Z</time></trkpt><trkpt lat="41.9249682639055" lon="12.809608103040976"><ele>242.66666666666669</ele><time>2026-04-25T13:49:24Z</time></trkpt><trkpt lat="41.92494012467026" lon="12.809701750959992"><ele>241.0</ele><time>2026-04-25T13:49:26Z</time></trkpt><trkpt lat="41.92489807206078" lon="12.809799149210766"><ele>239.33333333333334</ele><time>2026-04-25T13:49:28Z</time></trkpt><trkpt lat="41.92484728082307" lon="12.809894679573436"><ele>237.66666666666669</ele><time>2026-04-25T13:49:30Z</time></trkpt><trkpt lat="41.92478437955597" lon="12.809972718728778"><ele>236.0</ele><time>2026-04-25T13:49:32Z</time></trkpt><trkpt lat="41.92472015461402" lon="12.810063595637159"><ele>236.00000000000003</ele><time>2026-04-25T13:49:34Z</time></trkpt><trkpt lat="41.92466226976475" lon="12.810141794237474"><ele>236.0</ele><time>2026-04-25T13:49:36Z</time></trkpt><trkpt lat="41.92459308771259" lon="12.810206218437347"><ele>236.0</ele><time>2026-04-25T13:49:38Z</time></trkpt><trkpt lat="41.92451352235618" lon="12.810275159848118"><ele>236.0</ele><time>2026-04-25T13:49:40Z</time></trkpt><trkpt lat="41.92442522142391" lon="12.810329768111721"><ele>236.00000000000003</ele><time>2026-04-25T13:49:42Z</time></trkpt><trkpt lat="41.92435205086401" lon="12.810375006070052"><ele>236.0</ele><time>2026-04-25T13:49:44Z</time></trkpt><trkpt lat="41.924255702661476" lon="12.810420405286154"><ele>236.20000000000002</ele><time>2026-04-25T13:49:46Z</time></trkpt><trkpt lat="41.9241540268493" lon="12.81044210956247"><ele>236.40000000000003</ele><time>2026-04-25T13:49:48Z</time></trkpt><trkpt lat="41.924036751221834" lon="12.810490510743817"><ele>236.6</ele><time>2026-04-25T13:49:50Z</time></trkpt><trkpt lat="41.923966422565115" lon="12.810519168823825"><ele>236.8</ele><time>2026-04-25T13:49:52Z</time></trkpt><trkpt lat="41.92388685109231" lon="12.810556281428644"><ele>237.0</ele><time>2026-04-25T13:49:54Z</time></trkpt><trkpt lat="41.92381616560358" lon="12.810595569584208"><ele>237.0</ele><time>2026-04-25T13:49:56Z</time></trkpt><trkpt lat="41.9237286150879" lon="12.81065143883285"><ele>237.0</ele><time>2026-04-25T13:49:58Z</time></trkpt><trkpt lat="41.92364882650378" lon="12.810688709727717"><ele>237.0</ele><time>2026-04-25T13:50:00Z</time></trkpt><trkpt lat="41.923565030537034" lon="12.810752004686563"><ele>237.0</ele><time>2026-04-25T13:50:02Z</time></trkpt><trkpt lat="41.92349283854651" lon="12.810826203628277"><ele>237.0</ele><time>2026-04-25T13:50:04Z</time></trkpt><trkpt lat="41.92340285185413" lon="12.810873042928979"><ele>236.2</ele><time>2026-04-25T13:50:06Z</time></trkpt><trkpt lat="41.92333280235397" lon="12.810955377728268"><ele>235.39999999999998</ele><time>2026-04-25T13:50:08Z</time></trkpt><trkpt lat="41.92323916536298" lon="12.811032683616212"><ele>234.60000000000002</ele><time>2026-04-25T13:50:10Z</time></trkpt><trkpt lat="41.9231461794862" lon="12.811094673333434"><ele>233.8</ele><time>2026-04-25T13:50:12Z</time></trkpt><trkpt lat="41.923060602843954" lon="12.811169737121931"><ele>233.0</ele><time>2026-04-25T13:50:14Z</time></trkpt><trkpt lat="41.92297640791221" lon="12.811246251001851"><ele>233.00000000000003</ele><time>2026-04-25T13:50:16Z</time></trkpt><trkpt lat="41.92289037709114" lon="12.811341611156628"><ele>233.0</ele><time>2026-04-25T13:50:18Z</time></trkpt><trkpt lat="41.92279917375888" lon="12.811429534886603"><ele>233.0</ele><time>2026-04-25T13:50:20Z</time></trkpt><trkpt lat="41.9227371212337" lon="12.811476180868057"><ele>233.0</ele><time>2026-04-25T13:50:21Z</time></trkpt><trkpt lat="41.92266947330924" lon="12.81153019663101"><ele>233.00000000000003</ele><time>2026-04-25T13:50:22Z</time></trkpt><trkpt lat="41.92260737499963" lon="12.811556056711332"><ele>233.0</ele><time>2026-04-25T13:50:23Z</time></trkpt><trkpt lat="41.922517105059065" lon="12.811641494854806"><ele>232.00000000000003</ele><time>2026-04-25T13:50:25Z</time></trkpt><trkpt lat="41.92243683721227" lon="12.811713992568338"><ele>231.0</ele><time>2026-04-25T13:50:27Z</time></trkpt><trkpt lat="41.92236035906279" lon="12.811769388159561"><ele>230.0</ele><time>2026-04-25T13:50:29Z</time></trkpt><trkpt lat="41.922301136965984" lon="12.81186665529713"><ele>229.0</ele><time>2026-04-25T13:50:31Z</time></trkpt><trkpt lat="41.92223464168395" lon="12.811938663332693"><ele>228.00000000000003</ele><time>2026-04-25T13:50:33Z</time></trkpt><trkpt lat="41.92218054452601" lon="12.812013914792749"><ele>227.0</ele><time>2026-04-25T13:50:35Z</time></trkpt><trkpt lat="41.922138516770104" lon="12.81208714120731"><ele>227.00000000000003</ele><time>2026-04-25T13:50:37Z</time></trkpt><trkpt lat="41.9221033121445" lon="12.81217745098666"><ele>227.0</ele><time>2026-04-25T13:50:39Z</time></trkpt><trkpt lat="41.92206874839185" lon="12.812259831711973"><ele>227.0</ele><time>2026-04-25T13:50:41Z</time></trkpt><trkpt lat="41.92202547598995" lon="12.812400811557477"><ele>227.0</ele><time>2026-04-25T13:50:43Z</time></trkpt><trkpt lat="41.92202841515337" lon="12.812489615808135"><ele>227.00000000000003</ele><time>2026-04-25T13:50:44Z</time></trkpt><trkpt lat="41.921917485289015" lon="12.812554383580016"><ele>227.0</ele><time>2026-04-25T13:50:46Z</time></trkpt><trkpt lat="41.92184827225102" lon="12.812644323983703"><ele>227.00000000000003</ele><time>2026-04-25T13:50:48Z</time></trkpt><trkpt lat="41.92178426556143" lon="12.812727390317276"><ele>227.0</ele><time>2026-04-25T13:50:53Z</time></trkpt><trkpt lat="41.921677808945894" lon="12.8128071595011"><ele>227.0</ele><time>2026-04-25T13:50:55Z</time></trkpt><trkpt lat="41.92174085867992" lon="12.812788840177296"><ele>227.0</ele><time>2026-04-25T13:51:01Z</time></trkpt><trkpt lat="41.92178558169206" lon="12.812709631980756"><ele>227.00000000000003</ele><time>2026-04-25T13:51:04Z</time></trkpt><trkpt lat="41.921857881040054" lon="12.81262387587795"><ele>227.0</ele><time>2026-04-25T13:51:06Z</time></trkpt><trkpt lat="41.92192233597736" lon="12.812562506535906"><ele>227.00000000000003</ele><time>2026-04-25T13:51:07Z</time></trkpt><trkpt lat="41.9219868740904" lon="12.812502455313213"><ele>227.0</ele><time>2026-04-25T13:51:08Z</time></trkpt><trkpt lat="41.92205322849789" lon="12.812439151251493"><ele>227.0</ele><time>2026-04-25T13:51:09Z</time></trkpt><trkpt lat="41.922107250132214" lon="12.812395124014785"><ele>227.0</ele><time>2026-04-25T13:51:10Z</time></trkpt><trkpt lat="41.922044015649554" lon="12.812387626753404"><ele>227.00000000000003</ele><time>2026-04-25T13:51:17Z</time></trkpt><trkpt lat="41.92199197854736" lon="12.81248554301307"><ele>227.0</ele><time>2026-04-25T13:51:20Z</time></trkpt><trkpt lat="41.92191599592249" lon="12.812585268709475"><ele>227.0</ele><time>2026-04-25T13:51:23Z</time></trkpt><trkpt lat="41.9218610899193" lon="12.812630727975833"><ele>227.00000000000003</ele><time>2026-04-25T13:51:24Z</time></trkpt><trkpt lat="41.92179676713105" lon="12.812678984068741"><ele>227.0</ele><time>2026-04-25T13:51:25Z</time></trkpt><trkpt lat="41.921734183194005" lon="12.812753382547951"><ele>227.0</ele><time>2026-04-25T13:51:26Z</time></trkpt><trkpt lat="41.92167524288949" lon="12.812807627718588"><ele>227.00000000000003</ele><time>2026-04-25T13:51:27Z</time></trkpt><trkpt lat="41.9217452693368" lon="12.812767736214221"><ele>227.0</ele><time>2026-04-25T13:51:34Z</time></trkpt><trkpt lat="41.921792553112454" lon="12.81270210834772"><ele>227.0</ele><time>2026-04-25T13:51:48Z</time></trkpt><trkpt lat="41.92186668331938" lon="12.812622684412155"><ele>227.00000000000003</ele><time>2026-04-25T13:51:50Z</time></trkpt><trkpt lat="41.92192373136946" lon="12.812565761536296"><ele>227.0</ele><time>2026-04-25T13:51:51Z</time></trkpt><trkpt lat="41.921990228974884" lon="12.812516268434662"><ele>227.0</ele><time>2026-04-25T13:51:52Z</time></trkpt><trkpt lat="41.922055224194104" lon="12.81247165796752"><ele>227.0</ele><time>2026-04-25T13:51:53Z</time></trkpt><trkpt lat="41.922106586503375" lon="12.812399972257133"><ele>227.00000000000003</ele><time>2026-04-25T13:51:55Z</time></trkpt><trkpt lat="41.92196503395366" lon="12.812448273949732"><ele>227.0</ele><time>2026-04-25T13:51:59Z</time></trkpt><trkpt lat="41.921917680406786" lon="12.8125267669106"><ele>227.00000000000003</ele><time>2026-04-25T13:52:00Z</time></trkpt><trkpt lat="41.92186762433986" lon="12.812617871752089"><ele>227.0</ele><time>2026-04-25T13:52:01Z</time></trkpt><trkpt lat="41.92180772150031" lon="12.812694076024052"><ele>227.0</ele><time>2026-04-25T13:52:02Z</time></trkpt><trkpt lat="41.92175397677144" lon="12.812750137209699"><ele>227.0</ele><time>2026-04-25T13:52:03Z</time></trkpt><trkpt lat="41.921691982780835" lon="12.812797107841353"><ele>227.00000000000003</ele><time>2026-04-25T13:52:04Z</time></trkpt><trkpt lat="41.921750787369476" lon="12.812765510397936"><ele>227.0</ele><time>2026-04-25T13:53:01Z</time></trkpt><trkpt lat="41.92179834161342" lon="12.812670107626051"><ele>227.00000000000003</ele><time>2026-04-25T13:53:03Z</time></trkpt><trkpt lat="41.92190632335334" lon="12.812579127564572"><ele>227.0</ele><time>2026-04-25T13:53:05Z</time></trkpt><trkpt lat="41.921977711154874" lon="12.812544255517201"><ele>227.0</ele><time>2026-04-25T13:53:06Z</time></trkpt><trkpt lat="41.92204082403213" lon="12.812499435005938"><ele>227.0</ele><time>2026-04-25T13:53:07Z</time></trkpt><trkpt lat="41.92209454367931" lon="12.812401947743016"><ele>227.00000000000003</ele><time>2026-04-25T13:53:09Z</time></trkpt><trkpt lat="41.92201265118818" lon="12.812384140668389"><ele>227.0</ele><time>2026-04-25T13:53:12Z</time></trkpt><trkpt lat="41.92186279352859" lon="12.8123567688431"><ele>227.00000000000003</ele><time>2026-04-25T13:53:14Z</time></trkpt><trkpt lat="41.92180449746167" lon="12.812421499230577"><ele>227.0</ele><time>2026-04-25T13:53:15Z</time></trkpt><trkpt lat="41.92173726351605" lon="12.81250345298386"><ele>227.0</ele><time>2026-04-25T13:53:16Z</time></trkpt><trkpt lat="41.92169584235" lon="12.812583103497147"><ele>227.0</ele><time>2026-04-25T13:53:17Z</time></trkpt><trkpt lat="41.92163090899912" lon="12.812650924619156"><ele>227.00000000000003</ele><time>2026-04-25T13:53:18Z</time></trkpt><trkpt lat="41.92156725397788" lon="12.812701176549716"><ele>227.0</ele><time>2026-04-25T13:53:20Z</time></trkpt><trkpt lat="41.921721290998725" lon="12.812857513929767"><ele>227.0</ele><time>2026-04-25T13:53:33Z</time></trkpt><trkpt lat="41.92175299333371" lon="12.812777458818678"><ele>227.00000000000003</ele><time>2026-04-25T13:54:11.001Z</time></trkpt><trkpt lat="41.92180059104816" lon="12.812692015356253"><ele>227.0</ele><time>2026-04-25T13:54:14.001Z</time></trkpt><trkpt lat="41.9218824794463" lon="12.812606530493813"><ele>227.0</ele><time>2026-04-25T13:54:16.001Z</time></trkpt><trkpt lat="41.92193590620275" lon="12.812560590359611"><ele>227.00000000000003</ele><time>2026-04-25T13:54:17.001Z</time></trkpt><trkpt lat="41.92199531389981" lon="12.81252495636598"><ele>227.0</ele><time>2026-04-25T13:54:18.001Z</time></trkpt><trkpt lat="41.92204883186595" lon="12.812479495165332"><ele>227.0</ele><time>2026-04-25T13:54:19.001Z</time></trkpt><trkpt lat="41.92211891414124" lon="12.812396549134316"><ele>227.0</ele><time>2026-04-25T13:54:21.001Z</time></trkpt><trkpt lat="41.922059818847636" lon="12.812362005162875"><ele>227.0</ele><time>2026-04-25T13:54:24.001Z</time></trkpt><trkpt lat="41.92193320015978" lon="12.812284540749612"><ele>227.0</ele><time>2026-04-25T13:54:27Z</time></trkpt><trkpt lat="41.921828818899066" lon="12.812394952398076"><ele>227.0</ele><time>2026-04-25T13:54:47Z</time></trkpt><trkpt lat="41.92177962706271" lon="12.812451244563398"><ele>227.0</ele><time>2026-04-25T13:54:48Z</time></trkpt><trkpt lat="41.92171751744275" lon="12.81252986423153"><ele>227.0</ele><time>2026-04-25T13:54:49Z</time></trkpt><trkpt lat="41.921674080501184" lon="12.812605833520772"><ele>227.0</ele><time>2026-04-25T13:54:50Z</time></trkpt><trkpt lat="41.92159079916188" lon="12.812682413668476"><ele>227.0</ele><time>2026-04-25T13:54:52Z</time></trkpt><trkpt lat="41.9217288154265" lon="12.812811987412877"><ele>227.0</ele><time>2026-04-25T13:54:58Z</time></trkpt><trkpt lat="41.92176694918484" lon="12.81272484148249"><ele>227.0</ele><time>2026-04-25T13:55:12Z</time></trkpt><trkpt lat="41.92183550370028" lon="12.812645341043924"><ele>227.0</ele><time>2026-04-25T13:55:14Z</time></trkpt><trkpt lat="41.92194170725951" lon="12.812562239124444"><ele>227.0</ele><time>2026-04-25T13:55:16Z</time></trkpt><trkpt lat="41.92204717834158" lon="12.812475596599036"><ele>227.0</ele><time>2026-04-25T13:55:18Z</time></trkpt><trkpt lat="41.9221214607662" lon="12.81239532741202"><ele>227.0</ele><time>2026-04-25T13:55:20Z</time></trkpt><trkpt lat="41.922043255681395" lon="12.812388635406432"><ele>227.0</ele><time>2026-04-25T13:55:25Z</time></trkpt><trkpt lat="41.92193752983355" lon="12.81228025922398"><ele>227.0</ele><time>2026-04-25T13:55:27Z</time></trkpt><trkpt lat="41.921884014458996" lon="12.812335624606753"><ele>227.0</ele><time>2026-04-25T13:55:29Z</time></trkpt><trkpt lat="41.9218187164727" lon="12.812406306070578"><ele>227.0</ele><time>2026-04-25T13:55:31Z</time></trkpt><trkpt lat="41.92167260095722" lon="12.81260737892831"><ele>227.0</ele><time>2026-04-25T13:55:40Z</time></trkpt><trkpt lat="41.92161479969244" lon="12.812662022139383"><ele>227.0</ele><time>2026-04-25T13:55:41Z</time></trkpt><trkpt lat="41.92156096233027" lon="12.812723983419474"><ele>226.16666666666669</ele><time>2026-04-25T13:55:44Z</time></trkpt><trkpt lat="41.92147519973388" lon="12.81277192595336"><ele>225.33333333333334</ele><time>2026-04-25T13:55:47.001Z</time></trkpt><trkpt lat="41.921417666972154" lon="12.812815149450207"><ele>224.5</ele><time>2026-04-25T13:55:49.001Z</time></trkpt><trkpt lat="41.921346219965436" lon="12.812868906609088"><ele>223.66666666666669</ele><time>2026-04-25T13:55:51.001Z</time></trkpt><trkpt lat="41.9212912787423" lon="12.812911692196892"><ele>222.83333333333334</ele><time>2026-04-25T13:55:52.001Z</time></trkpt><trkpt lat="41.92121900847484" lon="12.812967972736768"><ele>222.0</ele><time>2026-04-25T13:55:54.001Z</time></trkpt><trkpt lat="41.92114815053086" lon="12.813023154182966"><ele>222.0</ele><time>2026-04-25T13:55:57.001Z</time></trkpt><trkpt lat="41.921093341693044" lon="12.8130691375665"><ele>222.0</ele><time>2026-04-25T13:55:58.001Z</time></trkpt><trkpt lat="41.92103503088032" lon="12.81312259053825"><ele>222.0</ele><time>2026-04-25T13:55:59.001Z</time></trkpt><trkpt lat="41.92089536538264" lon="12.813250094374254"><ele>222.0</ele><time>2026-04-25T13:56:09.001Z</time></trkpt><trkpt lat="41.92085242584454" lon="12.813312931072096"><ele>222.0</ele><time>2026-04-25T13:56:11.001Z</time></trkpt><trkpt lat="41.92080090373698" lon="12.813380216346662"><ele>222.0</ele><time>2026-04-25T13:56:13.001Z</time></trkpt><trkpt lat="41.92073350923111" lon="12.813467913553962"><ele>222.16666666666666</ele><time>2026-04-25T13:56:15.001Z</time></trkpt><trkpt lat="41.92068318508127" lon="12.813533398554746"><ele>222.33333333333331</ele><time>2026-04-25T13:56:18.001Z</time></trkpt><trkpt lat="41.92075047707953" lon="12.813687393321556"><ele>222.5</ele><time>2026-04-25T13:56:19.001Z</time></trkpt><trkpt lat="41.92070377453811" lon="12.813763651283807"><ele>222.66666666666666</ele><time>2026-04-25T13:56:21.001Z</time></trkpt><trkpt lat="41.92065952148522" lon="12.813848594350812"><ele>222.83333333333331</ele><time>2026-04-25T13:56:23.001Z</time></trkpt><trkpt lat="41.92067967876585" lon="12.813952285063744"><ele>223.0</ele><time>2026-04-25T13:56:28.001Z</time></trkpt><trkpt lat="41.920724405065684" lon="12.814017189569109"><ele>223.0</ele><time>2026-04-25T13:56:30.001Z</time></trkpt><trkpt lat="41.92077740381601" lon="12.813944032574792"><ele>223.0</ele><time>2026-04-25T13:56:34Z</time></trkpt><trkpt lat="41.92082496793168" lon="12.813872749350045"><ele>223.0</ele><time>2026-04-25T13:56:36Z</time></trkpt><trkpt lat="41.920886774500104" lon="12.813839424857553"><ele>223.0</ele><time>2026-04-25T13:56:37Z</time></trkpt><trkpt lat="41.92096837960115" lon="12.813754512707385"><ele>223.0</ele><time>2026-04-25T13:56:39Z</time></trkpt><trkpt lat="41.92110398524097" lon="12.81368496516905"><ele>222.83333333333331</ele><time>2026-04-25T13:56:41Z</time></trkpt><trkpt lat="41.921157303248044" lon="12.813633943782996"><ele>222.66666666666666</ele><time>2026-04-25T13:56:42Z</time></trkpt><trkpt lat="41.92124253978643" lon="12.813550035527735"><ele>222.5</ele><time>2026-04-25T13:56:44Z</time></trkpt><trkpt lat="41.921297565949565" lon="12.813452850787138"><ele>222.33333333333331</ele><time>2026-04-25T13:56:47Z</time></trkpt><trkpt lat="41.92131878085214" lon="12.813364862462413"><ele>222.16666666666666</ele><time>2026-04-25T13:56:49Z</time></trkpt><trkpt lat="41.921349711098856" lon="12.813278042753106"><ele>222.0</ele><time>2026-04-25T13:56:51Z</time></trkpt><trkpt lat="41.92134574330281" lon="12.813117278395675"><ele>222.0</ele><time>2026-04-25T13:56:53Z</time></trkpt><trkpt lat="41.92141901780958" lon="12.813018158204855"><ele>222.0</ele><time>2026-04-25T13:56:57Z</time></trkpt><trkpt lat="41.921506235196375" lon="12.812963859444489"><ele>222.0</ele><time>2026-04-25T13:56:59Z</time></trkpt><trkpt lat="41.921560375097236" lon="12.812917954352404"><ele>222.0</ele><time>2026-04-25T13:57:00Z</time></trkpt><trkpt lat="41.92163241240189" lon="12.812854856154576"><ele>222.0</ele><time>2026-04-25T13:57:01Z</time></trkpt><trkpt lat="41.9217196109393" lon="12.812786716738065"><ele>223.0</ele><time>2026-04-25T13:57:02Z</time></trkpt><trkpt lat="41.92180596261149" lon="12.812694020927996"><ele>224.0</ele><time>2026-04-25T13:57:03Z</time></trkpt><trkpt lat="41.921883362370494" lon="12.812606917145649"><ele>225.0</ele><time>2026-04-25T13:57:04Z</time></trkpt><trkpt lat="41.92195390577272" lon="12.812541143353645"><ele>226.0</ele><time>2026-04-25T13:57:05Z</time></trkpt><trkpt lat="41.92201135979092" lon="12.812475408059118"><ele>227.0</ele><time>2026-04-25T13:57:06Z</time></trkpt><trkpt lat="41.9220685148336" lon="12.812388264283296"><ele>227.00000000000003</ele><time>2026-04-25T13:57:08Z</time></trkpt><trkpt lat="41.92209357276436" lon="12.812299368220911"><ele>227.0</ele><time>2026-04-25T13:57:14Z</time></trkpt><trkpt lat="41.92213355002574" lon="12.812219976984345"><ele>227.0</ele><time>2026-04-25T13:57:17Z</time></trkpt><trkpt lat="41.92205744278943" lon="12.812209307348951"><ele>227.0</ele><time>2026-04-25T13:57:27Z</time></trkpt><trkpt lat="41.921988259092785" lon="12.812281794017572"><ele>227.00000000000003</ele><time>2026-04-25T13:57:29Z</time></trkpt><trkpt lat="41.92191393615948" lon="12.812327107325526"><ele>227.0</ele><time>2026-04-25T13:57:31Z</time></trkpt><trkpt lat="41.921853858740306" lon="12.812396709864162"><ele>227.00000000000003</ele><time>2026-04-25T13:57:33Z</time></trkpt><trkpt lat="41.9217885416403" lon="12.812466413440674"><ele>227.0</ele><time>2026-04-25T13:57:35Z</time></trkpt><trkpt lat="41.92173422853801" lon="12.812548520388834"><ele>227.0</ele><time>2026-04-25T13:57:37Z</time></trkpt><trkpt lat="41.921676265524944" lon="12.812632908364273"><ele>227.0</ele><time>2026-04-25T13:57:39Z</time></trkpt><trkpt lat="41.92161449558408" lon="12.812713637749326"><ele>227.00000000000003</ele><time>2026-04-25T13:57:41Z</time></trkpt><trkpt lat="41.92153668461364" lon="12.812781386413487"><ele>227.0</ele><time>2026-04-25T13:57:43Z</time></trkpt><trkpt lat="41.92146457197514" lon="12.812831125337466"><ele>226.16666666666669</ele><time>2026-04-25T13:57:45Z</time></trkpt><trkpt lat="41.92138299150092" lon="12.812886398218128"><ele>225.33333333333334</ele><time>2026-04-25T13:57:47Z</time></trkpt><trkpt lat="41.92131851058942" lon="12.812938387644996"><ele>224.5</ele><time>2026-04-25T13:57:49Z</time></trkpt><trkpt lat="41.92124961786222" lon="12.812988905530837"><ele>223.66666666666669</ele><time>2026-04-25T13:57:51.001Z</time></trkpt><trkpt lat="41.9211872171087" lon="12.813030741295758"><ele>222.83333333333334</ele><time>2026-04-25T13:57:53.001Z</time></trkpt><trkpt lat="41.92111932688101" lon="12.813090646228508"><ele>222.0</ele><time>2026-04-25T13:57:55.001Z</time></trkpt><trkpt lat="41.92104705387209" lon="12.813143211465027"><ele>222.0</ele><time>2026-04-25T13:57:57.001Z</time></trkpt><trkpt lat="41.92098090421835" lon="12.81319434120229"><ele>222.0</ele><time>2026-04-25T13:57:59.001Z</time></trkpt><trkpt lat="41.92092415286049" lon="12.813249602991098"><ele>222.0</ele><time>2026-04-25T13:58:02.001Z</time></trkpt><trkpt lat="41.920898114335145" lon="12.81333232433836"><ele>222.0</ele><time>2026-04-25T13:59:01Z</time></trkpt><trkpt lat="41.920827524083364" lon="12.813400306778313"><ele>222.0</ele><time>2026-04-25T13:59:04Z</time></trkpt><trkpt lat="41.92077116791696" lon="12.813467075791172"><ele>222.0</ele><time>2026-04-25T13:59:06Z</time></trkpt><trkpt lat="41.920705382293384" lon="12.813565680799439"><ele>222.2</ele><time>2026-04-25T13:59:08Z</time></trkpt><trkpt lat="41.920646924773564" lon="12.813659047772147"><ele>222.39999999999998</ele><time>2026-04-25T13:59:10Z</time></trkpt><trkpt lat="41.920575815178836" lon="12.813764936355746"><ele>222.60000000000002</ele><time>2026-04-25T13:59:12Z</time></trkpt><trkpt lat="41.92052009653136" lon="12.813804697376689"><ele>222.8</ele><time>2026-04-25T13:59:13Z</time></trkpt><trkpt lat="41.920490423117194" lon="12.813930227720782"><ele>223.0</ele><time>2026-04-25T13:59:15Z</time></trkpt><trkpt lat="41.92044662288781" lon="12.81405363519234"><ele>223.0</ele><time>2026-04-25T13:59:17Z</time></trkpt><trkpt lat="41.920389886536036" lon="12.81417973044951"><ele>223.0</ele><time>2026-04-25T13:59:19Z</time></trkpt><trkpt lat="41.92034040257147" lon="12.814324126720537"><ele>223.0</ele><time>2026-04-25T13:59:21Z</time></trkpt><trkpt lat="41.92028585167805" lon="12.81446637120586"><ele>223.0</ele><time>2026-04-25T13:59:23Z</time></trkpt><trkpt lat="41.92023465932189" lon="12.814578818781706"><ele>223.0</ele><time>2026-04-25T13:59:25Z</time></trkpt><trkpt lat="41.920174875402274" lon="12.814676338818972"><ele>223.49999999999997</ele><time>2026-04-25T13:59:27Z</time></trkpt><trkpt lat="41.920115187023704" lon="12.814783594247816"><ele>224.0</ele><time>2026-04-25T13:59:29Z</time></trkpt><trkpt lat="41.920078823853416" lon="12.814875494586822"><ele>224.5</ele><time>2026-04-25T13:59:31Z</time></trkpt><trkpt lat="41.92003639643988" lon="12.814962332649655"><ele>225.0</ele><time>2026-04-25T13:59:34Z</time></trkpt><trkpt lat="41.919969806670075" lon="12.815050474095747"><ele>225.49999999999997</ele><time>2026-04-25T13:59:39Z</time></trkpt><trkpt lat="41.919974800182295" lon="12.815184311135983"><ele>226.0</ele><time>2026-04-25T13:59:41Z</time></trkpt><trkpt lat="41.919953837776525" lon="12.815283772266042"><ele>224.66666666666666</ele><time>2026-04-25T13:59:43Z</time></trkpt><trkpt lat="41.91994699183805" lon="12.815398916087231"><ele>223.33333333333331</ele><time>2026-04-25T13:59:45Z</time></trkpt><trkpt lat="41.919951635998885" lon="12.815503380305682"><ele>222.0</ele><time>2026-04-25T13:59:47Z</time></trkpt><trkpt lat="41.919956510140715" lon="12.815599063218526"><ele>220.66666666666669</ele><time>2026-04-25T13:59:49.001Z</time></trkpt><trkpt lat="41.919938239793105" lon="12.815701352694125"><ele>219.33333333333334</ele><time>2026-04-25T13:59:51.001Z</time></trkpt><trkpt lat="41.91992958993857" lon="12.81580538229766"><ele>218.0</ele><time>2026-04-25T13:59:53.001Z</time></trkpt><trkpt lat="41.91991719236352" lon="12.815911220114264"><ele>218.4</ele><time>2026-04-25T13:59:55.001Z</time></trkpt><trkpt lat="41.919891337463696" lon="12.816022199864772"><ele>218.8</ele><time>2026-04-25T13:59:57.001Z</time></trkpt><trkpt lat="41.919842006957765" lon="12.81613766736092"><ele>219.2</ele><time>2026-04-25T13:59:59.001Z</time></trkpt><trkpt lat="41.919814652265444" lon="12.81628717186753"><ele>219.6</ele><time>2026-04-25T14:00:01.001Z</time></trkpt><trkpt lat="41.91979212405347" lon="12.816396745352671"><ele>220.0</ele><time>2026-04-25T14:00:03.001Z</time></trkpt><trkpt lat="41.91976426028778" lon="12.816499190264137"><ele>219.99999999999997</ele><time>2026-04-25T14:00:06.001Z</time></trkpt><trkpt lat="41.91974785134335" lon="12.816589399830097"><ele>220.0</ele><time>2026-04-25T14:00:26.001Z</time></trkpt><trkpt lat="41.91966644682018" lon="12.816669772867122"><ele>220.0</ele><time>2026-04-25T14:00:29.001Z</time></trkpt><trkpt lat="41.919620054623735" lon="12.816742959761243"><ele>220.0</ele><time>2026-04-25T14:00:31.001Z</time></trkpt><trkpt lat="41.919565825861184" lon="12.816812069024541"><ele>219.99999999999997</ele><time>2026-04-25T14:00:33.001Z</time></trkpt><trkpt lat="41.9195587743454" lon="12.816922196109074"><ele>220.0</ele><time>2026-04-25T14:00:35.001Z</time></trkpt><trkpt lat="41.919541104474014" lon="12.817030169868485"><ele>220.66666666666666</ele><time>2026-04-25T14:00:38.001Z</time></trkpt><trkpt lat="41.91947889530876" lon="12.817108536908481"><ele>221.33333333333331</ele><time>2026-04-25T14:00:42.001Z</time></trkpt><trkpt lat="41.91946966555262" lon="12.817196809612748"><ele>222.0</ele><time>2026-04-25T14:00:45Z</time></trkpt><trkpt lat="41.91941712370016" lon="12.81728481020862"><ele>222.66666666666669</ele><time>2026-04-25T14:00:49Z</time></trkpt><trkpt lat="41.91938094281883" lon="12.817365878606587"><ele>223.33333333333334</ele><time>2026-04-25T14:00:52Z</time></trkpt><trkpt lat="41.91935314593528" lon="12.817497320658207"><ele>224.0</ele><time>2026-04-25T14:00:55Z</time></trkpt><trkpt lat="41.919377326722234" lon="12.817622064113417"><ele>224.0</ele><time>2026-04-25T14:00:58Z</time></trkpt><trkpt lat="41.91939235858706" lon="12.817720913488866"><ele>223.99999999999997</ele><time>2026-04-25T14:01:00Z</time></trkpt><trkpt lat="41.91938701757371" lon="12.817825378052518"><ele>223.99999999999997</ele><time>2026-04-25T14:01:02Z</time></trkpt><trkpt lat="41.91936690394864" lon="12.817962145557722"><ele>224.0</ele><time>2026-04-25T14:01:04Z</time></trkpt><trkpt lat="41.91935365499641" lon="12.818083263066201"><ele>224.0</ele><time>2026-04-25T14:01:06Z</time></trkpt><trkpt lat="41.91933228897864" lon="12.818230897649629"><ele>224.00000000000003</ele><time>2026-04-25T14:01:08Z</time></trkpt><trkpt lat="41.919310742299615" lon="12.81835379713005"><ele>224.0</ele><time>2026-04-25T14:01:10Z</time></trkpt><trkpt lat="41.919301587326885" lon="12.818437879532887"><ele>224.0</ele><time>2026-04-25T14:01:12Z</time></trkpt><trkpt lat="41.91930434163776" lon="12.818533806431148"><ele>224.0</ele><time>2026-04-25T14:01:14Z</time></trkpt><trkpt lat="41.91928668419499" lon="12.818642038083839"><ele>224.00000000000003</ele><time>2026-04-25T14:01:16Z</time></trkpt><trkpt lat="41.919293504495265" lon="12.818762488078836"><ele>224.0</ele><time>2026-04-25T14:01:18Z</time></trkpt><trkpt lat="41.91929165146491" lon="12.818886139509535"><ele>224.50000000000003</ele><time>2026-04-25T14:01:20Z</time></trkpt><trkpt lat="41.91932296715413" lon="12.819026177584957"><ele>225.0</ele><time>2026-04-25T14:01:22Z</time></trkpt><trkpt lat="41.91929941257074" lon="12.819139742778034"><ele>225.5</ele><time>2026-04-25T14:01:24Z</time></trkpt><trkpt lat="41.91924793821113" lon="12.819227676517976"><ele>226.0</ele><time>2026-04-25T14:01:26Z</time></trkpt><trkpt lat="41.919250258753536" lon="12.819315447083042"><ele>226.50000000000003</ele><time>2026-04-25T14:01:27Z</time></trkpt><trkpt lat="41.91925689172385" lon="12.819439152142449"><ele>227.0</ele><time>2026-04-25T14:01:29Z</time></trkpt><trkpt lat="41.91927257207947" lon="12.81954677898438"><ele>227.2</ele><time>2026-04-25T14:01:31Z</time></trkpt><trkpt lat="41.91927289822388" lon="12.819632717658726"><ele>227.39999999999998</ele><time>2026-04-25T14:01:33Z</time></trkpt><trkpt lat="41.91924195833103" lon="12.81974256004592"><ele>227.60000000000002</ele><time>2026-04-25T14:01:35Z</time></trkpt><trkpt lat="41.919221523535576" lon="12.819864619012813"><ele>227.8</ele><time>2026-04-25T14:01:37Z</time></trkpt><trkpt lat="41.919222376220894" lon="12.820022767670489"><ele>228.0</ele><time>2026-04-25T14:01:39Z</time></trkpt><trkpt lat="41.91921220103514" lon="12.820153189895267"><ele>228.33333333333334</ele><time>2026-04-25T14:01:41Z</time></trkpt><trkpt lat="41.919193954975874" lon="12.82028392201246"><ele>228.66666666666669</ele><time>2026-04-25T14:01:43Z</time></trkpt><trkpt lat="41.919169785970105" lon="12.820395678359397"><ele>229.0</ele><time>2026-04-25T14:01:45Z</time></trkpt><trkpt lat="41.91925142891477" lon="12.820384096779732"><ele>229.33333333333334</ele><time>2026-04-25T14:01:48Z</time></trkpt><trkpt lat="41.91925484520271" lon="12.820298282212777"><ele>229.66666666666669</ele><time>2026-04-25T14:01:50Z</time></trkpt><trkpt lat="41.919198620725446" lon="12.82024928902335"><ele>230.0</ele><time>2026-04-25T14:01:52Z</time></trkpt><trkpt lat="41.919170569516254" lon="12.820372863787869"><ele>229.99999999999997</ele><time>2026-04-25T14:02:24Z</time></trkpt><trkpt lat="41.919235751060256" lon="12.820426175729068"><ele>230.0</ele><time>2026-04-25T14:02:27Z</time></trkpt><trkpt lat="41.91926521869537" lon="12.82033274771142"><ele>229.99999999999997</ele><time>2026-04-25T14:02:29.001Z</time></trkpt><trkpt lat="41.91919137021834" lon="12.820280486886283"><ele>229.99999999999997</ele><time>2026-04-25T14:02:32.001Z</time></trkpt><trkpt lat="41.919150372372954" lon="12.8203657776947"><ele>230.0</ele><time>2026-04-25T14:02:34.001Z</time></trkpt><trkpt lat="41.919186354154775" lon="12.82044907669247"><ele>229.99999999999997</ele><time>2026-04-25T14:02:36.001Z</time></trkpt><trkpt lat="41.919177861033575" lon="12.820534424719991"><ele>229.99999999999997</ele><time>2026-04-25T14:02:38.001Z</time></trkpt><trkpt lat="41.919094180649836" lon="12.820570013446416"><ele>227.7142857142857</ele><time>2026-04-25T14:02:41.001Z</time></trkpt><trkpt lat="41.91905895843924" lon="12.820483431179953"><ele>225.42857142857142</ele><time>2026-04-25T14:02:43.001Z</time></trkpt><trkpt lat="41.9190830092304" lon="12.820380354469528"><ele>223.14285714285714</ele><time>2026-04-25T14:02:45.001Z</time></trkpt><trkpt lat="41.919155785222664" lon="12.820330177090689"><ele>220.85714285714283</ele><time>2026-04-25T14:02:47.001Z</time></trkpt><trkpt lat="41.91921532003824" lon="12.820278939890544"><ele>218.57142857142856</ele><time>2026-04-25T14:02:49.001Z</time></trkpt><trkpt lat="41.91920079985255" lon="12.820178919328717"><ele>216.2857142857143</ele><time>2026-04-25T14:02:51Z</time></trkpt><trkpt lat="41.91913880982071" lon="12.820195090743391"><ele>214.0</ele><time>2026-04-25T14:02:54Z</time></trkpt><trkpt lat="41.919097572398336" lon="12.82029604133126"><ele>213.99999999999997</ele><time>2026-04-25T14:02:59Z</time></trkpt><trkpt lat="41.91908088965883" lon="12.820384217095421"><ele>214.0</ele><time>2026-04-25T14:03:00Z</time></trkpt><trkpt lat="41.919074225812146" lon="12.820477955343057"><ele>214.0</ele><time>2026-04-25T14:03:01Z</time></trkpt><trkpt lat="41.91911155818752" lon="12.820578178519566"><ele>214.0</ele><time>2026-04-25T14:03:03Z</time></trkpt><trkpt lat="41.919192352383355" lon="12.82052789034921"><ele>213.99999999999997</ele><time>2026-04-25T14:03:05Z</time></trkpt><trkpt lat="41.91922570982227" lon="12.820436762300373"><ele>214.0</ele><time>2026-04-25T14:03:07Z</time></trkpt><trkpt lat="41.91924493707139" lon="12.820346656662027"><ele>213.99999999999997</ele><time>2026-04-25T14:03:09Z</time></trkpt><trkpt lat="41.91925942759135" lon="12.820247189042567"><ele>214.0</ele><time>2026-04-25T14:03:11Z</time></trkpt><trkpt lat="41.91920662329138" lon="12.820191248976707"><ele>214.0</ele><time>2026-04-25T14:03:13Z</time></trkpt><trkpt lat="41.91912776208643" lon="12.820212263020874"><ele>214.0</ele><time>2026-04-25T14:03:15Z</time></trkpt><trkpt lat="41.91907822428334" lon="12.820301107001105"><ele>213.99999999999997</ele><time>2026-04-25T14:03:17Z</time></trkpt><trkpt lat="41.91907395036642" lon="12.820463995860335"><ele>214.0</ele><time>2026-04-25T14:03:19Z</time></trkpt><trkpt lat="41.919097774484314" lon="12.820572561639782"><ele>214.0</ele><time>2026-04-25T14:03:21Z</time></trkpt><trkpt lat="41.91918120378207" lon="12.82055599929202"><ele>213.99999999999997</ele><time>2026-04-25T14:03:23Z</time></trkpt><trkpt lat="41.91921925671556" lon="12.820422960185363"><ele>213.99999999999997</ele><time>2026-04-25T14:03:25Z</time></trkpt><trkpt lat="41.91921427513781" lon="12.82029409980116"><ele>214.0</ele><time>2026-04-25T14:03:27Z</time></trkpt><trkpt lat="41.919136498343114" lon="12.820361996599996"><ele>214.0</ele><time>2026-04-25T14:03:30Z</time></trkpt><trkpt lat="41.919189407923156" lon="12.820429645540154"><ele>214.00000000000003</ele><time>2026-04-25T14:03:32Z</time></trkpt><trkpt lat="41.91922847013652" lon="12.820339469196517"><ele>214.0</ele><time>2026-04-25T14:03:34Z</time></trkpt><trkpt lat="41.91916537657511" lon="12.82031975751097"><ele>214.0</ele><time>2026-04-25T14:03:36Z</time></trkpt><trkpt lat="41.91915795644642" lon="12.820421600809963"><ele>214.0</ele><time>2026-04-25T14:03:38Z</time></trkpt><trkpt lat="41.919235698177275" lon="12.820405361821475"><ele>214.0</ele><time>2026-04-25T14:03:40Z</time></trkpt><trkpt lat="41.91921722936335" lon="12.820308909258609"><ele>214.00000000000003</ele><time>2026-04-25T14:03:42Z</time></trkpt><trkpt lat="41.91914927362557" lon="12.820336555065612"><ele>214.0</ele><time>2026-04-25T14:03:44Z</time></trkpt><trkpt lat="41.919174114493" lon="12.820426691449198"><ele>214.00000000000003</ele><time>2026-04-25T14:03:46Z</time></trkpt><trkpt lat="41.91923579272347" lon="12.820368733801681"><ele>214.0</ele><time>2026-04-25T14:03:48Z</time></trkpt><trkpt lat="41.91918504462667" lon="12.82028633844689"><ele>214.0</ele><time>2026-04-25T14:03:50Z</time></trkpt><trkpt lat="41.91915294071167" lon="12.820375405466542"><ele>214.0</ele><time>2026-04-25T14:03:52Z</time></trkpt><trkpt lat="41.91921891691488" lon="12.820404984607231"><ele>214.0</ele><time>2026-04-25T14:03:54Z</time></trkpt><trkpt lat="41.91920589140147" lon="12.82030721696465"><ele>214.00000000000003</ele><time>2026-04-25T14:03:56Z</time></trkpt><trkpt lat="41.91913820473153" lon="12.820355131306272"><ele>214.0</ele><time>2026-04-25T14:03:58Z</time></trkpt><trkpt lat="41.91919014261766" lon="12.820425814905398"><ele>213.99999999999997</ele><time>2026-04-25T14:04:00Z</time></trkpt><trkpt lat="41.919229676780546" lon="12.820324015811027"><ele>214.0</ele><time>2026-04-25T14:04:02Z</time></trkpt><trkpt lat="41.91915553445246" lon="12.820309502377338"><ele>214.0</ele><time>2026-04-25T14:04:04Z</time></trkpt><trkpt lat="41.91917293264058" lon="12.820415663183319"><ele>214.0</ele><time>2026-04-25T14:04:06Z</time></trkpt><trkpt lat="41.91923700047361" lon="12.820360473967504"><ele>213.99999999999997</ele><time>2026-04-25T14:04:08Z</time></trkpt><trkpt lat="41.91926695071115" lon="12.820215330635287"><ele>214.0</ele><time>2026-04-25T14:04:10Z</time></trkpt><trkpt lat="41.91926719916366" lon="12.820120279433205"><ele>214.00000000000003</ele><time>2026-04-25T14:04:12Z</time></trkpt><trkpt lat="41.91919050211529" lon="12.82017132714485"><ele>214.0</ele><time>2026-04-25T14:04:15.001Z</time></trkpt><trkpt lat="41.919162365519966" lon="12.820260636839885"><ele>214.0</ele><time>2026-04-25T14:04:17.001Z</time></trkpt><trkpt lat="41.91919551548422" lon="12.820332849267976"><ele>214.0</ele><time>2026-04-25T14:50:07Z</time></trkpt><trkpt lat="41.91917758168369" lon="12.820423548737365"><ele>214.0</ele><time>2026-04-25T14:50:15Z</time></trkpt><trkpt lat="41.919179963816475" lon="12.82050823880429"><ele>214.00000000000003</ele><time>2026-04-25T14:50:23Z</time></trkpt><trkpt lat="41.91918274269086" lon="12.820422488955542"><ele>214.0</ele><time>2026-04-25T14:50:49Z</time></trkpt><trkpt lat="41.91916928142769" lon="12.820338419273181"><ele>213.99999999999997</ele><time>2026-04-25T14:50:55Z</time></trkpt><trkpt lat="41.91919799386032" lon="12.820260974284272"><ele>214.0</ele><time>2026-04-25T14:51:03Z</time></trkpt><trkpt lat="41.919255911746085" lon="12.820355252232696"><ele>214.0</ele><time>2026-04-25T14:56:25Z</time></trkpt><trkpt lat="41.91926208669935" lon="12.820465732901821"><ele>214.0</ele><time>2026-04-25T14:56:28.001Z</time></trkpt><trkpt lat="41.919245892758674" lon="12.820578852804756"><ele>213.99999999999997</ele><time>2026-04-25T14:56:31.001Z</time></trkpt><trkpt lat="41.919234845502935" lon="12.820684491449851"><ele>214.0</ele><time>2026-04-25T14:56:34.001Z</time></trkpt><trkpt lat="41.91923034728801" lon="12.82079309367015"><ele>213.99999999999997</ele><time>2026-04-25T14:56:38.001Z</time></trkpt><trkpt lat="41.91920865204034" lon="12.820895755790513"><ele>214.0</ele><time>2026-04-25T14:56:41.001Z</time></trkpt><trkpt lat="41.91920811497973" lon="12.821000725138804"><ele>214.0</ele><time>2026-04-25T14:56:44.001Z</time></trkpt><trkpt lat="41.919207554704926" lon="12.821122928285135"><ele>214.0</ele><time>2026-04-25T14:56:47.001Z</time></trkpt><trkpt lat="41.91920698897783" lon="12.821218975600388"><ele>213.99999999999997</ele><time>2026-04-25T14:56:50.001Z</time></trkpt><trkpt lat="41.91921140800512" lon="12.821332637071835"><ele>214.0</ele><time>2026-04-25T14:56:53.001Z</time></trkpt><trkpt lat="41.91924528073824" lon="12.821432902327851"><ele>217.16666666666666</ele><time>2026-04-25T14:56:56.001Z</time></trkpt><trkpt lat="41.9192653776694" lon="12.82154833403035"><ele>220.33333333333331</ele><time>2026-04-25T14:57:00.001Z</time></trkpt><trkpt lat="41.91927485237755" lon="12.821643635796999"><ele>223.5</ele><time>2026-04-25T14:57:02.001Z</time></trkpt><trkpt lat="41.91930022306162" lon="12.821775043006099"><ele>226.66666666666669</ele><time>2026-04-25T14:57:04.001Z</time></trkpt><trkpt lat="41.91931441059964" lon="12.821896743463448"><ele>229.83333333333334</ele><time>2026-04-25T14:57:06.001Z</time></trkpt><trkpt lat="41.91932290729341" lon="12.822010992430837"><ele>233.0</ele><time>2026-04-25T14:57:08.001Z</time></trkpt><trkpt lat="41.91936148126791" lon="12.822113091912522"><ele>233.0</ele><time>2026-04-25T14:57:10.001Z</time></trkpt><trkpt lat="41.919380422309374" lon="12.822231639911639"><ele>233.0</ele><time>2026-04-25T14:57:12.001Z</time></trkpt><trkpt lat="41.919417736191676" lon="12.822304549839446"><ele>233.0</ele><time>2026-04-25T14:57:14.001Z</time></trkpt><trkpt lat="41.91947891141053" lon="12.822384607089887"><ele>233.0</ele><time>2026-04-25T14:57:16.001Z</time></trkpt><trkpt lat="41.91951508523504" lon="12.822459847340363"><ele>233.0</ele><time>2026-04-25T14:57:18.001Z</time></trkpt><trkpt lat="41.919541811410355" lon="12.822548051862096"><ele>233.0</ele><time>2026-04-25T14:57:20.001Z</time></trkpt><trkpt lat="41.91957515416571" lon="12.822620882397285"><ele>233.0</ele><time>2026-04-25T14:57:22.001Z</time></trkpt><trkpt lat="41.919586333062796" lon="12.82275155170233"><ele>232.71428571428572</ele><time>2026-04-25T14:57:24.001Z</time></trkpt><trkpt lat="41.91959491711852" lon="12.822849860328741"><ele>232.42857142857142</ele><time>2026-04-25T14:57:26.001Z</time></trkpt><trkpt lat="41.91961441384218" lon="12.822958582903851"><ele>232.14285714285714</ele><time>2026-04-25T14:57:28.001Z</time></trkpt><trkpt lat="41.91965555716598" lon="12.823054533149264"><ele>231.85714285714286</ele><time>2026-04-25T14:57:30.001Z</time></trkpt><trkpt lat="41.91966843804258" lon="12.823148683125446"><ele>231.57142857142856</ele><time>2026-04-25T14:57:32.001Z</time></trkpt><trkpt lat="41.91967150967942" lon="12.823247336221614"><ele>231.28571428571428</ele><time>2026-04-25T14:57:34.001Z</time></trkpt><trkpt lat="41.91969080438888" lon="12.823330269614786"><ele>231.0</ele><time>2026-04-25T14:57:36.001Z</time></trkpt><trkpt lat="41.9197307901557" lon="12.823404455161246"><ele>230.20000000000002</ele><time>2026-04-25T14:57:38.001Z</time></trkpt><trkpt lat="41.919753011837734" lon="12.823539176537476"><ele>229.40000000000003</ele><time>2026-04-25T14:57:40.001Z</time></trkpt><trkpt lat="41.91976889422545" lon="12.823666715894992"><ele>228.6</ele><time>2026-04-25T14:57:42.001Z</time></trkpt><trkpt lat="41.91978469279951" lon="12.823785120103707"><ele>227.8</ele><time>2026-04-25T14:57:44.001Z</time></trkpt><trkpt lat="41.919820399021816" lon="12.823929318656344"><ele>227.0</ele><time>2026-04-25T14:57:46.001Z</time></trkpt><trkpt lat="41.919845418564314" lon="12.82404159439115"><ele>227.00000000000003</ele><time>2026-04-25T14:57:48.001Z</time></trkpt><trkpt lat="41.91986066345096" lon="12.824162933224757"><ele>227.0</ele><time>2026-04-25T14:57:50.001Z</time></trkpt><trkpt lat="41.91989797015388" lon="12.824286232226758"><ele>227.0</ele><time>2026-04-25T14:57:53.001Z</time></trkpt><trkpt lat="41.91993132746821" lon="12.82437300753158"><ele>227.0</ele><time>2026-04-25T14:57:55.001Z</time></trkpt><trkpt lat="41.919987755631915" lon="12.824420355884056"><ele>227.00000000000003</ele><time>2026-04-25T14:57:57.001Z</time></trkpt><trkpt lat="41.92007251097058" lon="12.824448218309806"><ele>227.0</ele><time>2026-04-25T14:57:59.001Z</time></trkpt><trkpt lat="41.92013574660116" lon="12.824503908157514"><ele>228.33333333333334</ele><time>2026-04-25T14:58:01.001Z</time></trkpt><trkpt lat="41.92019053627944" lon="12.82456323171773"><ele>229.66666666666669</ele><time>2026-04-25T14:58:03.001Z</time></trkpt><trkpt lat="41.920247411231976" lon="12.8246035494697"><ele>231.0</ele><time>2026-04-25T14:58:05.001Z</time></trkpt><trkpt lat="41.92030003529486" lon="12.824696545516744"><ele>232.33333333333331</ele><time>2026-04-25T14:58:17.001Z</time></trkpt><trkpt lat="41.920333597128035" lon="12.824790479073647"><ele>233.66666666666666</ele><time>2026-04-25T14:58:20.001Z</time></trkpt><trkpt lat="41.92039885059634" lon="12.824771613224591"><ele>235.0</ele><time>2026-04-25T14:58:24.001Z</time></trkpt><trkpt lat="41.92033111158242" lon="12.824697265141994"><ele>235.0</ele><time>2026-04-25T14:58:27.001Z</time></trkpt><trkpt lat="41.92025537494694" lon="12.824642044524737"><ele>234.99999999999997</ele><time>2026-04-25T14:58:30.001Z</time></trkpt><trkpt lat="41.920208665614496" lon="12.82458432486733"><ele>235.0</ele><time>2026-04-25T14:58:32.001Z</time></trkpt><trkpt lat="41.92015113230435" lon="12.824537510353531"><ele>235.0</ele><time>2026-04-25T14:58:34.001Z</time></trkpt><trkpt lat="41.920088486369984" lon="12.824488035093703"><ele>234.99999999999997</ele><time>2026-04-25T14:58:37.001Z</time></trkpt><trkpt lat="41.92002402842672" lon="12.82443705061633"><ele>235.0</ele><time>2026-04-25T14:58:40.001Z</time></trkpt><trkpt lat="41.91995173011024" lon="12.824409950467519"><ele>235.0</ele><time>2026-04-25T14:58:43.001Z</time></trkpt><trkpt lat="41.91990013430638" lon="12.824358577716263"><ele>234.99999999999997</ele><time>2026-04-25T14:58:46.001Z</time></trkpt><trkpt lat="41.91986852216167" lon="12.824282827874862"><ele>235.0</ele><time>2026-04-25T14:58:49.001Z</time></trkpt><trkpt lat="41.91993590162156" lon="12.824378551004438"><ele>235.0</ele><time>2026-04-25T15:00:20Z</time></trkpt><trkpt lat="41.92002641556515" lon="12.824421670691072"><ele>235.0</ele><time>2026-04-25T15:00:23Z</time></trkpt><trkpt lat="41.920091923443714" lon="12.824487872274968"><ele>234.99999999999997</ele><time>2026-04-25T15:00:26Z</time></trkpt><trkpt lat="41.92016988280164" lon="12.824570552676144"><ele>235.0</ele><time>2026-04-25T15:00:28Z</time></trkpt><trkpt lat="41.92025479092287" lon="12.824636878246235"><ele>234.99999999999997</ele><time>2026-04-25T15:00:31Z</time></trkpt><trkpt lat="41.92030301854519" lon="12.82470398291919"><ele>235.0</ele><time>2026-04-25T15:00:33Z</time></trkpt><trkpt lat="41.92034777821705" lon="12.82478208309049"><ele>235.0</ele><time>2026-04-25T15:00:35Z</time></trkpt><trkpt lat="41.92039366235888" lon="12.824848735870699"><ele>235.0</ele><time>2026-04-25T15:00:37Z</time></trkpt><trkpt lat="41.92044156143903" lon="12.82493224364339"><ele>234.99999999999997</ele><time>2026-04-25T15:00:39Z</time></trkpt><trkpt lat="41.92049944928353" lon="12.825023757136641"><ele>235.0</ele><time>2026-04-25T15:00:42Z</time></trkpt><trkpt lat="41.92052987984275" lon="12.825116358247767"><ele>234.66666666666666</ele><time>2026-04-25T15:00:44Z</time></trkpt><trkpt lat="41.920560931965674" lon="12.825211035040766"><ele>234.33333333333331</ele><time>2026-04-25T15:00:46.001Z</time></trkpt><trkpt lat="41.92059724258019" lon="12.825307185421194"><ele>234.0</ele><time>2026-04-25T15:00:48.001Z</time></trkpt><trkpt lat="41.92063189818182" lon="12.825393018446539"><ele>233.66666666666669</ele><time>2026-04-25T15:00:50.001Z</time></trkpt><trkpt lat="41.92066906650094" lon="12.825478503785046"><ele>233.33333333333334</ele><time>2026-04-25T15:00:52.001Z</time></trkpt><trkpt lat="41.9206948447245" lon="12.825566897439138"><ele>233.0</ele><time>2026-04-25T15:00:54.001Z</time></trkpt><trkpt lat="41.920744750324474" lon="12.825646240066863"><ele>233.0</ele><time>2026-04-25T15:00:56.001Z</time></trkpt><trkpt lat="41.92078983559457" lon="12.825723983311153"><ele>233.0</ele><time>2026-04-25T15:00:58.001Z</time></trkpt><trkpt lat="41.920844538911474" lon="12.825812201422266"><ele>233.0</ele><time>2026-04-25T15:01:00.001Z</time></trkpt><trkpt lat="41.920893776635445" lon="12.82591136486147"><ele>233.0</ele><time>2026-04-25T15:01:02.001Z</time></trkpt><trkpt lat="41.920967389017875" lon="12.826021838750668"><ele>233.0</ele><time>2026-04-25T15:01:04.001Z</time></trkpt><trkpt lat="41.92104892937405" lon="12.826123397171454"><ele>236.4</ele><time>2026-04-25T15:01:06.001Z</time></trkpt><trkpt lat="41.921113899047405" lon="12.826217496535484"><ele>239.8</ele><time>2026-04-25T15:01:08.001Z</time></trkpt><trkpt lat="41.92117484862227" lon="12.82632863107542"><ele>243.2</ele><time>2026-04-25T15:01:10.001Z</time></trkpt><trkpt lat="41.92123820286399" lon="12.826433854803184"><ele>246.6</ele><time>2026-04-25T15:01:12.001Z</time></trkpt><trkpt lat="41.92131260714412" lon="12.826535095420734"><ele>250.0</ele><time>2026-04-25T15:01:14.001Z</time></trkpt><trkpt lat="41.92137043577603" lon="12.826634465563552"><ele>249.99999999999997</ele><time>2026-04-25T15:01:16.001Z</time></trkpt><trkpt lat="41.92142970160027" lon="12.826728178973273"><ele>250.0</ele><time>2026-04-25T15:01:18.001Z</time></trkpt><trkpt lat="41.92148277898452" lon="12.82684649785951"><ele>250.0</ele><time>2026-04-25T15:01:20.001Z</time></trkpt><trkpt lat="41.92153818213386" lon="12.826941116966022"><ele>250.0</ele><time>2026-04-25T15:01:22.001Z</time></trkpt><trkpt lat="41.92158422348081" lon="12.827037598216736"><ele>249.99999999999997</ele><time>2026-04-25T15:01:24.001Z</time></trkpt><trkpt lat="41.921628017330555" lon="12.827110156552097"><ele>250.0</ele><time>2026-04-25T15:01:26.001Z</time></trkpt><trkpt lat="41.92166711630725" lon="12.827194736560413"><ele>250.0</ele><time>2026-04-25T15:01:28.001Z</time></trkpt><trkpt lat="41.921710552037894" lon="12.827275606832231"><ele>250.0</ele><time>2026-04-25T15:01:30.001Z</time></trkpt><trkpt lat="41.92174379370269" lon="12.827370845125516"><ele>250.0</ele><time>2026-04-25T15:01:32.001Z</time></trkpt><trkpt lat="41.92178342598957" lon="12.827438881102049"><ele>250.0</ele><time>2026-04-25T15:01:34.001Z</time></trkpt><trkpt lat="41.92183687061297" lon="12.827528730767838"><ele>250.0</ele><time>2026-04-25T15:01:37.001Z</time></trkpt><trkpt lat="41.921772208635254" lon="12.827551105486059"><ele>250.0</ele><time>2026-04-25T15:02:10Z</time></trkpt><trkpt lat="41.92173394505851" lon="12.827474078004112"><ele>250.0</ele><time>2026-04-25T15:02:13Z</time></trkpt><trkpt lat="41.921701691315675" lon="12.827394062133475"><ele>249.99999999999997</ele><time>2026-04-25T15:02:16Z</time></trkpt><trkpt lat="41.92167497800836" lon="12.827295251925477"><ele>250.0</ele><time>2026-04-25T15:02:19Z</time></trkpt><trkpt lat="41.9216600263915" lon="12.827197800046788"><ele>250.0</ele><time>2026-04-25T15:02:21Z</time></trkpt><trkpt lat="41.92162574511327" lon="12.82711726832017"><ele>250.0</ele><time>2026-04-25T15:02:24Z</time></trkpt><trkpt lat="41.92157730120961" lon="12.827042180944234"><ele>249.99999999999997</ele><time>2026-04-25T15:02:27Z</time></trkpt><trkpt lat="41.92152799160544" lon="12.82695235773476"><ele>250.0</ele><time>2026-04-25T15:02:30Z</time></trkpt><trkpt lat="41.92147629445241" lon="12.826858877752697"><ele>249.99999999999997</ele><time>2026-04-25T15:02:33Z</time></trkpt><trkpt lat="41.921420050099336" lon="12.826756554662778"><ele>250.0</ele><time>2026-04-25T15:02:36Z</time></trkpt><trkpt lat="41.92137640522608" lon="12.826680126226282"><ele>250.0</ele><time>2026-04-25T15:02:38Z</time></trkpt><trkpt lat="41.921335113791656" lon="12.826598226355841"><ele>250.0</ele><time>2026-04-25T15:02:40Z</time></trkpt><trkpt lat="41.921282004619655" lon="12.826509511405607"><ele>249.99999999999997</ele><time>2026-04-25T15:02:42Z</time></trkpt><trkpt lat="41.92121750401049" lon="12.826417567478158"><ele>250.0</ele><time>2026-04-25T15:02:44Z</time></trkpt><trkpt lat="41.92115900351802" lon="12.826329312543107"><ele>250.0</ele><time>2026-04-25T15:02:46Z</time></trkpt><trkpt lat="41.921094043025654" lon="12.826225352134502"><ele>250.0</ele><time>2026-04-25T15:02:48Z</time></trkpt><trkpt lat="41.921035993832696" lon="12.826122307851332"><ele>250.0</ele><time>2026-04-25T15:02:50Z</time></trkpt><trkpt lat="41.92099385120418" lon="12.826053769014802"><ele>250.0</ele><time>2026-04-25T15:02:51Z</time></trkpt><trkpt lat="41.92091788929574" lon="12.82593489356324"><ele>250.0</ele><time>2026-04-25T15:02:53Z</time></trkpt><trkpt lat="41.920855103418" lon="12.825831520330102"><ele>247.16666666666666</ele><time>2026-04-25T15:02:55Z</time></trkpt><trkpt lat="41.920799654987626" lon="12.825734317352403"><ele>244.33333333333331</ele><time>2026-04-25T15:02:57Z</time></trkpt><trkpt lat="41.92074547095496" lon="12.825642778740065"><ele>241.5</ele><time>2026-04-25T15:02:59Z</time></trkpt><trkpt lat="41.92069464212148" lon="12.8255670628949"><ele>238.66666666666669</ele><time>2026-04-25T15:03:01Z</time></trkpt><trkpt lat="41.92064198087989" lon="12.825479516550406"><ele>235.83333333333334</ele><time>2026-04-25T15:03:03Z</time></trkpt><trkpt lat="41.92060177011424" lon="12.825368236342642"><ele>233.0</ele><time>2026-04-25T15:03:05Z</time></trkpt><trkpt lat="41.920543669061416" lon="12.825252094646904"><ele>233.33333333333334</ele><time>2026-04-25T15:03:07Z</time></trkpt><trkpt lat="41.92050692673546" lon="12.825144169865071"><ele>233.66666666666669</ele><time>2026-04-25T15:03:09Z</time></trkpt><trkpt lat="41.92048401933926" lon="12.825042628999876"><ele>234.0</ele><time>2026-04-25T15:03:11Z</time></trkpt><trkpt lat="41.92043090013742" lon="12.8249664205709"><ele>234.33333333333331</ele><time>2026-04-25T15:03:13Z</time></trkpt><trkpt lat="41.92038255735228" lon="12.824874215490869"><ele>234.66666666666666</ele><time>2026-04-25T15:03:15Z</time></trkpt><trkpt lat="41.92033859367644" lon="12.82476519542571"><ele>235.0</ele><time>2026-04-25T15:03:17Z</time></trkpt><trkpt lat="41.92028693696665" lon="12.824665721559342"><ele>234.99999999999997</ele><time>2026-04-25T15:03:19Z</time></trkpt><trkpt lat="41.920232454070444" lon="12.824578338795396"><ele>235.0</ele><time>2026-04-25T15:03:21Z</time></trkpt><trkpt lat="41.920160541424046" lon="12.824522976373425"><ele>235.0</ele><time>2026-04-25T15:03:23Z</time></trkpt><trkpt lat="41.92008858330927" lon="12.824467072268993"><ele>235.0</ele><time>2026-04-25T15:03:25Z</time></trkpt><trkpt lat="41.920000738707444" lon="12.824421988559811"><ele>234.99999999999997</ele><time>2026-04-25T15:03:29.001Z</time></trkpt><trkpt lat="41.919934652353625" lon="12.82439160655885"><ele>235.0</ele><time>2026-04-25T15:03:35.001Z</time></trkpt><trkpt lat="41.91989204950998" lon="12.824327760470048"><ele>233.66666666666666</ele><time>2026-04-25T15:03:38.001Z</time></trkpt><trkpt lat="41.919849228364015" lon="12.824259037030998"><ele>232.33333333333331</ele><time>2026-04-25T15:03:41.001Z</time></trkpt><trkpt lat="41.91984499828942" lon="12.82414495409426"><ele>231.0</ele><time>2026-04-25T15:03:43.001Z</time></trkpt><trkpt lat="41.9198365080236" lon="12.824016085732758"><ele>229.66666666666669</ele><time>2026-04-25T15:03:45Z</time></trkpt><trkpt lat="41.91981962636547" lon="12.82388779335523"><ele>228.33333333333334</ele><time>2026-04-25T15:03:47Z</time></trkpt><trkpt lat="41.91977231340704" lon="12.823763496884972"><ele>227.0</ele><time>2026-04-25T15:03:49Z</time></trkpt><trkpt lat="41.91974053182305" lon="12.823617489515367"><ele>227.00000000000003</ele><time>2026-04-25T15:03:51Z</time></trkpt><trkpt lat="41.919735469063326" lon="12.823530820763342"><ele>227.0</ele><time>2026-04-25T15:03:52Z</time></trkpt><trkpt lat="41.919719659186846" lon="12.823446695535289"><ele>227.0</ele><time>2026-04-25T15:03:53Z</time></trkpt><trkpt lat="41.91969806682291" lon="12.823322761412125"><ele>227.0</ele><time>2026-04-25T15:03:55Z</time></trkpt><trkpt lat="41.919658473552516" lon="12.82324160607153"><ele>227.00000000000003</ele><time>2026-04-25T15:03:57Z</time></trkpt><trkpt lat="41.91964502577571" lon="12.823141742190767"><ele>227.0</ele><time>2026-04-25T15:03:59Z</time></trkpt><trkpt lat="41.91963247429849" lon="12.823008853613647"><ele>227.8</ele><time>2026-04-25T15:04:01Z</time></trkpt><trkpt lat="41.91958419082336" lon="12.822893283671808"><ele>228.6</ele><time>2026-04-25T15:04:03Z</time></trkpt><trkpt lat="41.919552954679304" lon="12.822731040883875"><ele>229.40000000000003</ele><time>2026-04-25T15:04:05Z</time></trkpt><trkpt lat="41.91954462952647" lon="12.822585668061581"><ele>230.20000000000002</ele><time>2026-04-25T15:04:07Z</time></trkpt><trkpt lat="41.91952123135048" lon="12.82249482618518"><ele>231.0</ele><time>2026-04-25T15:04:09Z</time></trkpt><trkpt lat="41.919471630209124" lon="12.822394023373281"><ele>231.4</ele><time>2026-04-25T15:04:11Z</time></trkpt><trkpt lat="41.91941148565289" lon="12.822291886297913"><ele>231.8</ele><time>2026-04-25T15:04:13Z</time></trkpt><trkpt lat="41.9193547857378" lon="12.822207086860502"><ele>232.20000000000002</ele><time>2026-04-25T15:04:15Z</time></trkpt><trkpt lat="41.919326226761626" lon="12.822072609978449"><ele>232.60000000000002</ele><time>2026-04-25T15:04:17Z</time></trkpt><trkpt lat="41.91931283487897" lon="12.821925541881566"><ele>233.0</ele><time>2026-04-25T15:04:19Z</time></trkpt><trkpt lat="41.919302052775734" lon="12.821793436672857"><ele>233.2</ele><time>2026-04-25T15:04:21Z</time></trkpt><trkpt lat="41.9192770716961" lon="12.821647349174738"><ele>233.4</ele><time>2026-04-25T15:04:23Z</time></trkpt><trkpt lat="41.9192415400716" lon="12.8215170400284"><ele>233.59999999999997</ele><time>2026-04-25T15:04:25Z</time></trkpt><trkpt lat="41.91921929299055" lon="12.821366932867994"><ele>233.79999999999998</ele><time>2026-04-25T15:04:27Z</time></trkpt><trkpt lat="41.91918583650642" lon="12.821226959667111"><ele>234.0</ele><time>2026-04-25T15:04:29Z</time></trkpt><trkpt lat="41.91915980597813" lon="12.821119350928806"><ele>233.2</ele><time>2026-04-25T15:04:31Z</time></trkpt><trkpt lat="41.91917397495939" lon="12.820989448935405"><ele>232.39999999999998</ele><time>2026-04-25T15:04:33Z</time></trkpt><trkpt lat="41.91917901864957" lon="12.820864412138157"><ele>231.6</ele><time>2026-04-25T15:04:35Z</time></trkpt><trkpt lat="41.91920516861374" lon="12.820733366267644"><ele>230.8</ele><time>2026-04-25T15:04:37Z</time></trkpt><trkpt lat="41.91922696524508" lon="12.820620105666249"><ele>230.0</ele><time>2026-04-25T15:04:39Z</time></trkpt><trkpt lat="41.91924502761061" lon="12.820490910000098"><ele>230.0</ele><time>2026-04-25T15:04:41Z</time></trkpt><trkpt lat="41.919234930429084" lon="12.820357178749129"><ele>230.0</ele><time>2026-04-25T15:04:43Z</time></trkpt><trkpt lat="41.91921570413821" lon="12.820209823355663"><ele>230.0</ele><time>2026-04-25T15:04:45Z</time></trkpt><trkpt lat="41.91920206177195" lon="12.820032901420513"><ele>230.0</ele><time>2026-04-25T15:04:47Z</time></trkpt><trkpt lat="41.91923261766289" lon="12.819938449244454"><ele>230.0</ele><time>2026-04-25T15:04:48Z</time></trkpt><trkpt lat="41.919249453825635" lon="12.81981856777476"><ele>229.6</ele><time>2026-04-25T15:04:49Z</time></trkpt><trkpt lat="41.91926393494829" lon="12.819714443218066"><ele>229.2</ele><time>2026-04-25T15:04:50Z</time></trkpt><trkpt lat="41.919280453697894" lon="12.81954752970184"><ele>228.8</ele><time>2026-04-25T15:04:52Z</time></trkpt><trkpt lat="41.91929767481712" lon="12.819402767840026"><ele>228.4</ele><time>2026-04-25T15:04:54Z</time></trkpt><trkpt lat="41.91934184817395" lon="12.819278353704268"><ele>228.0</ele><time>2026-04-25T15:04:56Z</time></trkpt><trkpt lat="41.919337870309015" lon="12.819190138088526"><ele>227.83333333333334</ele><time>2026-04-25T15:04:57Z</time></trkpt><trkpt lat="41.91933385463126" lon="12.819086174576503"><ele>227.66666666666669</ele><time>2026-04-25T15:04:58Z</time></trkpt><trkpt lat="41.919339884063696" lon="12.81898357496746"><ele>227.5</ele><time>2026-04-25T15:04:59Z</time></trkpt><trkpt lat="41.919361247430885" lon="12.818891977393582"><ele>227.33333333333334</ele><time>2026-04-25T15:05:00Z</time></trkpt><trkpt lat="41.91938862928123" lon="12.81871760410951"><ele>227.16666666666669</ele><time>2026-04-25T15:05:02Z</time></trkpt><trkpt lat="41.919397631328444" lon="12.818623339207369"><ele>227.0</ele><time>2026-04-25T15:05:03Z</time></trkpt><trkpt lat="41.919403187221846" lon="12.818527324874527"><ele>226.50000000000003</ele><time>2026-04-25T15:05:04Z</time></trkpt><trkpt lat="41.91941347011764" lon="12.818432752131114"><ele>226.0</ele><time>2026-04-25T15:05:05Z</time></trkpt><trkpt lat="41.919421697802896" lon="12.818334287085012"><ele>225.5</ele><time>2026-04-25T15:05:06Z</time></trkpt><trkpt lat="41.91943191549759" lon="12.818240488691679"><ele>225.0</ele><time>2026-04-25T15:05:07Z</time></trkpt><trkpt lat="41.91944913012999" lon="12.818135108703387"><ele>224.50000000000003</ele><time>2026-04-25T15:05:08Z</time></trkpt><trkpt lat="41.91946992060453" lon="12.818049078971582"><ele>224.0</ele><time>2026-04-25T15:05:09Z</time></trkpt><trkpt lat="41.91947263428973" lon="12.817891543022679"><ele>224.0</ele><time>2026-04-25T15:05:11Z</time></trkpt><trkpt lat="41.919486123834524" lon="12.817799365328154"><ele>224.0</ele><time>2026-04-25T15:05:13Z</time></trkpt><trkpt lat="41.91946898742088" lon="12.81770165601539"><ele>224.0</ele><time>2026-04-25T15:05:19Z</time></trkpt><trkpt lat="41.91945282309001" lon="12.817612237929133"><ele>224.0</ele><time>2026-04-25T15:05:25Z</time></trkpt><trkpt lat="41.919478994717615" lon="12.817279001152071"><ele>224.0</ele><time>2026-04-25T15:05:36Z</time></trkpt><trkpt lat="41.91948136633497" lon="12.81716368817094"><ele>223.99999999999997</ele><time>2026-04-25T15:05:38Z</time></trkpt><trkpt lat="41.91948587581221" lon="12.817048191210851"><ele>223.99999999999997</ele><time>2026-04-25T15:05:40Z</time></trkpt><trkpt lat="41.919549690180105" lon="12.816944686992652"><ele>224.0</ele><time>2026-04-25T15:05:42Z</time></trkpt><trkpt lat="41.9195964210637" lon="12.8168326213044"><ele>224.0</ele><time>2026-04-25T15:05:44Z</time></trkpt><trkpt lat="41.919595996923654" lon="12.816712723845715"><ele>223.2</ele><time>2026-04-25T15:05:46Z</time></trkpt><trkpt lat="41.919690697667754" lon="12.816588306866702"><ele>222.39999999999998</ele><time>2026-04-25T15:05:48Z</time></trkpt><trkpt lat="41.91976829985055" lon="12.816509713530202"><ele>221.6</ele><time>2026-04-25T15:05:50Z</time></trkpt><trkpt lat="41.91980371250074" lon="12.816414099259042"><ele>220.8</ele><time>2026-04-25T15:05:52Z</time></trkpt><trkpt lat="41.91981653170014" lon="12.816284704763582"><ele>220.0</ele><time>2026-04-25T15:05:54Z</time></trkpt><trkpt lat="41.91983072290855" lon="12.816190912732662"><ele>220.0</ele><time>2026-04-25T15:05:55Z</time></trkpt><trkpt lat="41.91987728886339" lon="12.816037510734843"><ele>220.0</ele><time>2026-04-25T15:05:57Z</time></trkpt><trkpt lat="41.919924992756606" lon="12.815899704081316"><ele>220.0</ele><time>2026-04-25T15:05:59Z</time></trkpt><trkpt lat="41.91994130309126" lon="12.815776283628937"><ele>220.0</ele><time>2026-04-25T15:06:01Z</time></trkpt><trkpt lat="41.919951481433536" lon="12.815639283783891"><ele>220.0</ele><time>2026-04-25T15:06:03Z</time></trkpt><trkpt lat="41.91996992543748" lon="12.815497411567284"><ele>219.6</ele><time>2026-04-25T15:06:05Z</time></trkpt><trkpt lat="41.919965488248174" lon="12.815340620844593"><ele>219.2</ele><time>2026-04-25T15:06:07Z</time></trkpt><trkpt lat="41.919972884147086" lon="12.815167761572999"><ele>218.8</ele><time>2026-04-25T15:06:09Z</time></trkpt><trkpt lat="41.92000070049316" lon="12.815078685378342"><ele>218.4</ele><time>2026-04-25T15:06:10Z</time></trkpt><trkpt lat="41.92003611165998" lon="12.814979582804954"><ele>218.0</ele><time>2026-04-25T15:06:12Z</time></trkpt><trkpt lat="41.92008947720069" lon="12.814866366073083"><ele>219.60000000000002</ele><time>2026-04-25T15:06:16Z</time></trkpt><trkpt lat="41.92013989822996" lon="12.814761473846934"><ele>221.20000000000002</ele><time>2026-04-25T15:06:18Z</time></trkpt><trkpt lat="41.92020619653041" lon="12.81462338814662"><ele>222.8</ele><time>2026-04-25T15:06:20Z</time></trkpt><trkpt lat="41.920252748363005" lon="12.814559621155492"><ele>224.4</ele><time>2026-04-25T15:06:21Z</time></trkpt><trkpt lat="41.920328665061525" lon="12.814406822073806"><ele>226.0</ele><time>2026-04-25T15:06:23Z</time></trkpt><trkpt lat="41.920371815370835" lon="12.814322907877026"><ele>225.57142857142858</ele><time>2026-04-25T15:06:24Z</time></trkpt><trkpt lat="41.920409771005225" lon="12.814239042769339"><ele>225.14285714285714</ele><time>2026-04-25T15:06:25Z</time></trkpt><trkpt lat="41.92043324444807" lon="12.814149194125655"><ele>224.71428571428572</ele><time>2026-04-25T15:06:26Z</time></trkpt><trkpt lat="41.9204507671766" lon="12.814063493223998"><ele>224.28571428571428</ele><time>2026-04-25T15:06:27Z</time></trkpt><trkpt lat="41.92047227801746" lon="12.813970648897683"><ele>223.85714285714283</ele><time>2026-04-25T15:06:28Z</time></trkpt><trkpt lat="41.92049844292441" lon="12.813891341199625"><ele>223.42857142857142</ele><time>2026-04-25T15:06:29Z</time></trkpt><trkpt lat="41.92052988854715" lon="12.81381114461871"><ele>223.0</ele><time>2026-04-25T15:06:30Z</time></trkpt><trkpt lat="41.92060779173681" lon="12.8137303201917"><ele>222.99999999999997</ele><time>2026-04-25T15:06:32Z</time></trkpt><trkpt lat="41.92072924077418" lon="12.813689734206976"><ele>223.0</ele><time>2026-04-25T15:06:34Z</time></trkpt><trkpt lat="41.92078782922668" lon="12.813641879515462"><ele>223.0</ele><time>2026-04-25T15:06:35Z</time></trkpt><trkpt lat="41.920843047746295" lon="12.813581077987376"><ele>223.0</ele><time>2026-04-25T15:06:36Z</time></trkpt><trkpt lat="41.92089419704383" lon="12.813509353691444"><ele>222.99999999999997</ele><time>2026-04-25T15:06:37Z</time></trkpt><trkpt lat="41.920945288700835" lon="12.813449945547386"><ele>223.0</ele><time>2026-04-25T15:06:38Z</time></trkpt><trkpt lat="41.92100442288838" lon="12.813373095889737"><ele>222.83333333333331</ele><time>2026-04-25T15:06:39Z</time></trkpt><trkpt lat="41.92106887744018" lon="12.813299148697459"><ele>222.66666666666666</ele><time>2026-04-25T15:06:40Z</time></trkpt><trkpt lat="41.921118716232655" lon="12.813238884617626"><ele>222.5</ele><time>2026-04-25T15:06:41Z</time></trkpt><trkpt lat="41.921179929087714" lon="12.813184610010978"><ele>222.33333333333331</ele><time>2026-04-25T15:06:42Z</time></trkpt><trkpt lat="41.92125356535131" lon="12.813129738589524"><ele>222.16666666666666</ele><time>2026-04-25T15:06:43Z</time></trkpt><trkpt lat="41.92135726270963" lon="12.8130635863124"><ele>222.0</ele><time>2026-04-25T15:06:44Z</time></trkpt><trkpt lat="41.92146908135362" lon="12.812990061976723"><ele>222.0</ele><time>2026-04-25T15:06:45Z</time></trkpt><trkpt lat="41.921577817424826" lon="12.812917932082424"><ele>222.0</ele><time>2026-04-25T15:06:46Z</time></trkpt><trkpt lat="41.92168115699529" lon="12.812818403555566"><ele>222.0</ele><time>2026-04-25T15:06:47Z</time></trkpt><trkpt lat="41.92178787186313" lon="12.812706500849492"><ele>222.0</ele><time>2026-04-25T15:06:48Z</time></trkpt><trkpt lat="41.92188642750274" lon="12.812605614233709"><ele>223.0</ele><time>2026-04-25T15:06:49Z</time></trkpt><trkpt lat="41.92197177373622" lon="12.812526687718048"><ele>224.0</ele><time>2026-04-25T15:06:50Z</time></trkpt><trkpt lat="41.922043422641536" lon="12.812442435384845"><ele>225.0</ele><time>2026-04-25T15:06:51Z</time></trkpt><trkpt lat="41.9221061208259" lon="12.812357450312453"><ele>226.0</ele><time>2026-04-25T15:06:52Z</time></trkpt><trkpt lat="41.922159475562864" lon="12.812252986781372"><ele>227.0</ele><time>2026-04-25T15:06:54Z</time></trkpt><trkpt lat="41.92216402388552" lon="12.812154683195544"><ele>227.0</ele><time>2026-04-25T15:06:57Z</time></trkpt><trkpt lat="41.922209229671665" lon="12.812040153667626"><ele>227.0</ele><time>2026-04-25T15:07:00Z</time></trkpt><trkpt lat="41.92226558776837" lon="12.811959038463806"><ele>227.0</ele><time>2026-04-25T15:07:02Z</time></trkpt><trkpt lat="41.922319825323484" lon="12.811859977614857"><ele>227.0</ele><time>2026-04-25T15:07:04Z</time></trkpt><trkpt lat="41.92239831201117" lon="12.81175213765933"><ele>227.0</ele><time>2026-04-25T15:07:06Z</time></trkpt><trkpt lat="41.92246849174202" lon="12.811662240789385"><ele>228.2</ele><time>2026-04-25T15:07:08Z</time></trkpt><trkpt lat="41.92258209381224" lon="12.81157007779417"><ele>229.39999999999998</ele><time>2026-04-25T15:07:10Z</time></trkpt><trkpt lat="41.92264246809403" lon="12.811523138021705"><ele>230.60000000000002</ele><time>2026-04-25T15:07:11Z</time></trkpt><trkpt lat="41.92274066055827" lon="12.811429116793436"><ele>231.8</ele><time>2026-04-25T15:07:13Z</time></trkpt><trkpt lat="41.9228353359253" lon="12.811344644832783"><ele>233.0</ele><time>2026-04-25T15:07:15Z</time></trkpt><trkpt lat="41.92293299366606" lon="12.811282525689238"><ele>233.0</ele><time>2026-04-25T15:07:17Z</time></trkpt><trkpt lat="41.92298646947005" lon="12.811237753935016"><ele>233.0</ele><time>2026-04-25T15:07:18Z</time></trkpt><trkpt lat="41.92306921499156" lon="12.81113382198584"><ele>233.0</ele><time>2026-04-25T15:07:20Z</time></trkpt><trkpt lat="41.92315480274284" lon="12.81105581111836"><ele>233.0</ele><time>2026-04-25T15:07:22Z</time></trkpt><trkpt lat="41.923260610798515" lon="12.810989588470145"><ele>233.0</ele><time>2026-04-25T15:07:24Z</time></trkpt><trkpt lat="41.92335725374811" lon="12.810910729585245"><ele>234.0</ele><time>2026-04-25T15:07:26Z</time></trkpt><trkpt lat="41.92345500226999" lon="12.810834988420527"><ele>235.0</ele><time>2026-04-25T15:07:28Z</time></trkpt><trkpt lat="41.92355902351378" lon="12.810766525635877"><ele>236.0</ele><time>2026-04-25T15:07:30Z</time></trkpt><trkpt lat="41.92365709672195" lon="12.810691444156664"><ele>237.0</ele><time>2026-04-25T15:07:32Z</time></trkpt><trkpt lat="41.9237670474054" lon="12.810655278724289"><ele>237.0</ele><time>2026-04-25T15:07:34Z</time></trkpt><trkpt lat="41.92387568775788" lon="12.81060711976447"><ele>237.0</ele><time>2026-04-25T15:07:36Z</time></trkpt><trkpt lat="41.923981632056226" lon="12.810535733655938"><ele>237.0</ele><time>2026-04-25T15:07:38Z</time></trkpt><trkpt lat="41.924084454814036" lon="12.810485595219982"><ele>237.0</ele><time>2026-04-25T15:07:40Z</time></trkpt><trkpt lat="41.92415336957248" lon="12.810445660653588"><ele>237.0</ele><time>2026-04-25T15:07:41Z</time></trkpt><trkpt lat="41.92421527533537" lon="12.810412876426224"><ele>236.85714285714283</ele><time>2026-04-25T15:07:42Z</time></trkpt><trkpt lat="41.92428014843613" lon="12.810380049770329"><ele>236.71428571428572</ele><time>2026-04-25T15:07:43Z</time></trkpt><trkpt lat="41.92434284482479" lon="12.81035757682498"><ele>236.57142857142856</ele><time>2026-04-25T15:07:44Z</time></trkpt><trkpt lat="41.924407251656014" lon="12.81032321128818"><ele>236.42857142857142</ele><time>2026-04-25T15:07:45Z</time></trkpt><trkpt lat="41.924476242034025" lon="12.81027763854891"><ele>236.28571428571428</ele><time>2026-04-25T15:07:46Z</time></trkpt><trkpt lat="41.9245512917993" lon="12.810236480493943"><ele>236.14285714285714</ele><time>2026-04-25T15:07:47Z</time></trkpt><trkpt lat="41.92462557322352" lon="12.810176575986883"><ele>236.0</ele><time>2026-04-25T15:07:48Z</time></trkpt><trkpt lat="41.92470164792475" lon="12.810104159005316"><ele>236.0</ele><time>2026-04-25T15:07:49Z</time></trkpt><trkpt lat="41.92476387477921" lon="12.810028982389277"><ele>236.00000000000003</ele><time>2026-04-25T15:07:50Z</time></trkpt><trkpt lat="41.92481608869364" lon="12.809960098821039"><ele>236.00000000000003</ele><time>2026-04-25T15:07:51Z</time></trkpt><trkpt lat="41.92489727534223" lon="12.80983277167214"><ele>236.0</ele><time>2026-04-25T15:07:53Z</time></trkpt><trkpt lat="41.92495525300903" lon="12.809727979791631"><ele>236.0</ele><time>2026-04-25T15:07:55Z</time></trkpt><trkpt lat="41.92498425259887" lon="12.809639077579762"><ele>236.00000000000003</ele><time>2026-04-25T15:07:57Z</time></trkpt><trkpt lat="41.92502107332326" lon="12.80956250234129"><ele>236.0</ele><time>2026-04-25T15:08:00Z</time></trkpt><trkpt lat="41.92509834320741" lon="12.80952028133195"><ele>236.0</ele><time>2026-04-25T15:08:13Z</time></trkpt><trkpt lat="41.925196208028254" lon="12.809435641848951"><ele>236.0</ele><time>2026-04-25T15:08:15Z</time></trkpt><trkpt lat="41.92525048857447" lon="12.809381761560218"><ele>236.00000000000003</ele><time>2026-04-25T15:08:16Z</time></trkpt><trkpt lat="41.925310402937455" lon="12.80932271090131"><ele>236.0</ele><time>2026-04-25T15:08:17Z</time></trkpt><trkpt lat="41.92536029333963" lon="12.80926454322302"><ele>237.42857142857142</ele><time>2026-04-25T15:08:18Z</time></trkpt><trkpt lat="41.925422211824056" lon="12.809212969637024"><ele>238.8571428571429</ele><time>2026-04-25T15:08:19Z</time></trkpt><trkpt lat="41.92546790682184" lon="12.809152002017344"><ele>240.2857142857143</ele><time>2026-04-25T15:08:20Z</time></trkpt><trkpt lat="41.925510210318386" lon="12.809084697359845"><ele>241.71428571428572</ele><time>2026-04-25T15:08:21Z</time></trkpt><trkpt lat="41.92554612426642" lon="12.809000414233774"><ele>243.14285714285717</ele><time>2026-04-25T15:08:22Z</time></trkpt><trkpt lat="41.925583561501156" lon="12.808930678329435"><ele>244.5714285714286</ele><time>2026-04-25T15:08:23Z</time></trkpt><trkpt lat="41.92562581159994" lon="12.80885693125048"><ele>246.00000000000003</ele><time>2026-04-25T15:08:24Z</time></trkpt><trkpt lat="41.92566798748882" lon="12.808780095219591"><ele>246.0</ele><time>2026-04-25T15:08:25Z</time></trkpt><trkpt lat="41.925706471175666" lon="12.808702066605198"><ele>246.0</ele><time>2026-04-25T15:08:26Z</time></trkpt><trkpt lat="41.925741576702606" lon="12.80861026166208"><ele>246.0</ele><time>2026-04-25T15:08:27Z</time></trkpt><trkpt lat="41.925777542807566" lon="12.808539347850166"><ele>246.0</ele><time>2026-04-25T15:08:28Z</time></trkpt><trkpt lat="41.925824775494654" lon="12.80846243355768"><ele>246.0</ele><time>2026-04-25T15:08:29Z</time></trkpt><trkpt lat="41.92590466751039" lon="12.80834794178969"><ele>246.0</ele><time>2026-04-25T15:08:31Z</time></trkpt><trkpt lat="41.92600201022151" lon="12.808256612637905"><ele>246.5</ele><time>2026-04-25T15:08:33Z</time></trkpt><trkpt lat="41.926088304158405" lon="12.808197500338718"><ele>247.0</ele><time>2026-04-25T15:08:35Z</time></trkpt><trkpt lat="41.926190867688916" lon="12.808095291878685"><ele>247.5</ele><time>2026-04-25T15:08:37Z</time></trkpt><trkpt lat="41.92628037915416" lon="12.80799139631092"><ele>248.0</ele><time>2026-04-25T15:08:39Z</time></trkpt><trkpt lat="41.926366762739036" lon="12.807874384943041"><ele>248.00000000000003</ele><time>2026-04-25T15:08:41Z</time></trkpt><trkpt lat="41.926418261045626" lon="12.807825550624413"><ele>248.0</ele><time>2026-04-25T15:08:42Z</time></trkpt><trkpt lat="41.9264845509502" lon="12.80778733706614"><ele>248.0</ele><time>2026-04-25T15:08:43Z</time></trkpt><trkpt lat="41.92660072774497" lon="12.807695473499702"><ele>248.0</ele><time>2026-04-25T15:08:45Z</time></trkpt><trkpt lat="41.926664370824525" lon="12.807634619345302"><ele>248.00000000000003</ele><time>2026-04-25T15:08:46Z</time></trkpt><trkpt lat="41.92674055294834" lon="12.807579861049314"><ele>248.0</ele><time>2026-04-25T15:08:47Z</time></trkpt><trkpt lat="41.92680904875534" lon="12.807521809945994"><ele>248.00000000000003</ele><time>2026-04-25T15:08:48Z</time></trkpt><trkpt lat="41.92687620151815" lon="12.807463765648139"><ele>248.0</ele><time>2026-04-25T15:08:49Z</time></trkpt><trkpt lat="41.9269486056583" lon="12.807405939616512"><ele>248.0</ele><time>2026-04-25T15:08:50Z</time></trkpt><trkpt lat="41.92700389074683" lon="12.807340527901315"><ele>248.0</ele><time>2026-04-25T15:08:51Z</time></trkpt><trkpt lat="41.92704722119264" lon="12.807258692632782"><ele>248.00000000000003</ele><time>2026-04-25T15:08:52Z</time></trkpt><trkpt lat="41.92709086439198" lon="12.807174588582594"><ele>248.0</ele><time>2026-04-25T15:08:53Z</time></trkpt><trkpt lat="41.92714213710893" lon="12.807100021002157"><ele>248.0</ele><time>2026-04-25T15:08:54Z</time></trkpt><trkpt lat="41.9271829538611" lon="12.807021972825895"><ele>248.00000000000003</ele><time>2026-04-25T15:08:55Z</time></trkpt><trkpt lat="41.92721618135964" lon="12.806925379600647"><ele>248.0</ele><time>2026-04-25T15:08:56Z</time></trkpt><trkpt lat="41.92724989370307" lon="12.806837469640225"><ele>248.0</ele><time>2026-04-25T15:08:57Z</time></trkpt><trkpt lat="41.927273579274775" lon="12.806744457165626"><ele>248.00000000000003</ele><time>2026-04-25T15:08:58Z</time></trkpt><trkpt lat="41.92729801356047" lon="12.806653617944557"><ele>248.0</ele><time>2026-04-25T15:08:59Z</time></trkpt><trkpt lat="41.927327512171765" lon="12.806556106266548"><ele>248.0</ele><time>2026-04-25T15:09:00Z</time></trkpt><trkpt lat="41.92734723476335" lon="12.806464514276085"><ele>247.33333333333334</ele><time>2026-04-25T15:09:01Z</time></trkpt><trkpt lat="41.927368049600204" lon="12.806374449476037"><ele>246.66666666666669</ele><time>2026-04-25T15:09:02Z</time></trkpt><trkpt lat="41.927397562063874" lon="12.806284112200744"><ele>246.0</ele><time>2026-04-25T15:09:03Z</time></trkpt><trkpt lat="41.92743592340174" lon="12.80619724328313"><ele>245.33333333333331</ele><time>2026-04-25T15:09:04Z</time></trkpt><trkpt lat="41.927480681779684" lon="12.80611227496047"><ele>244.66666666666666</ele><time>2026-04-25T15:09:05Z</time></trkpt><trkpt lat="41.927536095821935" lon="12.806027441831683"><ele>244.0</ele><time>2026-04-25T15:09:06Z</time></trkpt><trkpt lat="41.92759607629784" lon="12.805951393353773"><ele>243.99999999999997</ele><time>2026-04-25T15:09:07Z</time></trkpt><trkpt lat="41.9276613149864" lon="12.805874560410597"><ele>244.0</ele><time>2026-04-25T15:09:08Z</time></trkpt><trkpt lat="41.92772096480977" lon="12.805787829044625"><ele>244.0</ele><time>2026-04-25T15:09:09Z</time></trkpt><trkpt lat="41.92779180668777" lon="12.805705360952262"><ele>244.0</ele><time>2026-04-25T15:09:10Z</time></trkpt><trkpt lat="41.92784304326578" lon="12.80562122204541"><ele>243.99999999999997</ele><time>2026-04-25T15:09:11Z</time></trkpt><trkpt lat="41.92789561634014" lon="12.805543538821171"><ele>244.0</ele><time>2026-04-25T15:09:12Z</time></trkpt><trkpt lat="41.92794924138987" lon="12.805472803086962"><ele>243.99999999999997</ele><time>2026-04-25T15:09:13Z</time></trkpt><trkpt lat="41.928003512502315" lon="12.8054034264802"><ele>244.0</ele><time>2026-04-25T15:09:14Z</time></trkpt><trkpt lat="41.928060714740944" lon="12.805333875757563"><ele>244.0</ele><time>2026-04-25T15:09:15Z</time></trkpt><trkpt lat="41.928125213727085" lon="12.8052660824462"><ele>244.0</ele><time>2026-04-25T15:09:16Z</time></trkpt><trkpt lat="41.92818501277108" lon="12.805214125353244"><ele>243.99999999999997</ele><time>2026-04-25T15:09:17Z</time></trkpt><trkpt lat="41.928244949714035" lon="12.805174057625814"><ele>244.0</ele><time>2026-04-25T15:09:18Z</time></trkpt><trkpt lat="41.92835302920522" lon="12.80510274016477"><ele>241.79999999999998</ele><time>2026-04-25T15:09:20Z</time></trkpt><trkpt lat="41.92844911086579" lon="12.805011636936035"><ele>239.59999999999997</ele><time>2026-04-25T15:09:22Z</time></trkpt><trkpt lat="41.92852106370429" lon="12.804895538557584"><ele>237.4</ele><time>2026-04-25T15:09:24Z</time></trkpt><trkpt lat="41.92858476729337" lon="12.804778335142833"><ele>235.2</ele><time>2026-04-25T15:09:26Z</time></trkpt><trkpt lat="41.92867424706835" lon="12.804689209280694"><ele>233.0</ele><time>2026-04-25T15:09:28Z</time></trkpt><trkpt lat="41.928757332220435" lon="12.804584884876997"><ele>233.0</ele><time>2026-04-25T15:09:30Z</time></trkpt><trkpt lat="41.92882112737924" lon="12.804451932368199"><ele>233.0</ele><time>2026-04-25T15:09:32Z</time></trkpt><trkpt lat="41.92889333132602" lon="12.804318608446208"><ele>233.0</ele><time>2026-04-25T15:09:34Z</time></trkpt><trkpt lat="41.92897922161178" lon="12.804217556326174"><ele>233.0</ele><time>2026-04-25T15:09:36Z</time></trkpt><trkpt lat="41.92907050518431" lon="12.804164858394508"><ele>230.60000000000002</ele><time>2026-04-25T15:09:38Z</time></trkpt><trkpt lat="41.9291808644023" lon="12.80418828121629"><ele>228.20000000000002</ele><time>2026-04-25T15:09:40Z</time></trkpt><trkpt lat="41.9293062218847" lon="12.804242863447069"><ele>225.8</ele><time>2026-04-25T15:09:42Z</time></trkpt><trkpt lat="41.92937490925945" lon="12.804265960443345"><ele>223.4</ele><time>2026-04-25T15:09:43Z</time></trkpt><trkpt lat="41.929446382179734" lon="12.80426137192345"><ele>221.0</ele><time>2026-04-25T15:09:44Z</time></trkpt><trkpt lat="41.929511425415484" lon="12.804233247557598"><ele>221.00000000000003</ele><time>2026-04-25T15:09:45Z</time></trkpt><trkpt lat="41.92957656362503" lon="12.804201021766259"><ele>221.0</ele><time>2026-04-25T15:09:46Z</time></trkpt><trkpt lat="41.92963960482946" lon="12.804165606403341"><ele>221.0</ele><time>2026-04-25T15:09:47Z</time></trkpt><trkpt lat="41.929702649473235" lon="12.804125817045659"><ele>221.0</ele><time>2026-04-25T15:09:48Z</time></trkpt><trkpt lat="41.929773414587565" lon="12.804095826351837"><ele>221.0</ele><time>2026-04-25T15:09:49Z</time></trkpt><trkpt lat="41.92983501484003" lon="12.8040406655522"><ele>221.00000000000003</ele><time>2026-04-25T15:09:50Z</time></trkpt><trkpt lat="41.92989474689402" lon="12.80399791147638"><ele>221.0</ele><time>2026-04-25T15:09:51Z</time></trkpt><trkpt lat="41.929953730213015" lon="12.803947819317301"><ele>221.00000000000003</ele><time>2026-04-25T15:09:52Z</time></trkpt><trkpt lat="41.9300136771785" lon="12.80389650621778"><ele>221.0</ele><time>2026-04-25T15:09:53Z</time></trkpt><trkpt lat="41.93007474865699" lon="12.803838239002834"><ele>221.0</ele><time>2026-04-25T15:09:54Z</time></trkpt><trkpt lat="41.93013707136225" lon="12.803784744855934"><ele>221.0</ele><time>2026-04-25T15:09:55Z</time></trkpt><trkpt lat="41.93019057799221" lon="12.803732763574606"><ele>221.0</ele><time>2026-04-25T15:09:56Z</time></trkpt><trkpt lat="41.93023809182209" lon="12.803673053550755"><ele>221.00000000000003</ele><time>2026-04-25T15:09:57Z</time></trkpt><trkpt lat="41.9302864298982" lon="12.80361153563189"><ele>221.0</ele><time>2026-04-25T15:09:58.001Z</time></trkpt><trkpt lat="41.930332720046245" lon="12.803539462905785"><ele>221.16666666666669</ele><time>2026-04-25T15:09:59.001Z</time></trkpt><trkpt lat="41.930380738186926" lon="12.803460774051715"><ele>221.33333333333334</ele><time>2026-04-25T15:10:00.001Z</time></trkpt><trkpt lat="41.93043675640126" lon="12.803395200913187"><ele>221.5</ele><time>2026-04-25T15:10:01.001Z</time></trkpt><trkpt lat="41.93050026049611" lon="12.803323954611086"><ele>221.66666666666669</ele><time>2026-04-25T15:10:02Z</time></trkpt><trkpt lat="41.93056327876686" lon="12.803251805410214"><ele>221.83333333333334</ele><time>2026-04-25T15:10:03Z</time></trkpt><trkpt lat="41.93060952598158" lon="12.803164434201678"><ele>222.0</ele><time>2026-04-25T15:10:04Z</time></trkpt><trkpt lat="41.93065481776239" lon="12.803060861245584"><ele>222.0</ele><time>2026-04-25T15:10:05Z</time></trkpt><trkpt lat="41.93070248581726" lon="12.802969465009713"><ele>222.0</ele><time>2026-04-25T15:10:06Z</time></trkpt><trkpt lat="41.93074648071163" lon="12.802892386657645"><ele>222.0</ele><time>2026-04-25T15:10:07Z</time></trkpt><trkpt lat="41.930798026742856" lon="12.802838566154984"><ele>222.0</ele><time>2026-04-25T15:10:08Z</time></trkpt><trkpt lat="41.93089682589" lon="12.802775953549471"><ele>222.0</ele><time>2026-04-25T15:10:10Z</time></trkpt><trkpt lat="41.93095943198157" lon="12.80274626632778"><ele>222.0</ele><time>2026-04-25T15:10:11Z</time></trkpt><trkpt lat="41.931071147482584" lon="12.80269379579301"><ele>222.0</ele><time>2026-04-25T15:10:13Z</time></trkpt><trkpt lat="41.9311684662389" lon="12.802661414371574"><ele>222.0</ele><time>2026-04-25T15:10:15Z</time></trkpt><trkpt lat="41.93123239758276" lon="12.80267558772309"><ele>222.0</ele><time>2026-04-25T15:10:17Z</time></trkpt><trkpt lat="41.931294513730286" lon="12.80273962057261"><ele>222.0</ele><time>2026-04-25T15:10:52Z</time></trkpt><trkpt lat="41.93139030018" lon="12.802799191841425"><ele>222.0</ele><time>2026-04-25T15:10:54Z</time></trkpt><trkpt lat="41.93145391749268" lon="12.802829612344025"><ele>222.0</ele><time>2026-04-25T15:10:55Z</time></trkpt><trkpt lat="41.93155507904424" lon="12.802861691987863"><ele>222.0</ele><time>2026-04-25T15:10:57Z</time></trkpt><trkpt lat="41.93163311358074" lon="12.802818836084175"><ele>222.0</ele><time>2026-04-25T15:10:59Z</time></trkpt><trkpt lat="41.93170868829561" lon="12.802774389492338"><ele>222.0</ele><time>2026-04-25T15:11:01Z</time></trkpt><trkpt lat="41.931778688527324" lon="12.80270958803428"><ele>222.0</ele><time>2026-04-25T15:11:03Z</time></trkpt><trkpt lat="41.93185660853882" lon="12.80264198694436"><ele>222.0</ele><time>2026-04-25T15:11:05Z</time></trkpt><trkpt lat="41.931934795835176" lon="12.802591000359486"><ele>222.0</ele><time>2026-04-25T15:11:07Z</time></trkpt><trkpt lat="41.93202892891964" lon="12.802547859111606"><ele>220.8</ele><time>2026-04-25T15:11:09Z</time></trkpt><trkpt lat="41.932130864742454" lon="12.802509626594928"><ele>219.6</ele><time>2026-04-25T15:11:11Z</time></trkpt><trkpt lat="41.93224523701894" lon="12.802490965566964"><ele>218.40000000000003</ele><time>2026-04-25T15:11:13Z</time></trkpt><trkpt lat="41.93237329924245" lon="12.802477639319715"><ele>217.20000000000002</ele><time>2026-04-25T15:11:15Z</time></trkpt><trkpt lat="41.932453582637855" lon="12.802483623662884"><ele>216.0</ele><time>2026-04-25T15:11:16Z</time></trkpt><trkpt lat="41.9325506360757" lon="12.80249658068117"><ele>217.5</ele><time>2026-04-25T15:11:17Z</time></trkpt><trkpt lat="41.93262389760325" lon="12.80247369610899"><ele>219.0</ele><time>2026-04-25T15:11:18Z</time></trkpt><trkpt lat="41.93271253593132" lon="12.802453784240312"><ele>220.5</ele><time>2026-04-25T15:11:19Z</time></trkpt><trkpt lat="41.932794483945976" lon="12.802410551620332"><ele>222.0</ele><time>2026-04-25T15:11:20Z</time></trkpt><trkpt lat="41.93287339443541" lon="12.802361100469545"><ele>223.5</ele><time>2026-04-25T15:11:21Z</time></trkpt><trkpt lat="41.93296119684858" lon="12.802316322824378"><ele>225.0</ele><time>2026-04-25T15:11:22Z</time></trkpt><trkpt lat="41.933045050221885" lon="12.802274348290322"><ele>225.0</ele><time>2026-04-25T15:11:23Z</time></trkpt><trkpt lat="41.93313976478318" lon="12.80223426123396"><ele>225.0</ele><time>2026-04-25T15:11:24Z</time></trkpt><trkpt lat="41.93322367925264" lon="12.802178262681222"><ele>225.0</ele><time>2026-04-25T15:11:25Z</time></trkpt><trkpt lat="41.93330426097482" lon="12.802117590579671"><ele>225.0</ele><time>2026-04-25T15:11:26Z</time></trkpt><trkpt lat="41.93339777244962" lon="12.802062384634405"><ele>225.0</ele><time>2026-04-25T15:11:27Z</time></trkpt><trkpt lat="41.933485336695455" lon="12.802036864191969"><ele>225.33333333333334</ele><time>2026-04-25T15:11:28Z</time></trkpt><trkpt lat="41.93355242209999" lon="12.802006308814464"><ele>225.66666666666669</ele><time>2026-04-25T15:11:29Z</time></trkpt><trkpt lat="41.933631741551984" lon="12.80199077744087"><ele>226.0</ele><time>2026-04-25T15:11:30Z</time></trkpt><trkpt lat="41.93371198694261" lon="12.801982390614187"><ele>226.33333333333334</ele><time>2026-04-25T15:11:31Z</time></trkpt><trkpt lat="41.933791392975614" lon="12.801974847847239"><ele>226.66666666666669</ele><time>2026-04-25T15:11:32Z</time></trkpt><trkpt lat="41.933874314908785" lon="12.801990452805944"><ele>227.0</ele><time>2026-04-25T15:11:33Z</time></trkpt><trkpt lat="41.93395826497548" lon="12.802012041426028"><ele>227.00000000000003</ele><time>2026-04-25T15:11:34Z</time></trkpt><trkpt lat="41.9340404975433" lon="12.802041535222283"><ele>227.0</ele><time>2026-04-25T15:11:35Z</time></trkpt><trkpt lat="41.93412199899477" lon="12.802082627353922"><ele>227.0</ele><time>2026-04-25T15:11:36Z</time></trkpt><trkpt lat="41.93418870731724" lon="12.802131012062766"><ele>227.0</ele><time>2026-04-25T15:11:37Z</time></trkpt><trkpt lat="41.93424641197113" lon="12.802179189380666"><ele>227.00000000000003</ele><time>2026-04-25T15:11:38Z</time></trkpt><trkpt lat="41.934368126400685" lon="12.80222149227234"><ele>227.0</ele><time>2026-04-25T15:11:40Z</time></trkpt><trkpt lat="41.934432916554314" lon="12.802204408819899"><ele>226.2</ele><time>2026-04-25T15:11:41Z</time></trkpt><trkpt lat="41.93450289746404" lon="12.80215199445433"><ele>225.39999999999998</ele><time>2026-04-25T15:11:42Z</time></trkpt><trkpt lat="41.93456515865707" lon="12.802088281275358"><ele>224.60000000000002</ele><time>2026-04-25T15:11:43Z</time></trkpt><trkpt lat="41.93463001862944" lon="12.802004004621999"><ele>223.8</ele><time>2026-04-25T15:11:44Z</time></trkpt><trkpt lat="41.93467957153329" lon="12.801892367857096"><ele>223.0</ele><time>2026-04-25T15:11:45Z</time></trkpt><trkpt lat="41.9347282599911" lon="12.801760186022099"><ele>222.99999999999997</ele><time>2026-04-25T15:11:46Z</time></trkpt><trkpt lat="41.93479239106745" lon="12.801628722513408"><ele>223.0</ele><time>2026-04-25T15:11:47Z</time></trkpt><trkpt lat="41.93484723774119" lon="12.80152115192924"><ele>223.0</ele><time>2026-04-25T15:11:48Z</time></trkpt><trkpt lat="41.93489317849813" lon="12.801429170180054"><ele>223.0</ele><time>2026-04-25T15:11:49Z</time></trkpt><trkpt lat="41.934944948927104" lon="12.801365323083404"><ele>222.99999999999997</ele><time>2026-04-25T15:11:50Z</time></trkpt><trkpt lat="41.93499732387352" lon="12.80131315262857"><ele>223.0</ele><time>2026-04-25T15:11:51Z</time></trkpt><trkpt lat="41.9350591938728" lon="12.801271937725827"><ele>223.83333333333331</ele><time>2026-04-25T15:11:52Z</time></trkpt><trkpt lat="41.9351242971397" lon="12.801237978948562"><ele>224.66666666666666</ele><time>2026-04-25T15:11:53Z</time></trkpt><trkpt lat="41.93520211726423" lon="12.801200603661826"><ele>225.5</ele><time>2026-04-25T15:11:54Z</time></trkpt><trkpt lat="41.93527754035667" lon="12.801159314730251"><ele>226.33333333333331</ele><time>2026-04-25T15:11:55Z</time></trkpt><trkpt lat="41.93534793260062" lon="12.801086726947355"><ele>227.16666666666666</ele><time>2026-04-25T15:11:56Z</time></trkpt><trkpt lat="41.935413172039254" lon="12.800991408719998"><ele>228.0</ele><time>2026-04-25T15:11:57Z</time></trkpt><trkpt lat="41.935467192363404" lon="12.80089011243324"><ele>228.0</ele><time>2026-04-25T15:11:58Z</time></trkpt><trkpt lat="41.935515576327425" lon="12.800802350600803"><ele>228.0</ele><time>2026-04-25T15:11:59Z</time></trkpt><trkpt lat="41.9355689602898" lon="12.800716849137187"><ele>228.0</ele><time>2026-04-25T15:12:00Z</time></trkpt><trkpt lat="41.9356166516573" lon="12.800630454995861"><ele>228.0</ele><time>2026-04-25T15:12:01Z</time></trkpt><trkpt lat="41.93566509864414" lon="12.800545133543382"><ele>228.0</ele><time>2026-04-25T15:12:02Z</time></trkpt><trkpt lat="41.93572157075131" lon="12.800468305823333"><ele>228.0</ele><time>2026-04-25T15:12:03Z</time></trkpt><trkpt lat="41.935791548426" lon="12.800397931648163"><ele>228.0</ele><time>2026-04-25T15:12:04Z</time></trkpt><trkpt lat="41.93587764218997" lon="12.80033520476861"><ele>228.0</ele><time>2026-04-25T15:12:05Z</time></trkpt><trkpt lat="41.93596632483871" lon="12.800281312594759"><ele>228.0</ele><time>2026-04-25T15:12:06Z</time></trkpt><trkpt lat="41.93605476236119" lon="12.800217262677846"><ele>228.0</ele><time>2026-04-25T15:12:07Z</time></trkpt><trkpt lat="41.936132550572495" lon="12.800152299673213"><ele>228.0</ele><time>2026-04-25T15:12:08Z</time></trkpt><trkpt lat="41.93621128285941" lon="12.800093614573624"><ele>227.4</ele><time>2026-04-25T15:12:09Z</time></trkpt><trkpt lat="41.936292315199" lon="12.800037944980792"><ele>226.8</ele><time>2026-04-25T15:12:10Z</time></trkpt><trkpt lat="41.936363238248205" lon="12.799982804481763"><ele>226.2</ele><time>2026-04-25T15:12:11Z</time></trkpt><trkpt lat="41.936432437807575" lon="12.799900584651033"><ele>225.6</ele><time>2026-04-25T15:12:12Z</time></trkpt><trkpt lat="41.93649440613746" lon="12.799800337559944"><ele>225.0</ele><time>2026-04-25T15:12:13Z</time></trkpt><trkpt lat="41.93656707606792" lon="12.799714326698993"><ele>225.0</ele><time>2026-04-25T15:12:14Z</time></trkpt><trkpt lat="41.93664698553855" lon="12.799650210264756"><ele>225.0</ele><time>2026-04-25T15:12:15Z</time></trkpt><trkpt lat="41.93673084029822" lon="12.79957317376174"><ele>225.0</ele><time>2026-04-25T15:12:16Z</time></trkpt><trkpt lat="41.93679991547478" lon="12.799510683725027"><ele>225.0</ele><time>2026-04-25T15:12:17Z</time></trkpt><trkpt lat="41.936876267061024" lon="12.799455808381577"><ele>225.0</ele><time>2026-04-25T15:12:18Z</time></trkpt><trkpt lat="41.93694228098664" lon="12.79940058536509"><ele>225.0</ele><time>2026-04-25T15:12:19Z</time></trkpt><trkpt lat="41.93700403672724" lon="12.799349387540992"><ele>225.8</ele><time>2026-04-25T15:12:20Z</time></trkpt><trkpt lat="41.9370502604768" lon="12.799276836734327"><ele>226.6</ele><time>2026-04-25T15:12:21Z</time></trkpt><trkpt lat="41.93711800098964" lon="12.799141203172729"><ele>227.39999999999998</ele><time>2026-04-25T15:12:23Z</time></trkpt><trkpt lat="41.937148305434064" lon="12.799061724927054"><ele>228.2</ele><time>2026-04-25T15:12:24Z</time></trkpt><trkpt lat="41.937173145283225" lon="12.798977602669359"><ele>229.0</ele><time>2026-04-25T15:12:25Z</time></trkpt><trkpt lat="41.93720100456293" lon="12.798808760599249"><ele>229.0</ele><time>2026-04-25T15:12:27Z</time></trkpt><trkpt lat="41.93723925597045" lon="12.798652863119141"><ele>228.99999999999997</ele><time>2026-04-25T15:12:29Z</time></trkpt><trkpt lat="41.937278099732495" lon="12.798536548256783"><ele>228.99999999999997</ele><time>2026-04-25T15:12:31Z</time></trkpt><trkpt lat="41.93733063968412" lon="12.798475586936167"><ele>229.0</ele><time>2026-04-25T15:12:36Z</time></trkpt><trkpt lat="41.93747128353362" lon="12.798423306026915"><ele>229.0</ele><time>2026-04-25T15:13:00Z</time></trkpt><trkpt lat="41.93754215631658" lon="12.79835054561953"><ele>228.99999999999997</ele><time>2026-04-25T15:13:02Z</time></trkpt><trkpt lat="41.937645811383966" lon="12.798278497095227"><ele>229.0</ele><time>2026-04-25T15:13:04Z</time></trkpt><trkpt lat="41.93770545800103" lon="12.798244935924645"><ele>229.0</ele><time>2026-04-25T15:13:05Z</time></trkpt><trkpt lat="41.93776506369555" lon="12.79819567888226"><ele>229.0</ele><time>2026-04-25T15:13:06Z</time></trkpt><trkpt lat="41.93782292618179" lon="12.798158238235395"><ele>228.99999999999997</ele><time>2026-04-25T15:13:07Z</time></trkpt><trkpt lat="41.93788401602693" lon="12.798114755337865"><ele>229.0</ele><time>2026-04-25T15:13:08Z</time></trkpt><trkpt lat="41.937939656376514" lon="12.798069130613193"><ele>229.0</ele><time>2026-04-25T15:13:09Z</time></trkpt><trkpt lat="41.93800088375235" lon="12.79802854349097"><ele>229.0</ele><time>2026-04-25T15:13:10Z</time></trkpt><trkpt lat="41.938060310407224" lon="12.797990261368248"><ele>229.0</ele><time>2026-04-25T15:13:11Z</time></trkpt><trkpt lat="41.938124052464644" lon="12.797948595794137"><ele>229.0</ele><time>2026-04-25T15:13:12Z</time></trkpt><trkpt lat="41.93819076524803" lon="12.797872988254227"><ele>229.0</ele><time>2026-04-25T15:13:13Z</time></trkpt><trkpt lat="41.93824932828717" lon="12.797816160588251"><ele>229.0</ele><time>2026-04-25T15:13:14Z</time></trkpt><trkpt lat="41.93830271272249" lon="12.7977411305841"><ele>229.0</ele><time>2026-04-25T15:13:15Z</time></trkpt><trkpt lat="41.93835836601562" lon="12.797664214409911"><ele>229.0</ele><time>2026-04-25T15:13:16Z</time></trkpt><trkpt lat="41.93842079707916" lon="12.797599692321608"><ele>228.99999999999997</ele><time>2026-04-25T15:13:17Z</time></trkpt><trkpt lat="41.93847192027813" lon="12.79753245491364"><ele>228.99999999999997</ele><time>2026-04-25T15:13:18Z</time></trkpt><trkpt lat="41.93857344237177" lon="12.79745496589193"><ele>229.0</ele><time>2026-04-25T15:13:20Z</time></trkpt><trkpt lat="41.93865463033933" lon="12.79738983917875"><ele>229.0</ele><time>2026-04-25T15:13:22Z</time></trkpt><trkpt lat="41.93874474666249" lon="12.79731148316944"><ele>229.0</ele><time>2026-04-25T15:13:24Z</time></trkpt><trkpt lat="41.93884262119274" lon="12.797219710943983"><ele>229.0</ele><time>2026-04-25T15:13:26Z</time></trkpt><trkpt lat="41.93892441554783" lon="12.797113915917564"><ele>229.0</ele><time>2026-04-25T15:13:28Z</time></trkpt><trkpt lat="41.93901463510502" lon="12.796996456732597"><ele>229.0</ele><time>2026-04-25T15:13:30Z</time></trkpt><trkpt lat="41.93911659657572" lon="12.796895874546625"><ele>229.0</ele><time>2026-04-25T15:13:32Z</time></trkpt><trkpt lat="41.939177003326414" lon="12.79684342075702"><ele>229.0</ele><time>2026-04-25T15:13:33Z</time></trkpt><trkpt lat="41.93923816853057" lon="12.796786587545283"><ele>229.0</ele><time>2026-04-25T15:13:34Z</time></trkpt><trkpt lat="41.93929447329721" lon="12.79672319757254"><ele>229.0</ele><time>2026-04-25T15:13:35Z</time></trkpt><trkpt lat="41.93935095284946" lon="12.79666874059243"><ele>229.0</ele><time>2026-04-25T15:13:36Z</time></trkpt><trkpt lat="41.9394105865492" lon="12.796619440111638"><ele>229.0</ele><time>2026-04-25T15:13:37Z</time></trkpt><trkpt lat="41.939466290105806" lon="12.796573865976775"><ele>229.0</ele><time>2026-04-25T15:13:38Z</time></trkpt><trkpt lat="41.939521822619625" lon="12.796529538947533"><ele>228.83333333333331</ele><time>2026-04-25T15:13:39Z</time></trkpt><trkpt lat="41.939584064655605" lon="12.796489767796029"><ele>228.66666666666666</ele><time>2026-04-25T15:13:40Z</time></trkpt><trkpt lat="41.939642291378746" lon="12.796453474738557"><ele>228.5</ele><time>2026-04-25T15:13:41Z</time></trkpt><trkpt lat="41.93975963976213" lon="12.796407400402511"><ele>228.33333333333331</ele><time>2026-04-25T15:13:43Z</time></trkpt><trkpt lat="41.93981953163353" lon="12.796375456999835"><ele>228.16666666666666</ele><time>2026-04-25T15:13:44Z</time></trkpt><trkpt lat="41.93991748078372" lon="12.796320755043"><ele>228.0</ele><time>2026-04-25T15:13:46Z</time></trkpt><trkpt lat="41.93998571553756" lon="12.796286731416359"><ele>228.4</ele><time>2026-04-25T15:13:48Z</time></trkpt><trkpt lat="41.94009730786692" lon="12.796218407850999"><ele>228.8</ele><time>2026-04-25T15:14:00Z</time></trkpt><trkpt lat="41.94022382813672" lon="12.796200981948845"><ele>229.2</ele><time>2026-04-25T15:14:02Z</time></trkpt><trkpt lat="41.940307620096355" lon="12.796206062705137"><ele>229.6</ele><time>2026-04-25T15:14:03Z</time></trkpt><trkpt lat="41.94039339302107" lon="12.796234152597632"><ele>230.0</ele><time>2026-04-25T15:14:04Z</time></trkpt><trkpt lat="41.94048235614682" lon="12.796270607556057"><ele>230.00000000000003</ele><time>2026-04-25T15:14:05Z</time></trkpt><trkpt lat="41.940572316007064" lon="12.796315650869742"><ele>230.0</ele><time>2026-04-25T15:14:06Z</time></trkpt><trkpt lat="41.94065114621711" lon="12.79637087967413"><ele>230.0</ele><time>2026-04-25T15:14:07Z</time></trkpt><trkpt lat="41.940726701479754" lon="12.796421821128806"><ele>230.0</ele><time>2026-04-25T15:14:08Z</time></trkpt><trkpt lat="41.94079448244652" lon="12.796452627877702"><ele>230.00000000000003</ele><time>2026-04-25T15:14:09Z</time></trkpt><trkpt lat="41.94086020583738" lon="12.796475822644316"><ele>230.0</ele><time>2026-04-25T15:14:10Z</time></trkpt><trkpt lat="41.94093050509487" lon="12.796462586386799"><ele>232.00000000000003</ele><time>2026-04-25T15:14:11Z</time></trkpt><trkpt lat="41.94099308247839" lon="12.796420282653159"><ele>234.0</ele><time>2026-04-25T15:14:12Z</time></trkpt><trkpt lat="41.94105405661418" lon="12.796342452465247"><ele>236.0</ele><time>2026-04-25T15:14:13Z</time></trkpt><trkpt lat="41.94111786847982" lon="12.796253184598452"><ele>238.0</ele><time>2026-04-25T15:14:14.001Z</time></trkpt><trkpt lat="41.941186372580226" lon="12.796164985892638"><ele>240.00000000000003</ele><time>2026-04-25T15:14:15.001Z</time></trkpt><trkpt lat="41.94126025105921" lon="12.796081010792765"><ele>242.0</ele><time>2026-04-25T15:14:16.001Z</time></trkpt><trkpt lat="41.9413334803737" lon="12.796016704758198"><ele>240.16666666666669</ele><time>2026-04-25T15:14:17.001Z</time></trkpt><trkpt lat="41.94139781269576" lon="12.795959414245315"><ele>238.33333333333334</ele><time>2026-04-25T15:14:18.001Z</time></trkpt><trkpt lat="41.94146622151174" lon="12.79590990315724"><ele>236.5</ele><time>2026-04-25T15:14:19.001Z</time></trkpt><trkpt lat="41.94153214622336" lon="12.795868763992333"><ele>234.66666666666669</ele><time>2026-04-25T15:14:20.001Z</time></trkpt><trkpt lat="41.94160521159409" lon="12.795838211191638"><ele>232.83333333333334</ele><time>2026-04-25T15:14:21Z</time></trkpt><trkpt lat="41.94168950875921" lon="12.795822303436044"><ele>231.0</ele><time>2026-04-25T15:14:22Z</time></trkpt><trkpt lat="41.94181633536394" lon="12.795825916969077"><ele>231.0</ele><time>2026-04-25T15:14:24Z</time></trkpt><trkpt lat="41.941931284463934" lon="12.795757590397729"><ele>231.00000000000003</ele><time>2026-04-25T15:14:26Z</time></trkpt><trkpt lat="41.94198674719669" lon="12.795703233503247"><ele>231.00000000000003</ele><time>2026-04-25T15:14:27Z</time></trkpt><trkpt lat="41.94205548251599" lon="12.795639848127587"><ele>231.0</ele><time>2026-04-25T15:14:28Z</time></trkpt><trkpt lat="41.94213996062586" lon="12.795573377879782"><ele>231.0</ele><time>2026-04-25T15:14:29Z</time></trkpt><trkpt lat="41.942232882890956" lon="12.795491065244695"><ele>231.0</ele><time>2026-04-25T15:14:30Z</time></trkpt><trkpt lat="41.942311795800364" lon="12.795437223892417"><ele>231.0</ele><time>2026-04-25T15:14:31Z</time></trkpt><trkpt lat="41.94238851278045" lon="12.795391968857166"><ele>231.0</ele><time>2026-04-25T15:14:32Z</time></trkpt><trkpt lat="41.94244946826422" lon="12.795345710837449"><ele>231.0</ele><time>2026-04-25T15:14:33Z</time></trkpt><trkpt lat="41.94251129722368" lon="12.79531798656432"><ele>231.0</ele><time>2026-04-25T15:14:34Z</time></trkpt><trkpt lat="41.94263345662982" lon="12.795263320714021"><ele>231.0</ele><time>2026-04-25T15:14:36Z</time></trkpt><trkpt lat="41.94272094620495" lon="12.79524232752815"><ele>229.20000000000002</ele><time>2026-04-25T15:14:37Z</time></trkpt><trkpt lat="41.9428116204859" lon="12.795209485961133"><ele>227.40000000000003</ele><time>2026-04-25T15:14:38Z</time></trkpt><trkpt lat="41.94291187785612" lon="12.79517102303148"><ele>225.6</ele><time>2026-04-25T15:14:39Z</time></trkpt><trkpt lat="41.94301417094246" lon="12.795122784754817"><ele>223.8</ele><time>2026-04-25T15:14:40Z</time></trkpt><trkpt lat="41.94312390917374" lon="12.795078873480197"><ele>222.0</ele><time>2026-04-25T15:14:41Z</time></trkpt><trkpt lat="41.943231420003514" lon="12.795037587276806"><ele>222.0</ele><time>2026-04-25T15:14:42Z</time></trkpt><trkpt lat="41.94334276573447" lon="12.794989149751704"><ele>222.0</ele><time>2026-04-25T15:14:43Z</time></trkpt><trkpt lat="41.94345422977207" lon="12.794941051775034"><ele>222.0</ele><time>2026-04-25T15:14:44Z</time></trkpt><trkpt lat="41.94356362014167" lon="12.794882169251453"><ele>222.0</ele><time>2026-04-25T15:14:45Z</time></trkpt><trkpt lat="41.94367342936798" lon="12.79482420804733"><ele>225.25</ele><time>2026-04-25T15:14:46Z</time></trkpt><trkpt lat="41.94378164571044" lon="12.794767921362482"><ele>228.5</ele><time>2026-04-25T15:14:47Z</time></trkpt><trkpt lat="41.94389132436987" lon="12.794718134175687"><ele>231.75</ele><time>2026-04-25T15:14:48Z</time></trkpt><trkpt lat="41.94400284594784" lon="12.794671949236257"><ele>235.0</ele><time>2026-04-25T15:14:49Z</time></trkpt><trkpt lat="41.94411543357114" lon="12.794628401721791"><ele>235.2</ele><time>2026-04-25T15:14:50Z</time></trkpt><trkpt lat="41.94421437186748" lon="12.794590812683003"><ele>235.4</ele><time>2026-04-25T15:14:51Z</time></trkpt><trkpt lat="41.944309311257776" lon="12.79455497295666"><ele>235.60000000000002</ele><time>2026-04-25T15:14:52Z</time></trkpt><trkpt lat="41.944410047767384" lon="12.79452734324051"><ele>235.8</ele><time>2026-04-25T15:14:53Z</time></trkpt><trkpt lat="41.94449793051386" lon="12.794515901265598"><ele>236.0</ele><time>2026-04-25T15:14:54Z</time></trkpt><trkpt lat="41.94458530776782" lon="12.794504586943468"><ele>236.00000000000003</ele><time>2026-04-25T15:14:55Z</time></trkpt><trkpt lat="41.94467022343499" lon="12.794494450679391"><ele>236.0</ele><time>2026-04-25T15:14:56Z</time></trkpt><trkpt lat="41.9447631833574" lon="12.794483034827877"><ele>236.0</ele><time>2026-04-25T15:14:57Z</time></trkpt><trkpt lat="41.94485050201482" lon="12.794476718052104"><ele>236.0</ele><time>2026-04-25T15:14:58Z</time></trkpt><trkpt lat="41.94494010029964" lon="12.794468931820006"><ele>236.00000000000003</ele><time>2026-04-25T15:14:59Z</time></trkpt><trkpt lat="41.94502979564387" lon="12.794470462177937"><ele>236.0</ele><time>2026-04-25T15:15:00Z</time></trkpt><trkpt lat="41.945119153672344" lon="12.79448643013778"><ele>234.0</ele><time>2026-04-25T15:15:01Z</time></trkpt><trkpt lat="41.94521277356677" lon="12.79449666880445"><ele>232.00000000000003</ele><time>2026-04-25T15:15:02Z</time></trkpt><trkpt lat="41.945307803199654" lon="12.79450817735754"><ele>230.00000000000003</ele><time>2026-04-25T15:15:03Z</time></trkpt><trkpt lat="41.94540286745206" lon="12.794517649989"><ele>228.0</ele><time>2026-04-25T15:15:04Z</time></trkpt><trkpt lat="41.94550765435406" lon="12.794527670362001"><ele>226.0</ele><time>2026-04-25T15:15:05Z</time></trkpt><trkpt lat="41.945607993706304" lon="12.794551569288991"><ele>226.0</ele><time>2026-04-25T15:15:06Z</time></trkpt><trkpt lat="41.94571003298584" lon="12.794576284518945"><ele>226.00000000000003</ele><time>2026-04-25T15:15:07Z</time></trkpt><trkpt lat="41.945808557802614" lon="12.794604959796454"><ele>226.00000000000003</ele><time>2026-04-25T15:15:08Z</time></trkpt><trkpt lat="41.945906865682076" lon="12.794638541086048"><ele>226.0</ele><time>2026-04-25T15:15:09Z</time></trkpt><trkpt lat="41.94599769762899" lon="12.794668579005817"><ele>226.0</ele><time>2026-04-25T15:15:10Z</time></trkpt><trkpt lat="41.94607630813773" lon="12.79470240439152"><ele>223.99999999999997</ele><time>2026-04-25T15:15:11Z</time></trkpt><trkpt lat="41.946151637888065" lon="12.794730263518925"><ele>222.0</ele><time>2026-04-25T15:15:12Z</time></trkpt><trkpt lat="41.94621914447412" lon="12.794765052265697"><ele>220.0</ele><time>2026-04-25T15:15:13Z</time></trkpt><trkpt lat="41.946295658169234" lon="12.794812332411587"><ele>218.0</ele><time>2026-04-25T15:15:14Z</time></trkpt><trkpt lat="41.946368001278216" lon="12.794870361266385"><ele>215.99999999999997</ele><time>2026-04-25T15:15:15Z</time></trkpt><trkpt lat="41.94643772441402" lon="12.794927695545557"><ele>214.0</ele><time>2026-04-25T15:15:16Z</time></trkpt><trkpt lat="41.94650326748038" lon="12.794989988005748"><ele>213.99999999999997</ele><time>2026-04-25T15:15:17Z</time></trkpt><trkpt lat="41.946561796516285" lon="12.795059414386255"><ele>214.0</ele><time>2026-04-25T15:15:18Z</time></trkpt><trkpt lat="41.94661651519885" lon="12.795127352724474"><ele>214.0</ele><time>2026-04-25T15:15:19Z</time></trkpt><trkpt lat="41.946681651491666" lon="12.795185327845665"><ele>214.0</ele><time>2026-04-25T15:15:20Z</time></trkpt><trkpt lat="41.94674830155936" lon="12.795218892841948"><ele>213.99999999999997</ele><time>2026-04-25T15:15:21Z</time></trkpt><trkpt lat="41.94681916562882" lon="12.795226992897272"><ele>214.0</ele><time>2026-04-25T15:15:22Z</time></trkpt><trkpt lat="41.9468982710158" lon="12.795201845909043"><ele>214.66666666666666</ele><time>2026-04-25T15:15:23Z</time></trkpt><trkpt lat="41.9469771169334" lon="12.795175194676172"><ele>215.33333333333331</ele><time>2026-04-25T15:15:24Z</time></trkpt><trkpt lat="41.947050452149014" lon="12.795142794904178"><ele>216.0</ele><time>2026-04-25T15:15:25Z</time></trkpt><trkpt lat="41.94712310198587" lon="12.795110770746225"><ele>216.66666666666669</ele><time>2026-04-25T15:15:26Z</time></trkpt><trkpt lat="41.947198916763014" lon="12.795079829138375"><ele>217.33333333333334</ele><time>2026-04-25T15:15:27Z</time></trkpt><trkpt lat="41.94727205179367" lon="12.795045739595048"><ele>218.0</ele><time>2026-04-25T15:15:28Z</time></trkpt><trkpt lat="41.94734961418537" lon="12.79501762600655"><ele>218.00000000000003</ele><time>2026-04-25T15:15:29Z</time></trkpt><trkpt lat="41.94742519162839" lon="12.794986976811819"><ele>218.0</ele><time>2026-04-25T15:15:30Z</time></trkpt><trkpt lat="41.94750593633619" lon="12.794954711735365"><ele>218.0</ele><time>2026-04-25T15:15:31Z</time></trkpt><trkpt lat="41.94758507989163" lon="12.794911931337252"><ele>218.0</ele><time>2026-04-25T15:15:32Z</time></trkpt><trkpt lat="41.947669966473974" lon="12.794882806919487"><ele>218.00000000000003</ele><time>2026-04-25T15:15:33Z</time></trkpt><trkpt lat="41.94775138680703" lon="12.794852665986117"><ele>218.0</ele><time>2026-04-25T15:15:34Z</time></trkpt><trkpt lat="41.94783702656291" lon="12.794830345870185"><ele>218.16666666666669</ele><time>2026-04-25T15:15:35Z</time></trkpt><trkpt lat="41.94791825070724" lon="12.79480968356454"><ele>218.33333333333334</ele><time>2026-04-25T15:15:36Z</time></trkpt><trkpt lat="41.94799723414084" lon="12.794794834014855"><ele>218.5</ele><time>2026-04-25T15:15:37Z</time></trkpt><trkpt lat="41.94807030653585" lon="12.794778967735807"><ele>218.66666666666669</ele><time>2026-04-25T15:15:38Z</time></trkpt><trkpt lat="41.948147003479534" lon="12.794777608071772"><ele>218.83333333333334</ele><time>2026-04-25T15:15:39Z</time></trkpt><trkpt lat="41.94822156150897" lon="12.794805942018334"><ele>219.0</ele><time>2026-04-25T15:15:40Z</time></trkpt><trkpt lat="41.94829180209489" lon="12.794853903406167"><ele>219.0</ele><time>2026-04-25T15:15:41Z</time></trkpt><trkpt lat="41.948356583698185" lon="12.794913979740084"><ele>219.0</ele><time>2026-04-25T15:15:42Z</time></trkpt><trkpt lat="41.94842405558785" lon="12.794983672597535"><ele>219.0</ele><time>2026-04-25T15:15:43Z</time></trkpt><trkpt lat="41.94849359903866" lon="12.795066089954828"><ele>219.0</ele><time>2026-04-25T15:15:44Z</time></trkpt><trkpt lat="41.94856200767435" lon="12.795152876136818"><ele>219.0</ele><time>2026-04-25T15:15:45Z</time></trkpt><trkpt lat="41.948632310085586" lon="12.795242896141138"><ele>219.0</ele><time>2026-04-25T15:15:46Z</time></trkpt><trkpt lat="41.94870335822951" lon="12.79531856162397"><ele>221.83333333333334</ele><time>2026-04-25T15:15:47Z</time></trkpt><trkpt lat="41.948768646653576" lon="12.795376810850396"><ele>224.66666666666669</ele><time>2026-04-25T15:15:48Z</time></trkpt><trkpt lat="41.94884060959434" lon="12.795439847186158"><ele>227.5</ele><time>2026-04-25T15:15:49Z</time></trkpt><trkpt lat="41.94892340316999" lon="12.7954620754332"><ele>230.33333333333334</ele><time>2026-04-25T15:15:50Z</time></trkpt><trkpt lat="41.9490029693608" lon="12.795439243137826"><ele>233.16666666666669</ele><time>2026-04-25T15:15:51Z</time></trkpt><trkpt lat="41.94908458922883" lon="12.79538254496508"><ele>236.0</ele><time>2026-04-25T15:15:52Z</time></trkpt><trkpt lat="41.94915519493864" lon="12.795296536419036"><ele>237.28571428571428</ele><time>2026-04-25T15:15:53Z</time></trkpt><trkpt lat="41.94922042621407" lon="12.795210571965091"><ele>238.57142857142858</ele><time>2026-04-25T15:15:54Z</time></trkpt><trkpt lat="41.949277089202035" lon="12.795134767807154"><ele>239.85714285714286</ele><time>2026-04-25T15:15:55Z</time></trkpt><trkpt lat="41.94932623211579" lon="12.795070808480164"><ele>241.14285714285714</ele><time>2026-04-25T15:15:56Z</time></trkpt><trkpt lat="41.94937317588432" lon="12.795010004572928"><ele>242.42857142857144</ele><time>2026-04-25T15:15:57Z</time></trkpt><trkpt lat="41.94942275772563" lon="12.794954494779676"><ele>243.71428571428572</ele><time>2026-04-25T15:15:58Z</time></trkpt><trkpt lat="41.94947786938403" lon="12.79490023548991"><ele>245.0</ele><time>2026-04-25T15:15:59Z</time></trkpt><trkpt lat="41.949537469685495" lon="12.794843623064393"><ele>242.00000000000003</ele><time>2026-04-25T15:16:00Z</time></trkpt><trkpt lat="41.9496082891004" lon="12.794789885542546"><ele>239.0</ele><time>2026-04-25T15:16:01Z</time></trkpt><trkpt lat="41.94968140870182" lon="12.794743312344506"><ele>236.0</ele><time>2026-04-25T15:16:02Z</time></trkpt><trkpt lat="41.94975166329264" lon="12.794701401570427"><ele>233.0</ele><time>2026-04-25T15:16:03Z</time></trkpt><trkpt lat="41.94981674170337" lon="12.794675599889437"><ele>230.00000000000003</ele><time>2026-04-25T15:16:04Z</time></trkpt><trkpt lat="41.94988921428216" lon="12.794665468393843"><ele>227.0</ele><time>2026-04-25T15:16:05Z</time></trkpt><trkpt lat="41.949958514565836" lon="12.794701037877754"><ele>227.00000000000003</ele><time>2026-04-25T15:16:07Z</time></trkpt><trkpt lat="41.95003754805009" lon="12.794775062128256"><ele>227.0</ele><time>2026-04-25T15:16:10Z</time></trkpt><trkpt lat="41.95014491555713" lon="12.794854849498648"><ele>227.0</ele><time>2026-04-25T15:16:12Z</time></trkpt><trkpt lat="41.95021505361545" lon="12.79489357174784"><ele>227.0</ele><time>2026-04-25T15:16:13Z</time></trkpt><trkpt lat="41.950276272956124" lon="12.79493809023903"><ele>227.00000000000003</ele><time>2026-04-25T15:16:14Z</time></trkpt><trkpt lat="41.95033698991681" lon="12.794972955514538"><ele>227.0</ele><time>2026-04-25T15:16:15Z</time></trkpt><trkpt lat="41.95044819996229" lon="12.795018533109978"><ele>228.66666666666669</ele><time>2026-04-25T15:16:17Z</time></trkpt><trkpt lat="41.95051680766308" lon="12.795008588653074"><ele>230.33333333333334</ele><time>2026-04-25T15:16:18Z</time></trkpt><trkpt lat="41.95060747195416" lon="12.794887146064767"><ele>232.0</ele><time>2026-04-25T15:16:20Z</time></trkpt><trkpt lat="41.95063032768776" lon="12.794778601388696"><ele>233.66666666666669</ele><time>2026-04-25T15:16:21Z</time></trkpt><trkpt lat="41.95065279362024" lon="12.794670186954487"><ele>235.33333333333334</ele><time>2026-04-25T15:16:22Z</time></trkpt><trkpt lat="41.95067192140013" lon="12.794570647120414"><ele>237.0</ele><time>2026-04-25T15:16:23Z</time></trkpt><trkpt lat="41.95069366206213" lon="12.794472872515133"><ele>237.0</ele><time>2026-04-25T15:16:24Z</time></trkpt><trkpt lat="41.95071759781191" lon="12.794379362636775"><ele>237.0</ele><time>2026-04-25T15:16:25Z</time></trkpt><trkpt lat="41.950744735422866" lon="12.79428933614191"><ele>237.0</ele><time>2026-04-25T15:16:26Z</time></trkpt><trkpt lat="41.950778993858876" lon="12.794195289556212"><ele>237.0</ele><time>2026-04-25T15:16:27Z</time></trkpt><trkpt lat="41.950809942730345" lon="12.794097029660447"><ele>237.0</ele><time>2026-04-25T15:16:28Z</time></trkpt><trkpt lat="41.95083672869386" lon="12.793996723198074"><ele>237.0</ele><time>2026-04-25T15:16:29Z</time></trkpt><trkpt lat="41.95086537187486" lon="12.793890907147563"><ele>239.0</ele><time>2026-04-25T15:16:30Z</time></trkpt><trkpt lat="41.950897912908346" lon="12.793791521980427"><ele>241.0</ele><time>2026-04-25T15:16:31Z</time></trkpt><trkpt lat="41.96013759375065" lon="12.79521966271848"><ele>241.0</ele><time>2026-04-25T15:19:23Z</time></trkpt><trkpt lat="41.96008255213368" lon="12.795173318977843"><ele>241.0</ele><time>2026-04-25T15:19:24Z</time></trkpt><trkpt lat="41.959908795569206" lon="12.795030481614438"><ele>241.0</ele><time>2026-04-25T15:19:27Z</time></trkpt><trkpt lat="41.95983735830527" lon="12.794969247045687"><ele>241.0</ele><time>2026-04-25T15:19:28Z</time></trkpt><trkpt lat="41.95975164502678" lon="12.794908628130836"><ele>241.20000000000002</ele><time>2026-04-25T15:19:29Z</time></trkpt><trkpt lat="41.95966739146771" lon="12.794835266618865"><ele>241.40000000000003</ele><time>2026-04-25T15:19:30Z</time></trkpt><trkpt lat="41.9595829630783" lon="12.794770162619347"><ele>241.6</ele><time>2026-04-25T15:19:31Z</time></trkpt><trkpt lat="41.95949979878629" lon="12.794698970576293"><ele>241.8</ele><time>2026-04-25T15:19:32Z</time></trkpt><trkpt lat="41.959417846048765" lon="12.79463035443071"><ele>242.0</ele><time>2026-04-25T15:19:33Z</time></trkpt><trkpt lat="41.95933983400876" lon="12.794560682895458"><ele>242.0</ele><time>2026-04-25T15:19:34Z</time></trkpt><trkpt lat="41.95925039338343" lon="12.794501261827389"><ele>242.0</ele><time>2026-04-25T15:19:35Z</time></trkpt><trkpt lat="41.95916173247447" lon="12.794448782437035"><ele>242.0</ele><time>2026-04-25T15:19:36Z</time></trkpt><trkpt lat="41.959076582135886" lon="12.79437564656376"><ele>242.0</ele><time>2026-04-25T15:19:37Z</time></trkpt><trkpt lat="41.95899322685862" lon="12.794301928213544"><ele>242.0</ele><time>2026-04-25T15:19:38Z</time></trkpt><trkpt lat="41.958908905157095" lon="12.794241855353265"><ele>240.39999999999998</ele><time>2026-04-25T15:19:39Z</time></trkpt><trkpt lat="41.95882735553907" lon="12.794186010441713"><ele>238.79999999999998</ele><time>2026-04-25T15:19:40Z</time></trkpt><trkpt lat="41.95874892620232" lon="12.79411893724313"><ele>237.2</ele><time>2026-04-25T15:19:41Z</time></trkpt><trkpt lat="41.958673219997706" lon="12.794052578019718"><ele>235.6</ele><time>2026-04-25T15:19:42Z</time></trkpt><trkpt lat="41.95859280625912" lon="12.793993230045016"><ele>234.0</ele><time>2026-04-25T15:19:43Z</time></trkpt><trkpt lat="41.95850242225589" lon="12.79392760020695"><ele>234.0</ele><time>2026-04-25T15:19:44Z</time></trkpt><trkpt lat="41.958407391408755" lon="12.79385777991452"><ele>234.0</ele><time>2026-04-25T15:19:45Z</time></trkpt></trkseg></trk></gpx>